<?xml version="1.0" encoding="UTF-8" standalone="no" ?>
<gpx xmlns="http://www.topografix.com/GPX/1/1" xmlns:xsi="http://www.w3.org/2001/XMLSchema-instance" xsi:schemaLocation="http://www.topografix.com/GPX/1/1 http://www.topografix.com/GPX/1/1/gpx.xsd" version="1.1" creator="VisuGPX - https://www.visugpx.com">
  <metadata>
    <name>29-04-2017 Andenne - Ciney (Bel)</name>
    <desc><![CDATA[Itinéraire de détente en vélo électrique (VTC). ]]></desc>
  </metadata>
  <trk>
    <name><![CDATA[Tracé 29 avr. 2017 17:19:11]]></name>
    <trkseg>
      <trkpt lat="50.48933" lon="5.0912">
        <ele>57.741767775926</ele>
        <time>2017-04-29T15:19:11Z</time>
      </trkpt>
      <trkpt lat="50.48938" lon="5.09113">
        <ele>64.24947104579</ele>
        <time>2017-04-29T15:19:20Z</time>
      </trkpt>
      <trkpt lat="50.48946" lon="5.09108">
        <ele>69.564533013832</ele>
        <time>2017-04-29T15:19:35Z</time>
      </trkpt>
      <trkpt lat="50.48954" lon="5.091">
        <ele>72.738046212954</ele>
        <time>2017-04-29T15:19:53Z</time>
      </trkpt>
      <trkpt lat="50.48945" lon="5.09097">
        <ele>78.672569402979</ele>
        <time>2017-04-29T15:22:28Z</time>
      </trkpt>
      <trkpt lat="50.48924" lon="5.09103">
        <ele>78.462365647919</ele>
        <time>2017-04-29T15:22:33Z</time>
      </trkpt>
      <trkpt lat="50.48911" lon="5.09105">
        <ele>77.871240102302</ele>
        <time>2017-04-29T15:22:37Z</time>
      </trkpt>
      <trkpt lat="50.48902" lon="5.09109">
        <ele>77.111282259049</ele>
        <time>2017-04-29T15:22:43Z</time>
      </trkpt>
      <trkpt lat="50.48889" lon="5.09104">
        <ele>76.601665154912</ele>
        <time>2017-04-29T15:22:47Z</time>
      </trkpt>
      <trkpt lat="50.48868" lon="5.09102">
        <ele>73.389742612686</ele>
        <time>2017-04-29T15:22:51Z</time>
      </trkpt>
      <trkpt lat="50.48855" lon="5.09098">
        <ele>72.454445579168</ele>
        <time>2017-04-29T15:22:55Z</time>
      </trkpt>
      <trkpt lat="50.48854" lon="5.09073">
        <ele>69.678083403053</ele>
        <time>2017-04-29T15:23:00Z</time>
      </trkpt>
      <trkpt lat="50.4886" lon="5.09035">
        <ele>66.898623320924</ele>
        <time>2017-04-29T15:23:04Z</time>
      </trkpt>
      <trkpt lat="50.48855" lon="5.09007">
        <ele>66.47510523576</ele>
        <time>2017-04-29T15:23:08Z</time>
      </trkpt>
      <trkpt lat="50.48833" lon="5.08999">
        <ele>65.537882813269</ele>
        <time>2017-04-29T15:23:13Z</time>
      </trkpt>
      <trkpt lat="50.48814" lon="5.08998">
        <ele>68.475167681048</ele>
        <time>2017-04-29T15:23:17Z</time>
      </trkpt>
      <trkpt lat="50.48787" lon="5.08992">
        <ele>69.114907777076</ele>
        <time>2017-04-29T15:23:22Z</time>
      </trkpt>
      <trkpt lat="50.48767" lon="5.08979">
        <ele>71.069535729725</ele>
        <time>2017-04-29T15:23:26Z</time>
      </trkpt>
      <trkpt lat="50.48746" lon="5.08957">
        <ele>74.448052972963</ele>
        <time>2017-04-29T15:23:31Z</time>
      </trkpt>
      <trkpt lat="50.48726" lon="5.0895">
        <ele>72.920193528943</ele>
        <time>2017-04-29T15:23:35Z</time>
      </trkpt>
      <trkpt lat="50.48699" lon="5.08947">
        <ele>69.486024499684</ele>
        <time>2017-04-29T15:23:40Z</time>
      </trkpt>
      <trkpt lat="50.48675" lon="5.08949">
        <ele>70.537366632088</ele>
        <time>2017-04-29T15:23:45Z</time>
      </trkpt>
      <trkpt lat="50.4866" lon="5.0895">
        <ele>71.334159764345</ele>
        <time>2017-04-29T15:23:49Z</time>
      </trkpt>
      <trkpt lat="50.48649" lon="5.08945">
        <ele>71.016433317013</ele>
        <time>2017-04-29T15:23:53Z</time>
      </trkpt>
      <trkpt lat="50.48644" lon="5.0891">
        <ele>72.99082111979</ele>
        <time>2017-04-29T15:23:58Z</time>
      </trkpt>
      <trkpt lat="50.4864" lon="5.08876">
        <ele>74.697603032073</ele>
        <time>2017-04-29T15:24:02Z</time>
      </trkpt>
      <trkpt lat="50.48639" lon="5.08839">
        <ele>74.91207722056</ele>
        <time>2017-04-29T15:24:07Z</time>
      </trkpt>
      <trkpt lat="50.48637" lon="5.08823">
        <ele>75.104793304811</ele>
        <time>2017-04-29T15:24:12Z</time>
      </trkpt>
      <trkpt lat="50.48625" lon="5.08821">
        <ele>75.74654926991</ele>
        <time>2017-04-29T15:24:16Z</time>
      </trkpt>
      <trkpt lat="50.48602" lon="5.08824">
        <ele>73.071992455578</ele>
        <time>2017-04-29T15:24:21Z</time>
      </trkpt>
      <trkpt lat="50.48578" lon="5.08827">
        <ele>75.074919873542</ele>
        <time>2017-04-29T15:24:26Z</time>
      </trkpt>
      <trkpt lat="50.48563" lon="5.08823">
        <ele>74.680751273339</ele>
        <time>2017-04-29T15:24:31Z</time>
      </trkpt>
      <trkpt lat="50.48561" lon="5.08811">
        <ele>74.416404559111</ele>
        <time>2017-04-29T15:24:41Z</time>
      </trkpt>
      <trkpt lat="50.48567" lon="5.088">
        <ele>75.30725172648</ele>
        <time>2017-04-29T15:24:49Z</time>
      </trkpt>
      <trkpt lat="50.48562" lon="5.08792">
        <ele>76.133317321955</ele>
        <time>2017-04-29T15:24:54Z</time>
      </trkpt>
      <trkpt lat="50.48553" lon="5.08763">
        <ele>79.797352084925</ele>
        <time>2017-04-29T15:24:59Z</time>
      </trkpt>
      <trkpt lat="50.48546" lon="5.08739">
        <ele>80.956427960692</ele>
        <time>2017-04-29T15:25:03Z</time>
      </trkpt>
      <trkpt lat="50.48539" lon="5.08713">
        <ele>81.86701866179</ele>
        <time>2017-04-29T15:25:08Z</time>
      </trkpt>
      <trkpt lat="50.48526" lon="5.08688">
        <ele>81.903472508231</ele>
        <time>2017-04-29T15:25:12Z</time>
      </trkpt>
      <trkpt lat="50.48513" lon="5.08668">
        <ele>82.836045867922</ele>
        <time>2017-04-29T15:25:16Z</time>
      </trkpt>
      <trkpt lat="50.48494" lon="5.08643">
        <ele>79.464190657352</ele>
        <time>2017-04-29T15:25:21Z</time>
      </trkpt>
      <trkpt lat="50.48484" lon="5.08618">
        <ele>79.584376333511</ele>
        <time>2017-04-29T15:25:25Z</time>
      </trkpt>
      <trkpt lat="50.48483" lon="5.08598">
        <ele>78.32127162135</ele>
        <time>2017-04-29T15:25:29Z</time>
      </trkpt>
      <trkpt lat="50.48467" lon="5.08595">
        <ele>79.316366711807</ele>
        <time>2017-04-29T15:25:33Z</time>
      </trkpt>
      <trkpt lat="50.48448" lon="5.08596">
        <ele>84.218907349322</ele>
        <time>2017-04-29T15:25:37Z</time>
      </trkpt>
      <trkpt lat="50.48432" lon="5.08596">
        <ele>88.295743426666</ele>
        <time>2017-04-29T15:25:41Z</time>
      </trkpt>
      <trkpt lat="50.48418" lon="5.08603">
        <ele>88.506871964404</ele>
        <time>2017-04-29T15:25:45Z</time>
      </trkpt>
      <trkpt lat="50.48403" lon="5.08612">
        <ele>90.364873326865</ele>
        <time>2017-04-29T15:25:49Z</time>
      </trkpt>
      <trkpt lat="50.48393" lon="5.08619">
        <ele>90.646477329903</ele>
        <time>2017-04-29T15:25:53Z</time>
      </trkpt>
      <trkpt lat="50.48378" lon="5.0862">
        <ele>94.503551181205</ele>
        <time>2017-04-29T15:25:57Z</time>
      </trkpt>
      <trkpt lat="50.48363" lon="5.08603">
        <ele>95.965309367941</ele>
        <time>2017-04-29T15:26:02Z</time>
      </trkpt>
      <trkpt lat="50.48351" lon="5.08584">
        <ele>96.511299818287</ele>
        <time>2017-04-29T15:26:06Z</time>
      </trkpt>
      <trkpt lat="50.48338" lon="5.08566">
        <ele>97.734719638386</ele>
        <time>2017-04-29T15:26:10Z</time>
      </trkpt>
      <trkpt lat="50.48327" lon="5.08549">
        <ele>100.56564518848</ele>
        <time>2017-04-29T15:26:14Z</time>
      </trkpt>
      <trkpt lat="50.48316" lon="5.08534">
        <ele>102.46207777009</ele>
        <time>2017-04-29T15:26:18Z</time>
      </trkpt>
      <trkpt lat="50.48304" lon="5.08512">
        <ele>101.58161910363</ele>
        <time>2017-04-29T15:26:22Z</time>
      </trkpt>
      <trkpt lat="50.48289" lon="5.08488">
        <ele>99.320994425353</ele>
        <time>2017-04-29T15:26:27Z</time>
      </trkpt>
      <trkpt lat="50.48276" lon="5.08467">
        <ele>100.0577073291</ele>
        <time>2017-04-29T15:26:31Z</time>
      </trkpt>
      <trkpt lat="50.4826" lon="5.0844">
        <ele>103.4026137097</ele>
        <time>2017-04-29T15:26:36Z</time>
      </trkpt>
      <trkpt lat="50.48247" lon="5.08425">
        <ele>102.48638234032</ele>
        <time>2017-04-29T15:26:40Z</time>
      </trkpt>
      <trkpt lat="50.48236" lon="5.0841">
        <ele>102.07290451836</ele>
        <time>2017-04-29T15:26:44Z</time>
      </trkpt>
      <trkpt lat="50.48225" lon="5.08395">
        <ele>102.37554156291</ele>
        <time>2017-04-29T15:26:48Z</time>
      </trkpt>
      <trkpt lat="50.48215" lon="5.08382">
        <ele>104.49037127413</ele>
        <time>2017-04-29T15:26:52Z</time>
      </trkpt>
      <trkpt lat="50.48206" lon="5.08367">
        <ele>104.86002675883</ele>
        <time>2017-04-29T15:26:56Z</time>
      </trkpt>
      <trkpt lat="50.48195" lon="5.08351">
        <ele>105.0939112615</ele>
        <time>2017-04-29T15:27:00Z</time>
      </trkpt>
      <trkpt lat="50.48186" lon="5.08339">
        <ele>105.15628768598</ele>
        <time>2017-04-29T15:27:04Z</time>
      </trkpt>
      <trkpt lat="50.48174" lon="5.08326">
        <ele>105.23001994323</ele>
        <time>2017-04-29T15:27:09Z</time>
      </trkpt>
      <trkpt lat="50.48168" lon="5.08305">
        <ele>106.20106553656</ele>
        <time>2017-04-29T15:27:14Z</time>
      </trkpt>
      <trkpt lat="50.48162" lon="5.08281">
        <ele>107.10972234184</ele>
        <time>2017-04-29T15:27:18Z</time>
      </trkpt>
      <trkpt lat="50.48163" lon="5.08256">
        <ele>107.8257962903</ele>
        <time>2017-04-29T15:27:22Z</time>
      </trkpt>
      <trkpt lat="50.48167" lon="5.08234">
        <ele>108.38000335237</ele>
        <time>2017-04-29T15:27:26Z</time>
      </trkpt>
      <trkpt lat="50.48168" lon="5.08215">
        <ele>108.92341496867</ele>
        <time>2017-04-29T15:27:30Z</time>
      </trkpt>
      <trkpt lat="50.48168" lon="5.08198">
        <ele>110.60037119405</ele>
        <time>2017-04-29T15:27:35Z</time>
      </trkpt>
      <trkpt lat="50.48169" lon="5.08183">
        <ele>112.03150452984</ele>
        <time>2017-04-29T15:27:39Z</time>
      </trkpt>
      <trkpt lat="50.48174" lon="5.08161">
        <ele>113.27703724794</ele>
        <time>2017-04-29T15:27:43Z</time>
      </trkpt>
      <trkpt lat="50.48177" lon="5.08145">
        <ele>114.63230625435</ele>
        <time>2017-04-29T15:27:47Z</time>
      </trkpt>
      <trkpt lat="50.48178" lon="5.08126">
        <ele>116.2720119543</ele>
        <time>2017-04-29T15:27:51Z</time>
      </trkpt>
      <trkpt lat="50.48176" lon="5.08105">
        <ele>117.92812872441</ele>
        <time>2017-04-29T15:27:56Z</time>
      </trkpt>
      <trkpt lat="50.48173" lon="5.08086">
        <ele>119.26961955506</ele>
        <time>2017-04-29T15:28:00Z</time>
      </trkpt>
      <trkpt lat="50.48171" lon="5.08071">
        <ele>120.30220639032</ele>
        <time>2017-04-29T15:28:04Z</time>
      </trkpt>
      <trkpt lat="50.48165" lon="5.08053">
        <ele>121.37405800056</ele>
        <time>2017-04-29T15:28:08Z</time>
      </trkpt>
      <trkpt lat="50.48161" lon="5.08032">
        <ele>122.15182305091</ele>
        <time>2017-04-29T15:28:12Z</time>
      </trkpt>
      <trkpt lat="50.48158" lon="5.08011">
        <ele>123.00683257874</ele>
        <time>2017-04-29T15:28:16Z</time>
      </trkpt>
      <trkpt lat="50.48156" lon="5.07996">
        <ele>123.9945280141</ele>
        <time>2017-04-29T15:28:20Z</time>
      </trkpt>
      <trkpt lat="50.48158" lon="5.07985">
        <ele>124.93053584692</ele>
        <time>2017-04-29T15:28:24Z</time>
      </trkpt>
      <trkpt lat="50.48155" lon="5.07963">
        <ele>126.38386269668</ele>
        <time>2017-04-29T15:28:29Z</time>
      </trkpt>
      <trkpt lat="50.48152" lon="5.07941">
        <ele>127.59275141615</ele>
        <time>2017-04-29T15:28:33Z</time>
      </trkpt>
      <trkpt lat="50.48149" lon="5.07916">
        <ele>128.88448016392</ele>
        <time>2017-04-29T15:28:38Z</time>
      </trkpt>
      <trkpt lat="50.48138" lon="5.07898">
        <ele>129.33441494619</ele>
        <time>2017-04-29T15:28:43Z</time>
      </trkpt>
      <trkpt lat="50.48132" lon="5.07882">
        <ele>129.35164697532</ele>
        <time>2017-04-29T15:28:47Z</time>
      </trkpt>
      <trkpt lat="50.48123" lon="5.07867">
        <ele>129.61033511097</ele>
        <time>2017-04-29T15:28:52Z</time>
      </trkpt>
      <trkpt lat="50.48116" lon="5.07855">
        <ele>130.28735601534</ele>
        <time>2017-04-29T15:28:56Z</time>
      </trkpt>
      <trkpt lat="50.48105" lon="5.07842">
        <ele>131.59352097086</ele>
        <time>2017-04-29T15:29:01Z</time>
      </trkpt>
      <trkpt lat="50.48098" lon="5.07829">
        <ele>133.29303545122</ele>
        <time>2017-04-29T15:29:06Z</time>
      </trkpt>
      <trkpt lat="50.4809" lon="5.07821">
        <ele>134.39199847523</ele>
        <time>2017-04-29T15:29:10Z</time>
      </trkpt>
      <trkpt lat="50.4808" lon="5.07809">
        <ele>135.90543459367</ele>
        <time>2017-04-29T15:29:14Z</time>
      </trkpt>
      <trkpt lat="50.48069" lon="5.07796">
        <ele>138.03140617144</ele>
        <time>2017-04-29T15:29:19Z</time>
      </trkpt>
      <trkpt lat="50.48057" lon="5.07777">
        <ele>139.97070271614</ele>
        <time>2017-04-29T15:29:24Z</time>
      </trkpt>
      <trkpt lat="50.48049" lon="5.07765">
        <ele>141.30376467564</ele>
        <time>2017-04-29T15:29:28Z</time>
      </trkpt>
      <trkpt lat="50.48038" lon="5.0775">
        <ele>142.87835949079</ele>
        <time>2017-04-29T15:29:33Z</time>
      </trkpt>
      <trkpt lat="50.48035" lon="5.07734">
        <ele>144.07472021537</ele>
        <time>2017-04-29T15:29:37Z</time>
      </trkpt>
      <trkpt lat="50.48029" lon="5.07716">
        <ele>145.16391517551</ele>
        <time>2017-04-29T15:29:41Z</time>
      </trkpt>
      <trkpt lat="50.48016" lon="5.07698">
        <ele>149.15645936918</ele>
        <time>2017-04-29T15:29:46Z</time>
      </trkpt>
      <trkpt lat="50.4801" lon="5.07682">
        <ele>149.90025612192</ele>
        <time>2017-04-29T15:29:50Z</time>
      </trkpt>
      <trkpt lat="50.48" lon="5.07665">
        <ele>150.39154095009</ele>
        <time>2017-04-29T15:29:55Z</time>
      </trkpt>
      <trkpt lat="50.47992" lon="5.07651">
        <ele>150.64821184515</ele>
        <time>2017-04-29T15:29:59Z</time>
      </trkpt>
      <trkpt lat="50.47984" lon="5.07637">
        <ele>150.7764352431</ele>
        <time>2017-04-29T15:30:03Z</time>
      </trkpt>
      <trkpt lat="50.47976" lon="5.0762">
        <ele>151.46492821135</ele>
        <time>2017-04-29T15:30:07Z</time>
      </trkpt>
      <trkpt lat="50.4797" lon="5.07603">
        <ele>152.51002787407</ele>
        <time>2017-04-29T15:30:11Z</time>
      </trkpt>
      <trkpt lat="50.47964" lon="5.07586">
        <ele>153.4225442446</ele>
        <time>2017-04-29T15:30:15Z</time>
      </trkpt>
      <trkpt lat="50.47957" lon="5.07573">
        <ele>154.20830617846</ele>
        <time>2017-04-29T15:30:19Z</time>
      </trkpt>
      <trkpt lat="50.4795" lon="5.07556">
        <ele>154.8130055874</ele>
        <time>2017-04-29T15:30:23Z</time>
      </trkpt>
      <trkpt lat="50.47944" lon="5.07542">
        <ele>155.29412881638</ele>
        <time>2017-04-29T15:30:27Z</time>
      </trkpt>
      <trkpt lat="50.47933" lon="5.07524">
        <ele>156.02704574404</ele>
        <time>2017-04-29T15:30:32Z</time>
      </trkpt>
      <trkpt lat="50.47926" lon="5.07506">
        <ele>156.80947394393</ele>
        <time>2017-04-29T15:30:36Z</time>
      </trkpt>
      <trkpt lat="50.47919" lon="5.07485">
        <ele>157.82978686279</ele>
        <time>2017-04-29T15:30:40Z</time>
      </trkpt>
      <trkpt lat="50.4791" lon="5.07463">
        <ele>162.84005072479</ele>
        <time>2017-04-29T15:30:44Z</time>
      </trkpt>
      <trkpt lat="50.47897" lon="5.07438">
        <ele>165.03513649538</ele>
        <time>2017-04-29T15:30:49Z</time>
      </trkpt>
      <trkpt lat="50.47885" lon="5.07432">
        <ele>165.52074295397</ele>
        <time>2017-04-29T15:30:53Z</time>
      </trkpt>
      <trkpt lat="50.4787" lon="5.0743">
        <ele>167.27602336907</ele>
        <time>2017-04-29T15:30:58Z</time>
      </trkpt>
      <trkpt lat="50.47858" lon="5.07425">
        <ele>167.60947313493</ele>
        <time>2017-04-29T15:31:02Z</time>
      </trkpt>
      <trkpt lat="50.47842" lon="5.07428">
        <ele>171.84301556229</ele>
        <time>2017-04-29T15:31:06Z</time>
      </trkpt>
      <trkpt lat="50.47824" lon="5.07435">
        <ele>171.45463618751</ele>
        <time>2017-04-29T15:31:10Z</time>
      </trkpt>
      <trkpt lat="50.47807" lon="5.07442">
        <ele>171.74930148161</ele>
        <time>2017-04-29T15:31:15Z</time>
      </trkpt>
      <trkpt lat="50.47795" lon="5.07452">
        <ele>174.21117941302</ele>
        <time>2017-04-29T15:31:19Z</time>
      </trkpt>
      <trkpt lat="50.47773" lon="5.07462">
        <ele>177.59135273624</ele>
        <time>2017-04-29T15:31:24Z</time>
      </trkpt>
      <trkpt lat="50.47755" lon="5.07467">
        <ele>177.10166832648</ele>
        <time>2017-04-29T15:31:28Z</time>
      </trkpt>
      <trkpt lat="50.47735" lon="5.07468">
        <ele>176.77807124503</ele>
        <time>2017-04-29T15:31:33Z</time>
      </trkpt>
      <trkpt lat="50.47716" lon="5.07468">
        <ele>175.28751330636</ele>
        <time>2017-04-29T15:31:37Z</time>
      </trkpt>
      <trkpt lat="50.477" lon="5.07467">
        <ele>174.66818648448</ele>
        <time>2017-04-29T15:31:42Z</time>
      </trkpt>
      <trkpt lat="50.47692" lon="5.07461">
        <ele>177.63263369596</ele>
        <time>2017-04-29T15:32:12Z</time>
      </trkpt>
      <trkpt lat="50.47699" lon="5.07469">
        <ele>179.16027367139</ele>
        <time>2017-04-29T15:32:40Z</time>
      </trkpt>
      <trkpt lat="50.47697" lon="5.07482">
        <ele>183.5511288029</ele>
        <time>2017-04-29T15:33:22Z</time>
      </trkpt>
      <trkpt lat="50.47688" lon="5.07491">
        <ele>183.30744819362</ele>
        <time>2017-04-29T15:33:26Z</time>
      </trkpt>
      <trkpt lat="50.47669" lon="5.07511">
        <ele>180.2105274918</ele>
        <time>2017-04-29T15:33:31Z</time>
      </trkpt>
      <trkpt lat="50.47654" lon="5.07527">
        <ele>179.8375703614</ele>
        <time>2017-04-29T15:33:35Z</time>
      </trkpt>
      <trkpt lat="50.47639" lon="5.07543">
        <ele>180.94143493803</ele>
        <time>2017-04-29T15:33:39Z</time>
      </trkpt>
      <trkpt lat="50.4762" lon="5.07561">
        <ele>183.55679085276</ele>
        <time>2017-04-29T15:33:44Z</time>
      </trkpt>
      <trkpt lat="50.47606" lon="5.07573">
        <ele>183.67176632502</ele>
        <time>2017-04-29T15:33:48Z</time>
      </trkpt>
      <trkpt lat="50.47593" lon="5.07584">
        <ele>183.1918822017</ele>
        <time>2017-04-29T15:33:52Z</time>
      </trkpt>
      <trkpt lat="50.47573" lon="5.07602">
        <ele>181.0687485588</ele>
        <time>2017-04-29T15:33:57Z</time>
      </trkpt>
      <trkpt lat="50.47558" lon="5.07622">
        <ele>178.62623876492</ele>
        <time>2017-04-29T15:34:02Z</time>
      </trkpt>
      <trkpt lat="50.47545" lon="5.07638">
        <ele>178.81778110428</ele>
        <time>2017-04-29T15:34:06Z</time>
      </trkpt>
      <trkpt lat="50.4753" lon="5.07658">
        <ele>180.81002944014</ele>
        <time>2017-04-29T15:34:11Z</time>
      </trkpt>
      <trkpt lat="50.47519" lon="5.07673">
        <ele>180.81869432893</ele>
        <time>2017-04-29T15:34:15Z</time>
      </trkpt>
      <trkpt lat="50.47506" lon="5.07685">
        <ele>182.58721612006</ele>
        <time>2017-04-29T15:34:19Z</time>
      </trkpt>
      <trkpt lat="50.47493" lon="5.07698">
        <ele>185.48404401524</ele>
        <time>2017-04-29T15:34:23Z</time>
      </trkpt>
      <trkpt lat="50.47479" lon="5.07712">
        <ele>185.30092474168</ele>
        <time>2017-04-29T15:34:28Z</time>
      </trkpt>
      <trkpt lat="50.47465" lon="5.07729">
        <ele>185.1969864313</ele>
        <time>2017-04-29T15:34:33Z</time>
      </trkpt>
      <trkpt lat="50.47454" lon="5.07742">
        <ele>185.07708554966</ele>
        <time>2017-04-29T15:34:37Z</time>
      </trkpt>
      <trkpt lat="50.4744" lon="5.07758">
        <ele>185.19314351132</ele>
        <time>2017-04-29T15:34:42Z</time>
      </trkpt>
      <trkpt lat="50.47428" lon="5.07771">
        <ele>184.77069623999</ele>
        <time>2017-04-29T15:34:46Z</time>
      </trkpt>
      <trkpt lat="50.47411" lon="5.07791">
        <ele>184.04850518548</ele>
        <time>2017-04-29T15:34:51Z</time>
      </trkpt>
      <trkpt lat="50.47397" lon="5.07806">
        <ele>184.24459081564</ele>
        <time>2017-04-29T15:34:55Z</time>
      </trkpt>
      <trkpt lat="50.47384" lon="5.0782">
        <ele>184.81592793295</ele>
        <time>2017-04-29T15:34:59Z</time>
      </trkpt>
      <trkpt lat="50.47372" lon="5.07833">
        <ele>184.29247258222</ele>
        <time>2017-04-29T15:35:03Z</time>
      </trkpt>
      <trkpt lat="50.47357" lon="5.07848">
        <ele>186.24328123837</ele>
        <time>2017-04-29T15:35:07Z</time>
      </trkpt>
      <trkpt lat="50.47331" lon="5.07857">
        <ele>182.30396570643</ele>
        <time>2017-04-29T15:35:12Z</time>
      </trkpt>
      <trkpt lat="50.47312" lon="5.07851">
        <ele>179.55744088476</ele>
        <time>2017-04-29T15:35:16Z</time>
      </trkpt>
      <trkpt lat="50.4729" lon="5.07846">
        <ele>174.88374107548</ele>
        <time>2017-04-29T15:35:20Z</time>
      </trkpt>
      <trkpt lat="50.47268" lon="5.0785">
        <ele>172.93433664849</ele>
        <time>2017-04-29T15:35:24Z</time>
      </trkpt>
      <trkpt lat="50.4725" lon="5.07859">
        <ele>174.51095064205</ele>
        <time>2017-04-29T15:35:28Z</time>
      </trkpt>
      <trkpt lat="50.47228" lon="5.0787">
        <ele>177.38376134034</ele>
        <time>2017-04-29T15:35:33Z</time>
      </trkpt>
      <trkpt lat="50.47205" lon="5.07876">
        <ele>178.68914075356</ele>
        <time>2017-04-29T15:35:38Z</time>
      </trkpt>
      <trkpt lat="50.47192" lon="5.07881">
        <ele>178.82907634771</ele>
        <time>2017-04-29T15:35:42Z</time>
      </trkpt>
      <trkpt lat="50.47182" lon="5.07885">
        <ele>178.96061896498</ele>
        <time>2017-04-29T15:35:46Z</time>
      </trkpt>
      <trkpt lat="50.47164" lon="5.07894">
        <ele>179.28591597735</ele>
        <time>2017-04-29T15:35:51Z</time>
      </trkpt>
      <trkpt lat="50.47151" lon="5.07913">
        <ele>179.44001973004</ele>
        <time>2017-04-29T15:35:56Z</time>
      </trkpt>
      <trkpt lat="50.47142" lon="5.07924">
        <ele>179.84418089081</ele>
        <time>2017-04-29T15:36:00Z</time>
      </trkpt>
      <trkpt lat="50.47123" lon="5.07917">
        <ele>180.67379139158</ele>
        <time>2017-04-29T15:36:05Z</time>
      </trkpt>
      <trkpt lat="50.4711" lon="5.07902">
        <ele>184.59605829967</ele>
        <time>2017-04-29T15:36:09Z</time>
      </trkpt>
      <trkpt lat="50.47096" lon="5.07888">
        <ele>186.27482498936</ele>
        <time>2017-04-29T15:36:13Z</time>
      </trkpt>
      <trkpt lat="50.47082" lon="5.07874">
        <ele>188.18750026418</ele>
        <time>2017-04-29T15:36:17Z</time>
      </trkpt>
      <trkpt lat="50.47063" lon="5.07854">
        <ele>189.07628183767</ele>
        <time>2017-04-29T15:36:22Z</time>
      </trkpt>
      <trkpt lat="50.47045" lon="5.07838">
        <ele>191.44424492346</ele>
        <time>2017-04-29T15:36:27Z</time>
      </trkpt>
      <trkpt lat="50.47029" lon="5.07822">
        <ele>193.75192557992</ele>
        <time>2017-04-29T15:36:31Z</time>
      </trkpt>
      <trkpt lat="50.47014" lon="5.07809">
        <ele>193.26044629765</ele>
        <time>2017-04-29T15:36:35Z</time>
      </trkpt>
      <trkpt lat="50.46993" lon="5.07789">
        <ele>192.08060545189</ele>
        <time>2017-04-29T15:36:40Z</time>
      </trkpt>
      <trkpt lat="50.46978" lon="5.07776">
        <ele>190.68781575658</ele>
        <time>2017-04-29T15:36:44Z</time>
      </trkpt>
      <trkpt lat="50.46965" lon="5.07764">
        <ele>191.32533139887</ele>
        <time>2017-04-29T15:36:48Z</time>
      </trkpt>
      <trkpt lat="50.46945" lon="5.07742">
        <ele>192.62414548376</ele>
        <time>2017-04-29T15:36:53Z</time>
      </trkpt>
      <trkpt lat="50.4693" lon="5.07721">
        <ele>193.75471811315</ele>
        <time>2017-04-29T15:36:57Z</time>
      </trkpt>
      <trkpt lat="50.46915" lon="5.07691">
        <ele>194.42789923816</ele>
        <time>2017-04-29T15:37:02Z</time>
      </trkpt>
      <trkpt lat="50.46903" lon="5.07668">
        <ele>194.17441620792</ele>
        <time>2017-04-29T15:37:06Z</time>
      </trkpt>
      <trkpt lat="50.4689" lon="5.07646">
        <ele>193.11937729462</ele>
        <time>2017-04-29T15:37:10Z</time>
      </trkpt>
      <trkpt lat="50.46875" lon="5.07617">
        <ele>192.89207082598</ele>
        <time>2017-04-29T15:37:14Z</time>
      </trkpt>
      <trkpt lat="50.46861" lon="5.07588">
        <ele>193.77164441261</ele>
        <time>2017-04-29T15:37:18Z</time>
      </trkpt>
      <trkpt lat="50.46849" lon="5.07561">
        <ele>193.5232654216</ele>
        <time>2017-04-29T15:37:22Z</time>
      </trkpt>
      <trkpt lat="50.46842" lon="5.07522">
        <ele>193.55330673904</ele>
        <time>2017-04-29T15:37:27Z</time>
      </trkpt>
      <trkpt lat="50.46837" lon="5.07487">
        <ele>194.21003327066</ele>
        <time>2017-04-29T15:37:31Z</time>
      </trkpt>
      <trkpt lat="50.46832" lon="5.07457">
        <ele>191.16085052794</ele>
        <time>2017-04-29T15:37:35Z</time>
      </trkpt>
      <trkpt lat="50.46825" lon="5.07422">
        <ele>189.15361415519</ele>
        <time>2017-04-29T15:37:40Z</time>
      </trkpt>
      <trkpt lat="50.4681" lon="5.07394">
        <ele>190.12621885478</ele>
        <time>2017-04-29T15:37:45Z</time>
      </trkpt>
      <trkpt lat="50.46796" lon="5.07373">
        <ele>193.88790899728</ele>
        <time>2017-04-29T15:37:49Z</time>
      </trkpt>
      <trkpt lat="50.46781" lon="5.07348">
        <ele>195.19329119722</ele>
        <time>2017-04-29T15:37:53Z</time>
      </trkpt>
      <trkpt lat="50.4676" lon="5.07315">
        <ele>196.0065359012</ele>
        <time>2017-04-29T15:37:58Z</time>
      </trkpt>
      <trkpt lat="50.4674" lon="5.07292">
        <ele>193.1862216471</ele>
        <time>2017-04-29T15:38:02Z</time>
      </trkpt>
      <trkpt lat="50.46723" lon="5.07274">
        <ele>192.18180444317</ele>
        <time>2017-04-29T15:38:06Z</time>
      </trkpt>
      <trkpt lat="50.46701" lon="5.07253">
        <ele>191.79288462824</ele>
        <time>2017-04-29T15:38:11Z</time>
      </trkpt>
      <trkpt lat="50.46682" lon="5.07244">
        <ele>192.08637453227</ele>
        <time>2017-04-29T15:38:15Z</time>
      </trkpt>
      <trkpt lat="50.46661" lon="5.0723">
        <ele>192.83874168259</ele>
        <time>2017-04-29T15:38:20Z</time>
      </trkpt>
      <trkpt lat="50.46644" lon="5.07217">
        <ele>191.9674210724</ele>
        <time>2017-04-29T15:38:24Z</time>
      </trkpt>
      <trkpt lat="50.46622" lon="5.07202">
        <ele>193.01915917869</ele>
        <time>2017-04-29T15:38:29Z</time>
      </trkpt>
      <trkpt lat="50.46602" lon="5.07186">
        <ele>198.24559070501</ele>
        <time>2017-04-29T15:38:34Z</time>
      </trkpt>
      <trkpt lat="50.46587" lon="5.07168">
        <ele>199.64117185532</ele>
        <time>2017-04-29T15:38:38Z</time>
      </trkpt>
      <trkpt lat="50.46573" lon="5.0715">
        <ele>199.98226878611</ele>
        <time>2017-04-29T15:38:42Z</time>
      </trkpt>
      <trkpt lat="50.46559" lon="5.07131">
        <ele>201.01180634047</ele>
        <time>2017-04-29T15:38:46Z</time>
      </trkpt>
      <trkpt lat="50.46546" lon="5.07109">
        <ele>203.21101402163</ele>
        <time>2017-04-29T15:38:50Z</time>
      </trkpt>
      <trkpt lat="50.46533" lon="5.07092">
        <ele>204.49972184989</ele>
        <time>2017-04-29T15:38:54Z</time>
      </trkpt>
      <trkpt lat="50.4651" lon="5.07093">
        <ele>206.06642073186</ele>
        <time>2017-04-29T15:38:59Z</time>
      </trkpt>
      <trkpt lat="50.46494" lon="5.07098">
        <ele>206.96316989719</ele>
        <time>2017-04-29T15:39:03Z</time>
      </trkpt>
      <trkpt lat="50.46474" lon="5.07105">
        <ele>206.65683555322</ele>
        <time>2017-04-29T15:39:08Z</time>
      </trkpt>
      <trkpt lat="50.46458" lon="5.07112">
        <ele>208.25564539889</ele>
        <time>2017-04-29T15:39:12Z</time>
      </trkpt>
      <trkpt lat="50.46442" lon="5.07125">
        <ele>210.06542174777</ele>
        <time>2017-04-29T15:39:17Z</time>
      </trkpt>
      <trkpt lat="50.46426" lon="5.07145">
        <ele>214.0269121317</ele>
        <time>2017-04-29T15:39:22Z</time>
      </trkpt>
      <trkpt lat="50.46415" lon="5.07163">
        <ele>215.16019545761</ele>
        <time>2017-04-29T15:39:26Z</time>
      </trkpt>
      <trkpt lat="50.46404" lon="5.07176">
        <ele>216.67978830647</ele>
        <time>2017-04-29T15:39:30Z</time>
      </trkpt>
      <trkpt lat="50.46393" lon="5.07189">
        <ele>216.3272800067</ele>
        <time>2017-04-29T15:39:34Z</time>
      </trkpt>
      <trkpt lat="50.46377" lon="5.07205">
        <ele>216.43784300121</ele>
        <time>2017-04-29T15:39:39Z</time>
      </trkpt>
      <trkpt lat="50.46361" lon="5.07222">
        <ele>216.0929701662</ele>
        <time>2017-04-29T15:39:44Z</time>
      </trkpt>
      <trkpt lat="50.46349" lon="5.07232">
        <ele>215.63192064973</ele>
        <time>2017-04-29T15:39:48Z</time>
      </trkpt>
      <trkpt lat="50.46335" lon="5.07241">
        <ele>215.22796025472</ele>
        <time>2017-04-29T15:39:53Z</time>
      </trkpt>
      <trkpt lat="50.46327" lon="5.07236">
        <ele>215.5020452973</ele>
        <time>2017-04-29T15:39:57Z</time>
      </trkpt>
      <trkpt lat="50.46318" lon="5.07225">
        <ele>216.8992864637</ele>
        <time>2017-04-29T15:40:01Z</time>
      </trkpt>
      <trkpt lat="50.46306" lon="5.07206">
        <ele>220.01774923802</ele>
        <time>2017-04-29T15:40:06Z</time>
      </trkpt>
      <trkpt lat="50.46294" lon="5.0719">
        <ele>222.44234217395</ele>
        <time>2017-04-29T15:40:10Z</time>
      </trkpt>
      <trkpt lat="50.46277" lon="5.07181">
        <ele>224.06412224518</ele>
        <time>2017-04-29T15:40:14Z</time>
      </trkpt>
      <trkpt lat="50.46259" lon="5.07182">
        <ele>224.46160418725</ele>
        <time>2017-04-29T15:40:18Z</time>
      </trkpt>
      <trkpt lat="50.46243" lon="5.07182">
        <ele>222.63148579199</ele>
        <time>2017-04-29T15:40:22Z</time>
      </trkpt>
      <trkpt lat="50.46228" lon="5.07172">
        <ele>222.05497663498</ele>
        <time>2017-04-29T15:40:26Z</time>
      </trkpt>
      <trkpt lat="50.46209" lon="5.07154">
        <ele>222.78736718048</ele>
        <time>2017-04-29T15:40:31Z</time>
      </trkpt>
      <trkpt lat="50.46191" lon="5.07148">
        <ele>223.16827580418</ele>
        <time>2017-04-29T15:40:35Z</time>
      </trkpt>
      <trkpt lat="50.46169" lon="5.07168">
        <ele>221.6281950375</ele>
        <time>2017-04-29T15:40:40Z</time>
      </trkpt>
      <trkpt lat="50.46154" lon="5.072">
        <ele>220.69016975784</ele>
        <time>2017-04-29T15:40:45Z</time>
      </trkpt>
      <trkpt lat="50.46142" lon="5.07219">
        <ele>223.24980437546</ele>
        <time>2017-04-29T15:40:49Z</time>
      </trkpt>
      <trkpt lat="50.46126" lon="5.07242">
        <ele>226.25175987914</ele>
        <time>2017-04-29T15:40:54Z</time>
      </trkpt>
      <trkpt lat="50.4611" lon="5.07262">
        <ele>229.45140887829</ele>
        <time>2017-04-29T15:40:59Z</time>
      </trkpt>
      <trkpt lat="50.46097" lon="5.07281">
        <ele>232.02337440797</ele>
        <time>2017-04-29T15:41:03Z</time>
      </trkpt>
      <trkpt lat="50.46085" lon="5.07314">
        <ele>234.66699628098</ele>
        <time>2017-04-29T15:41:08Z</time>
      </trkpt>
      <trkpt lat="50.4608" lon="5.07342">
        <ele>236.59100712976</ele>
        <time>2017-04-29T15:41:12Z</time>
      </trkpt>
      <trkpt lat="50.4606" lon="5.07365">
        <ele>239.45342018368</ele>
        <time>2017-04-29T15:41:17Z</time>
      </trkpt>
      <trkpt lat="50.4604" lon="5.07374">
        <ele>238.58981168385</ele>
        <time>2017-04-29T15:41:21Z</time>
      </trkpt>
      <trkpt lat="50.46022" lon="5.07382">
        <ele>237.58987878507</ele>
        <time>2017-04-29T15:41:25Z</time>
      </trkpt>
      <trkpt lat="50.46003" lon="5.07392">
        <ele>236.92388036911</ele>
        <time>2017-04-29T15:41:29Z</time>
      </trkpt>
      <trkpt lat="50.45977" lon="5.07412">
        <ele>235.6259913802</ele>
        <time>2017-04-29T15:41:34Z</time>
      </trkpt>
      <trkpt lat="50.45954" lon="5.07429">
        <ele>234.20248457985</ele>
        <time>2017-04-29T15:41:38Z</time>
      </trkpt>
      <trkpt lat="50.4593" lon="5.07447">
        <ele>233.18531059176</ele>
        <time>2017-04-29T15:41:42Z</time>
      </trkpt>
      <trkpt lat="50.4591" lon="5.07468">
        <ele>232.42657145818</ele>
        <time>2017-04-29T15:41:46Z</time>
      </trkpt>
      <trkpt lat="50.45893" lon="5.07487">
        <ele>230.7287566208</ele>
        <time>2017-04-29T15:41:50Z</time>
      </trkpt>
      <trkpt lat="50.45872" lon="5.07505">
        <ele>230.14290032113</ele>
        <time>2017-04-29T15:41:54Z</time>
      </trkpt>
      <trkpt lat="50.4586" lon="5.0755">
        <ele>225.43781912099</ele>
        <time>2017-04-29T15:41:59Z</time>
      </trkpt>
      <trkpt lat="50.45859" lon="5.07611">
        <ele>221.79972390145</ele>
        <time>2017-04-29T15:42:04Z</time>
      </trkpt>
      <trkpt lat="50.45856" lon="5.07667">
        <ele>220.60778960982</ele>
        <time>2017-04-29T15:42:08Z</time>
      </trkpt>
      <trkpt lat="50.45851" lon="5.07722">
        <ele>218.6921413969</ele>
        <time>2017-04-29T15:42:12Z</time>
      </trkpt>
      <trkpt lat="50.45837" lon="5.07773">
        <ele>214.9466266197</ele>
        <time>2017-04-29T15:42:16Z</time>
      </trkpt>
      <trkpt lat="50.4581" lon="5.07809">
        <ele>210.870045879</ele>
        <time>2017-04-29T15:42:20Z</time>
      </trkpt>
      <trkpt lat="50.45786" lon="5.07833">
        <ele>208.19384711705</ele>
        <time>2017-04-29T15:42:24Z</time>
      </trkpt>
      <trkpt lat="50.45755" lon="5.07831">
        <ele>206.60667080181</ele>
        <time>2017-04-29T15:42:29Z</time>
      </trkpt>
      <trkpt lat="50.45723" lon="5.0782">
        <ele>205.15295319819</ele>
        <time>2017-04-29T15:42:33Z</time>
      </trkpt>
      <trkpt lat="50.4568" lon="5.07813">
        <ele>202.02052645068</ele>
        <time>2017-04-29T15:42:38Z</time>
      </trkpt>
      <trkpt lat="50.4564" lon="5.07782">
        <ele>197.00447604957</ele>
        <time>2017-04-29T15:42:43Z</time>
      </trkpt>
      <trkpt lat="50.45609" lon="5.0775">
        <ele>192.99601171528</ele>
        <time>2017-04-29T15:42:47Z</time>
      </trkpt>
      <trkpt lat="50.45568" lon="5.07707">
        <ele>191.20397435372</ele>
        <time>2017-04-29T15:42:52Z</time>
      </trkpt>
      <trkpt lat="50.45532" lon="5.07675">
        <ele>189.12968080269</ele>
        <time>2017-04-29T15:42:56Z</time>
      </trkpt>
      <trkpt lat="50.45494" lon="5.07652">
        <ele>185.30775844206</ele>
        <time>2017-04-29T15:43:00Z</time>
      </trkpt>
      <trkpt lat="50.45458" lon="5.07631">
        <ele>179.75286014011</ele>
        <time>2017-04-29T15:43:04Z</time>
      </trkpt>
      <trkpt lat="50.45417" lon="5.07597">
        <ele>173.68497573282</ele>
        <time>2017-04-29T15:43:09Z</time>
      </trkpt>
      <trkpt lat="50.45393" lon="5.0757">
        <ele>169.33619891273</ele>
        <time>2017-04-29T15:43:13Z</time>
      </trkpt>
      <trkpt lat="50.45366" lon="5.07569">
        <ele>166.17124570366</ele>
        <time>2017-04-29T15:43:17Z</time>
      </trkpt>
      <trkpt lat="50.45338" lon="5.0758">
        <ele>163.90378289242</ele>
        <time>2017-04-29T15:43:21Z</time>
      </trkpt>
      <trkpt lat="50.45307" lon="5.07609">
        <ele>163.4498755261</ele>
        <time>2017-04-29T15:43:26Z</time>
      </trkpt>
      <trkpt lat="50.45293" lon="5.07642">
        <ele>163.12652641377</ele>
        <time>2017-04-29T15:43:30Z</time>
      </trkpt>
      <trkpt lat="50.45283" lon="5.0767">
        <ele>161.13953828019</ele>
        <time>2017-04-29T15:43:34Z</time>
      </trkpt>
      <trkpt lat="50.45272" lon="5.07699">
        <ele>159.74432941852</ele>
        <time>2017-04-29T15:43:38Z</time>
      </trkpt>
      <trkpt lat="50.45261" lon="5.07726">
        <ele>161.19552542218</ele>
        <time>2017-04-29T15:43:42Z</time>
      </trkpt>
      <trkpt lat="50.45244" lon="5.07756">
        <ele>164.12713798144</ele>
        <time>2017-04-29T15:43:47Z</time>
      </trkpt>
      <trkpt lat="50.4523" lon="5.07779">
        <ele>166.61342820727</ele>
        <time>2017-04-29T15:43:51Z</time>
      </trkpt>
      <trkpt lat="50.45212" lon="5.07808">
        <ele>168.4529230168</ele>
        <time>2017-04-29T15:43:56Z</time>
      </trkpt>
      <trkpt lat="50.45195" lon="5.07833">
        <ele>171.02066618009</ele>
        <time>2017-04-29T15:44:01Z</time>
      </trkpt>
      <trkpt lat="50.45184" lon="5.07848">
        <ele>171.74534581646</ele>
        <time>2017-04-29T15:44:05Z</time>
      </trkpt>
      <trkpt lat="50.4518" lon="5.0787">
        <ele>171.50421942903</ele>
        <time>2017-04-29T15:44:10Z</time>
      </trkpt>
      <trkpt lat="50.4518" lon="5.07884">
        <ele>170.9795784822</ele>
        <time>2017-04-29T15:44:15Z</time>
      </trkpt>
      <trkpt lat="50.45182" lon="5.07896">
        <ele>170.65805143839</ele>
        <time>2017-04-29T15:44:33Z</time>
      </trkpt>
      <trkpt lat="50.45189" lon="5.07888">
        <ele>169.20826984268</ele>
        <time>2017-04-29T15:44:40Z</time>
      </trkpt>
      <trkpt lat="50.4518" lon="5.07863">
        <ele>161.42381689846</ele>
        <time>2017-04-29T15:44:44Z</time>
      </trkpt>
      <trkpt lat="50.45172" lon="5.07836">
        <ele>153.85418070071</ele>
        <time>2017-04-29T15:44:48Z</time>
      </trkpt>
      <trkpt lat="50.45161" lon="5.078">
        <ele>149.48607777989</ele>
        <time>2017-04-29T15:44:53Z</time>
      </trkpt>
      <trkpt lat="50.45154" lon="5.0777">
        <ele>148.20739503701</ele>
        <time>2017-04-29T15:44:57Z</time>
      </trkpt>
      <trkpt lat="50.45144" lon="5.07739">
        <ele>148.16526838484</ele>
        <time>2017-04-29T15:45:01Z</time>
      </trkpt>
      <trkpt lat="50.45135" lon="5.07709">
        <ele>150.70510931298</ele>
        <time>2017-04-29T15:45:05Z</time>
      </trkpt>
      <trkpt lat="50.45129" lon="5.0768">
        <ele>154.11663397542</ele>
        <time>2017-04-29T15:45:09Z</time>
      </trkpt>
      <trkpt lat="50.45128" lon="5.07665">
        <ele>154.41611421665</ele>
        <time>2017-04-29T15:45:13Z</time>
      </trkpt>
      <trkpt lat="50.45128" lon="5.0763">
        <ele>159.60480218669</ele>
        <time>2017-04-29T15:45:18Z</time>
      </trkpt>
      <trkpt lat="50.45126" lon="5.07596">
        <ele>161.87882335402</ele>
        <time>2017-04-29T15:45:23Z</time>
      </trkpt>
      <trkpt lat="50.45123" lon="5.07566">
        <ele>163.65677083201</ele>
        <time>2017-04-29T15:45:28Z</time>
      </trkpt>
      <trkpt lat="50.45116" lon="5.07536">
        <ele>167.34063379694</ele>
        <time>2017-04-29T15:45:32Z</time>
      </trkpt>
      <trkpt lat="50.45114" lon="5.07523">
        <ele>171.8038200769</ele>
        <time>2017-04-29T15:48:31Z</time>
      </trkpt>
      <trkpt lat="50.45107" lon="5.07521">
        <ele>170.23897060426</ele>
        <time>2017-04-29T15:49:09Z</time>
      </trkpt>
      <trkpt lat="50.45094" lon="5.07537">
        <ele>169.28988634478</ele>
        <time>2017-04-29T15:49:13Z</time>
      </trkpt>
      <trkpt lat="50.45073" lon="5.07557">
        <ele>175.96712352387</ele>
        <time>2017-04-29T15:49:18Z</time>
      </trkpt>
      <trkpt lat="50.45054" lon="5.07572">
        <ele>178.48483753277</ele>
        <time>2017-04-29T15:49:22Z</time>
      </trkpt>
      <trkpt lat="50.45031" lon="5.07586">
        <ele>176.91933541246</ele>
        <time>2017-04-29T15:49:26Z</time>
      </trkpt>
      <trkpt lat="50.45004" lon="5.07609">
        <ele>179.09347861508</ele>
        <time>2017-04-29T15:49:31Z</time>
      </trkpt>
      <trkpt lat="50.44986" lon="5.07618">
        <ele>178.25040663164</ele>
        <time>2017-04-29T15:49:35Z</time>
      </trkpt>
      <trkpt lat="50.44961" lon="5.07629">
        <ele>177.21437937532</ele>
        <time>2017-04-29T15:49:40Z</time>
      </trkpt>
      <trkpt lat="50.44945" lon="5.07636">
        <ele>176.62874459773</ele>
        <time>2017-04-29T15:49:44Z</time>
      </trkpt>
      <trkpt lat="50.44931" lon="5.07642">
        <ele>175.61706320749</ele>
        <time>2017-04-29T15:49:48Z</time>
      </trkpt>
      <trkpt lat="50.4491" lon="5.07649">
        <ele>178.10304214459</ele>
        <time>2017-04-29T15:49:52Z</time>
      </trkpt>
      <trkpt lat="50.44895" lon="5.07652">
        <ele>180.19730646513</ele>
        <time>2017-04-29T15:49:56Z</time>
      </trkpt>
      <trkpt lat="50.44867" lon="5.0766">
        <ele>182.60951156978</ele>
        <time>2017-04-29T15:50:01Z</time>
      </trkpt>
      <trkpt lat="50.4485" lon="5.07673">
        <ele>179.41188425681</ele>
        <time>2017-04-29T15:50:06Z</time>
      </trkpt>
      <trkpt lat="50.4484" lon="5.07687">
        <ele>180.55991981782</ele>
        <time>2017-04-29T15:50:10Z</time>
      </trkpt>
      <trkpt lat="50.44829" lon="5.07695">
        <ele>181.02584476179</ele>
        <time>2017-04-29T15:50:14Z</time>
      </trkpt>
      <trkpt lat="50.44803" lon="5.07713">
        <ele>179.8124054419</ele>
        <time>2017-04-29T15:50:18Z</time>
      </trkpt>
      <trkpt lat="50.44786" lon="5.07724">
        <ele>176.87443821001</ele>
        <time>2017-04-29T15:50:22Z</time>
      </trkpt>
      <trkpt lat="50.4477" lon="5.07737">
        <ele>176.58013638963</ele>
        <time>2017-04-29T15:50:26Z</time>
      </trkpt>
      <trkpt lat="50.4475" lon="5.07747">
        <ele>176.85086591927</ele>
        <time>2017-04-29T15:50:31Z</time>
      </trkpt>
      <trkpt lat="50.44737" lon="5.07758">
        <ele>178.26350336609</ele>
        <time>2017-04-29T15:50:35Z</time>
      </trkpt>
      <trkpt lat="50.44721" lon="5.0777">
        <ele>180.90267138318</ele>
        <time>2017-04-29T15:50:39Z</time>
      </trkpt>
      <trkpt lat="50.44705" lon="5.07786">
        <ele>182.10150378343</ele>
        <time>2017-04-29T15:50:44Z</time>
      </trkpt>
      <trkpt lat="50.44698" lon="5.07793">
        <ele>175.41059321383</ele>
        <time>2017-04-29T15:51:41Z</time>
      </trkpt>
      <trkpt lat="50.44683" lon="5.07804">
        <ele>175.64940505872</ele>
        <time>2017-04-29T15:51:45Z</time>
      </trkpt>
      <trkpt lat="50.44669" lon="5.07816">
        <ele>177.1864408186</ele>
        <time>2017-04-29T15:51:49Z</time>
      </trkpt>
      <trkpt lat="50.4465" lon="5.0783">
        <ele>182.38755062525</ele>
        <time>2017-04-29T15:51:54Z</time>
      </trkpt>
      <trkpt lat="50.44631" lon="5.07847">
        <ele>185.33756675466</ele>
        <time>2017-04-29T15:51:59Z</time>
      </trkpt>
      <trkpt lat="50.44616" lon="5.07864">
        <ele>188.64338872595</ele>
        <time>2017-04-29T15:52:03Z</time>
      </trkpt>
      <trkpt lat="50.44601" lon="5.07878">
        <ele>189.27618999207</ele>
        <time>2017-04-29T15:52:07Z</time>
      </trkpt>
      <trkpt lat="50.4459" lon="5.07888">
        <ele>189.55570018781</ele>
        <time>2017-04-29T15:52:11Z</time>
      </trkpt>
      <trkpt lat="50.44574" lon="5.07898">
        <ele>190.1312688368</ele>
        <time>2017-04-29T15:52:15Z</time>
      </trkpt>
      <trkpt lat="50.4456" lon="5.07909">
        <ele>192.54125192093</ele>
        <time>2017-04-29T15:52:19Z</time>
      </trkpt>
      <trkpt lat="50.44543" lon="5.07906">
        <ele>193.01728472036</ele>
        <time>2017-04-29T15:52:24Z</time>
      </trkpt>
      <trkpt lat="50.44526" lon="5.07898">
        <ele>200.28392820384</ele>
        <time>2017-04-29T15:52:28Z</time>
      </trkpt>
      <trkpt lat="50.44507" lon="5.07887">
        <ele>205.79134721223</ele>
        <time>2017-04-29T15:52:32Z</time>
      </trkpt>
      <trkpt lat="50.44489" lon="5.07871">
        <ele>206.48638346342</ele>
        <time>2017-04-29T15:52:36Z</time>
      </trkpt>
      <trkpt lat="50.44474" lon="5.07844">
        <ele>208.60543767848</ele>
        <time>2017-04-29T15:52:41Z</time>
      </trkpt>
      <trkpt lat="50.44461" lon="5.07824">
        <ele>207.5545134732</ele>
        <time>2017-04-29T15:52:45Z</time>
      </trkpt>
      <trkpt lat="50.44446" lon="5.07802">
        <ele>205.03561617282</ele>
        <time>2017-04-29T15:52:50Z</time>
      </trkpt>
      <trkpt lat="50.44429" lon="5.07789">
        <ele>205.24259859602</ele>
        <time>2017-04-29T15:52:55Z</time>
      </trkpt>
      <trkpt lat="50.44412" lon="5.07782">
        <ele>205.00844881084</ele>
        <time>2017-04-29T15:52:59Z</time>
      </trkpt>
      <trkpt lat="50.444" lon="5.07784">
        <ele>204.99452126586</ele>
        <time>2017-04-29T15:53:04Z</time>
      </trkpt>
      <trkpt lat="50.44391" lon="5.07789">
        <ele>205.32465521738</ele>
        <time>2017-04-29T15:53:08Z</time>
      </trkpt>
      <trkpt lat="50.44383" lon="5.07791">
        <ele>205.56525243204</ele>
        <time>2017-04-29T15:53:12Z</time>
      </trkpt>
      <trkpt lat="50.44376" lon="5.07798">
        <ele>205.52948971862</ele>
        <time>2017-04-29T15:53:16Z</time>
      </trkpt>
      <trkpt lat="50.44368" lon="5.078">
        <ele>205.51846022043</ele>
        <time>2017-04-29T15:53:20Z</time>
      </trkpt>
      <trkpt lat="50.44356" lon="5.07798">
        <ele>205.3012736174</ele>
        <time>2017-04-29T15:53:25Z</time>
      </trkpt>
      <trkpt lat="50.44346" lon="5.07794">
        <ele>205.71782937727</ele>
        <time>2017-04-29T15:53:29Z</time>
      </trkpt>
      <trkpt lat="50.44333" lon="5.0779">
        <ele>207.27881028368</ele>
        <time>2017-04-29T15:53:34Z</time>
      </trkpt>
      <trkpt lat="50.4432" lon="5.07786">
        <ele>209.63317579654</ele>
        <time>2017-04-29T15:53:39Z</time>
      </trkpt>
      <trkpt lat="50.4431" lon="5.07783">
        <ele>211.63985031464</ele>
        <time>2017-04-29T15:53:43Z</time>
      </trkpt>
      <trkpt lat="50.44301" lon="5.07777">
        <ele>213.83599614022</ele>
        <time>2017-04-29T15:53:48Z</time>
      </trkpt>
      <trkpt lat="50.44293" lon="5.07775">
        <ele>215.47540142147</ele>
        <time>2017-04-29T15:53:52Z</time>
      </trkpt>
      <trkpt lat="50.44284" lon="5.07772">
        <ele>217.34154264848</ele>
        <time>2017-04-29T15:53:57Z</time>
      </trkpt>
      <trkpt lat="50.44275" lon="5.0777">
        <ele>218.95276790834</ele>
        <time>2017-04-29T15:54:01Z</time>
      </trkpt>
      <trkpt lat="50.44259" lon="5.07768">
        <ele>220.61238788238</ele>
        <time>2017-04-29T15:54:06Z</time>
      </trkpt>
      <trkpt lat="50.44244" lon="5.07767">
        <ele>221.90733969511</ele>
        <time>2017-04-29T15:54:11Z</time>
      </trkpt>
      <trkpt lat="50.44233" lon="5.07767">
        <ele>222.71040714446</ele>
        <time>2017-04-29T15:54:15Z</time>
      </trkpt>
      <trkpt lat="50.44223" lon="5.07766">
        <ele>223.57408610148</ele>
        <time>2017-04-29T15:54:19Z</time>
      </trkpt>
      <trkpt lat="50.44212" lon="5.07766">
        <ele>224.38440333193</ele>
        <time>2017-04-29T15:54:23Z</time>
      </trkpt>
      <trkpt lat="50.44198" lon="5.07765">
        <ele>226.36649663362</ele>
        <time>2017-04-29T15:54:28Z</time>
      </trkpt>
      <trkpt lat="50.44185" lon="5.0776">
        <ele>227.98740690954</ele>
        <time>2017-04-29T15:54:32Z</time>
      </trkpt>
      <trkpt lat="50.44177" lon="5.07752">
        <ele>228.90395503247</ele>
        <time>2017-04-29T15:54:36Z</time>
      </trkpt>
      <trkpt lat="50.44168" lon="5.07742">
        <ele>229.67931540229</ele>
        <time>2017-04-29T15:54:40Z</time>
      </trkpt>
      <trkpt lat="50.44157" lon="5.07726">
        <ele>241.67973269957</ele>
        <time>2017-04-29T15:54:44Z</time>
      </trkpt>
      <trkpt lat="50.44142" lon="5.07701">
        <ele>248.79533659133</ele>
        <time>2017-04-29T15:54:49Z</time>
      </trkpt>
      <trkpt lat="50.44127" lon="5.07684">
        <ele>250.95538969544</ele>
        <time>2017-04-29T15:54:53Z</time>
      </trkpt>
      <trkpt lat="50.44106" lon="5.07663">
        <ele>252.96646998734</ele>
        <time>2017-04-29T15:54:58Z</time>
      </trkpt>
      <trkpt lat="50.44088" lon="5.07643">
        <ele>256.57349891321</ele>
        <time>2017-04-29T15:55:03Z</time>
      </trkpt>
      <trkpt lat="50.44072" lon="5.0762">
        <ele>259.50532708003</ele>
        <time>2017-04-29T15:55:07Z</time>
      </trkpt>
      <trkpt lat="50.4406" lon="5.07601">
        <ele>261.43246983467</ele>
        <time>2017-04-29T15:55:11Z</time>
      </trkpt>
      <trkpt lat="50.44045" lon="5.07581">
        <ele>261.72546332923</ele>
        <time>2017-04-29T15:55:16Z</time>
      </trkpt>
      <trkpt lat="50.44035" lon="5.07566">
        <ele>258.87998947563</ele>
        <time>2017-04-29T15:55:20Z</time>
      </trkpt>
      <trkpt lat="50.44018" lon="5.07552">
        <ele>255.92073035972</ele>
        <time>2017-04-29T15:55:25Z</time>
      </trkpt>
      <trkpt lat="50.43999" lon="5.07537">
        <ele>251.1277593567</ele>
        <time>2017-04-29T15:55:30Z</time>
      </trkpt>
      <trkpt lat="50.43984" lon="5.07526">
        <ele>248.96400134963</ele>
        <time>2017-04-29T15:55:34Z</time>
      </trkpt>
      <trkpt lat="50.43969" lon="5.07514">
        <ele>247.75998967086</ele>
        <time>2017-04-29T15:55:38Z</time>
      </trkpt>
      <trkpt lat="50.43951" lon="5.07503">
        <ele>248.41602055802</ele>
        <time>2017-04-29T15:55:43Z</time>
      </trkpt>
      <trkpt lat="50.43935" lon="5.07492">
        <ele>249.60349875152</ele>
        <time>2017-04-29T15:55:47Z</time>
      </trkpt>
      <trkpt lat="50.43919" lon="5.07486">
        <ele>248.25581333162</ele>
        <time>2017-04-29T15:55:51Z</time>
      </trkpt>
      <trkpt lat="50.43904" lon="5.07479">
        <ele>249.65035883333</ele>
        <time>2017-04-29T15:55:56Z</time>
      </trkpt>
      <trkpt lat="50.4389" lon="5.07501">
        <ele>254.7984144658</ele>
        <time>2017-04-29T15:56:01Z</time>
      </trkpt>
      <trkpt lat="50.43878" lon="5.07518">
        <ele>255.99437835221</ele>
        <time>2017-04-29T15:56:05Z</time>
      </trkpt>
      <trkpt lat="50.43859" lon="5.07535">
        <ele>257.07602123845</ele>
        <time>2017-04-29T15:56:10Z</time>
      </trkpt>
      <trkpt lat="50.43846" lon="5.07549">
        <ele>257.90879802916</ele>
        <time>2017-04-29T15:56:14Z</time>
      </trkpt>
      <trkpt lat="50.4383" lon="5.07565">
        <ele>258.27155914356</ele>
        <time>2017-04-29T15:56:18Z</time>
      </trkpt>
      <trkpt lat="50.43816" lon="5.07579">
        <ele>258.80529800853</ele>
        <time>2017-04-29T15:56:22Z</time>
      </trkpt>
      <trkpt lat="50.43798" lon="5.07599">
        <ele>264.11377447871</ele>
        <time>2017-04-29T15:56:27Z</time>
      </trkpt>
      <trkpt lat="50.43778" lon="5.07616">
        <ele>264.90036079512</ele>
        <time>2017-04-29T15:56:32Z</time>
      </trkpt>
      <trkpt lat="50.43758" lon="5.07634">
        <ele>264.01319950629</ele>
        <time>2017-04-29T15:56:37Z</time>
      </trkpt>
      <trkpt lat="50.43741" lon="5.07648">
        <ele>262.89626726826</ele>
        <time>2017-04-29T15:56:41Z</time>
      </trkpt>
      <trkpt lat="50.43722" lon="5.0766">
        <ele>258.56664855965</ele>
        <time>2017-04-29T15:56:45Z</time>
      </trkpt>
      <trkpt lat="50.43704" lon="5.07671">
        <ele>254.20087640343</ele>
        <time>2017-04-29T15:56:49Z</time>
      </trkpt>
      <trkpt lat="50.43688" lon="5.0768">
        <ele>253.27431564615</ele>
        <time>2017-04-29T15:56:53Z</time>
      </trkpt>
      <trkpt lat="50.43668" lon="5.07691">
        <ele>255.87571097929</ele>
        <time>2017-04-29T15:56:58Z</time>
      </trkpt>
      <trkpt lat="50.4365" lon="5.07699">
        <ele>256.66381395841</ele>
        <time>2017-04-29T15:57:02Z</time>
      </trkpt>
      <trkpt lat="50.43626" lon="5.07713">
        <ele>256.70780650108</ele>
        <time>2017-04-29T15:57:07Z</time>
      </trkpt>
      <trkpt lat="50.43602" lon="5.07727">
        <ele>256.52515677755</ele>
        <time>2017-04-29T15:57:12Z</time>
      </trkpt>
      <trkpt lat="50.43584" lon="5.07741">
        <ele>257.89150703776</ele>
        <time>2017-04-29T15:57:16Z</time>
      </trkpt>
      <trkpt lat="50.43563" lon="5.07751">
        <ele>257.50259330852</ele>
        <time>2017-04-29T15:57:21Z</time>
      </trkpt>
      <trkpt lat="50.43546" lon="5.0776">
        <ele>262.42142091805</ele>
        <time>2017-04-29T15:57:25Z</time>
      </trkpt>
      <trkpt lat="50.43527" lon="5.07772">
        <ele>262.99332924432</ele>
        <time>2017-04-29T15:57:29Z</time>
      </trkpt>
      <trkpt lat="50.43505" lon="5.07787">
        <ele>263.33836746946</ele>
        <time>2017-04-29T15:57:34Z</time>
      </trkpt>
      <trkpt lat="50.43484" lon="5.07799">
        <ele>264.08322795692</ele>
        <time>2017-04-29T15:57:39Z</time>
      </trkpt>
      <trkpt lat="50.43466" lon="5.07812">
        <ele>262.03225093392</ele>
        <time>2017-04-29T15:57:43Z</time>
      </trkpt>
      <trkpt lat="50.43447" lon="5.07823">
        <ele>263.07898939309</ele>
        <time>2017-04-29T15:57:47Z</time>
      </trkpt>
      <trkpt lat="50.4343" lon="5.07834">
        <ele>264.24740337544</ele>
        <time>2017-04-29T15:57:51Z</time>
      </trkpt>
      <trkpt lat="50.43408" lon="5.07848">
        <ele>264.83390197779</ele>
        <time>2017-04-29T15:57:56Z</time>
      </trkpt>
      <trkpt lat="50.43389" lon="5.07859">
        <ele>261.91870161214</ele>
        <time>2017-04-29T15:58:00Z</time>
      </trkpt>
      <trkpt lat="50.43367" lon="5.0787">
        <ele>260.72680395244</ele>
        <time>2017-04-29T15:58:05Z</time>
      </trkpt>
      <trkpt lat="50.4335" lon="5.07881">
        <ele>260.03542267338</ele>
        <time>2017-04-29T15:58:09Z</time>
      </trkpt>
      <trkpt lat="50.43333" lon="5.0789">
        <ele>260.35823399103</ele>
        <time>2017-04-29T15:58:13Z</time>
      </trkpt>
      <trkpt lat="50.43315" lon="5.07901">
        <ele>265.08856526727</ele>
        <time>2017-04-29T15:58:18Z</time>
      </trkpt>
      <trkpt lat="50.43301" lon="5.07908">
        <ele>267.14980281995</ele>
        <time>2017-04-29T15:58:22Z</time>
      </trkpt>
      <trkpt lat="50.43285" lon="5.07906">
        <ele>269.30630050156</ele>
        <time>2017-04-29T15:58:26Z</time>
      </trkpt>
      <trkpt lat="50.43264" lon="5.07895">
        <ele>269.0941554821</ele>
        <time>2017-04-29T15:58:31Z</time>
      </trkpt>
      <trkpt lat="50.43243" lon="5.07883">
        <ele>268.85861823176</ele>
        <time>2017-04-29T15:58:36Z</time>
      </trkpt>
      <trkpt lat="50.43223" lon="5.07873">
        <ele>266.68541611052</ele>
        <time>2017-04-29T15:58:40Z</time>
      </trkpt>
      <trkpt lat="50.43202" lon="5.07862">
        <ele>263.44332497405</ele>
        <time>2017-04-29T15:58:45Z</time>
      </trkpt>
      <trkpt lat="50.43185" lon="5.07852">
        <ele>263.37249310742</ele>
        <time>2017-04-29T15:58:49Z</time>
      </trkpt>
      <trkpt lat="50.43169" lon="5.07831">
        <ele>263.45651832975</ele>
        <time>2017-04-29T15:58:53Z</time>
      </trkpt>
      <trkpt lat="50.43155" lon="5.07803">
        <ele>265.33324783511</ele>
        <time>2017-04-29T15:58:58Z</time>
      </trkpt>
      <trkpt lat="50.43146" lon="5.07779">
        <ele>268.36269830948</ele>
        <time>2017-04-29T15:59:02Z</time>
      </trkpt>
      <trkpt lat="50.43135" lon="5.07765">
        <ele>269.44276285138</ele>
        <time>2017-04-29T15:59:06Z</time>
      </trkpt>
      <trkpt lat="50.43123" lon="5.07772">
        <ele>269.57061948938</ele>
        <time>2017-04-29T15:59:10Z</time>
      </trkpt>
      <trkpt lat="50.4311" lon="5.0779">
        <ele>270.89689225379</ele>
        <time>2017-04-29T15:59:15Z</time>
      </trkpt>
      <trkpt lat="50.43094" lon="5.07806">
        <ele>273.29411736179</ele>
        <time>2017-04-29T15:59:19Z</time>
      </trkpt>
      <trkpt lat="50.43071" lon="5.07825">
        <ele>274.22386852876</ele>
        <time>2017-04-29T15:59:24Z</time>
      </trkpt>
      <trkpt lat="50.43053" lon="5.0784">
        <ele>270.97469753674</ele>
        <time>2017-04-29T15:59:28Z</time>
      </trkpt>
      <trkpt lat="50.43036" lon="5.07854">
        <ele>270.7492404042</ele>
        <time>2017-04-29T15:59:32Z</time>
      </trkpt>
      <trkpt lat="50.43024" lon="5.07864">
        <ele>273.31420936413</ele>
        <time>2017-04-29T15:59:36Z</time>
      </trkpt>
      <trkpt lat="50.43011" lon="5.07876">
        <ele>276.45846131706</ele>
        <time>2017-04-29T15:59:40Z</time>
      </trkpt>
      <trkpt lat="50.42994" lon="5.07891">
        <ele>276.67077925693</ele>
        <time>2017-04-29T15:59:45Z</time>
      </trkpt>
      <trkpt lat="50.42978" lon="5.07904">
        <ele>275.53490047781</ele>
        <time>2017-04-29T15:59:49Z</time>
      </trkpt>
      <trkpt lat="50.4296" lon="5.07922">
        <ele>271.94302223649</ele>
        <time>2017-04-29T15:59:54Z</time>
      </trkpt>
      <trkpt lat="50.42948" lon="5.07935">
        <ele>269.39222444451</ele>
        <time>2017-04-29T15:59:58Z</time>
      </trkpt>
      <trkpt lat="50.42932" lon="5.07956">
        <ele>266.81634870486</ele>
        <time>2017-04-29T16:00:03Z</time>
      </trkpt>
      <trkpt lat="50.42918" lon="5.07975">
        <ele>269.33707970222</ele>
        <time>2017-04-29T16:00:07Z</time>
      </trkpt>
      <trkpt lat="50.42908" lon="5.07995">
        <ele>272.12533448897</ele>
        <time>2017-04-29T16:00:11Z</time>
      </trkpt>
      <trkpt lat="50.42898" lon="5.08011">
        <ele>270.4004005328</ele>
        <time>2017-04-29T16:00:15Z</time>
      </trkpt>
      <trkpt lat="50.42887" lon="5.08029">
        <ele>273.60582215249</ele>
        <time>2017-04-29T16:00:19Z</time>
      </trkpt>
      <trkpt lat="50.42872" lon="5.08049">
        <ele>277.00242547287</ele>
        <time>2017-04-29T16:00:24Z</time>
      </trkpt>
      <trkpt lat="50.42855" lon="5.08063">
        <ele>280.02593092269</ele>
        <time>2017-04-29T16:00:28Z</time>
      </trkpt>
      <trkpt lat="50.42839" lon="5.08076">
        <ele>279.33559139216</ele>
        <time>2017-04-29T16:00:32Z</time>
      </trkpt>
      <trkpt lat="50.42818" lon="5.08094">
        <ele>280.71563099268</ele>
        <time>2017-04-29T16:00:37Z</time>
      </trkpt>
      <trkpt lat="50.42803" lon="5.0811">
        <ele>278.90877457417</ele>
        <time>2017-04-29T16:00:41Z</time>
      </trkpt>
      <trkpt lat="50.42783" lon="5.08127">
        <ele>279.3601768273</ele>
        <time>2017-04-29T16:00:45Z</time>
      </trkpt>
      <trkpt lat="50.4276" lon="5.08145">
        <ele>275.53316608938</ele>
        <time>2017-04-29T16:00:49Z</time>
      </trkpt>
      <trkpt lat="50.42732" lon="5.08173">
        <ele>270.00698680765</ele>
        <time>2017-04-29T16:00:54Z</time>
      </trkpt>
      <trkpt lat="50.42718" lon="5.08205">
        <ele>270.2043081153</ele>
        <time>2017-04-29T16:00:59Z</time>
      </trkpt>
      <trkpt lat="50.42709" lon="5.08233">
        <ele>270.4828721751</ele>
        <time>2017-04-29T16:01:03Z</time>
      </trkpt>
      <trkpt lat="50.427" lon="5.08263">
        <ele>270.65628048767</ele>
        <time>2017-04-29T16:01:07Z</time>
      </trkpt>
      <trkpt lat="50.42689" lon="5.08299">
        <ele>272.15958616863</ele>
        <time>2017-04-29T16:01:12Z</time>
      </trkpt>
      <trkpt lat="50.4268" lon="5.08327">
        <ele>273.29621737873</ele>
        <time>2017-04-29T16:01:16Z</time>
      </trkpt>
      <trkpt lat="50.42667" lon="5.08362">
        <ele>275.02464869755</ele>
        <time>2017-04-29T16:01:21Z</time>
      </trkpt>
      <trkpt lat="50.42653" lon="5.08395">
        <ele>276.90340376462</ele>
        <time>2017-04-29T16:01:26Z</time>
      </trkpt>
      <trkpt lat="50.42638" lon="5.08426">
        <ele>277.38830864108</ele>
        <time>2017-04-29T16:01:31Z</time>
      </trkpt>
      <trkpt lat="50.42626" lon="5.08454">
        <ele>277.93691912055</ele>
        <time>2017-04-29T16:01:35Z</time>
      </trkpt>
      <trkpt lat="50.42613" lon="5.08488">
        <ele>279.77552706069</ele>
        <time>2017-04-29T16:01:40Z</time>
      </trkpt>
      <trkpt lat="50.42602" lon="5.08525">
        <ele>279.35490185487</ele>
        <time>2017-04-29T16:01:45Z</time>
      </trkpt>
      <trkpt lat="50.42587" lon="5.08557">
        <ele>278.27066975032</ele>
        <time>2017-04-29T16:01:49Z</time>
      </trkpt>
      <trkpt lat="50.42573" lon="5.0859">
        <ele>274.14012261838</ele>
        <time>2017-04-29T16:01:54Z</time>
      </trkpt>
      <trkpt lat="50.42566" lon="5.0862">
        <ele>272.1624942359</ele>
        <time>2017-04-29T16:01:58Z</time>
      </trkpt>
      <trkpt lat="50.42557" lon="5.08664">
        <ele>265.35889703435</ele>
        <time>2017-04-29T16:02:03Z</time>
      </trkpt>
      <trkpt lat="50.42553" lon="5.087">
        <ele>257.53442655361</ele>
        <time>2017-04-29T16:02:07Z</time>
      </trkpt>
      <trkpt lat="50.42546" lon="5.08738">
        <ele>254.37265799282</ele>
        <time>2017-04-29T16:02:11Z</time>
      </trkpt>
      <trkpt lat="50.42525" lon="5.08773">
        <ele>256.30837253671</ele>
        <time>2017-04-29T16:02:16Z</time>
      </trkpt>
      <trkpt lat="50.42497" lon="5.0879">
        <ele>259.67624110053</ele>
        <time>2017-04-29T16:02:21Z</time>
      </trkpt>
      <trkpt lat="50.4248" lon="5.08805">
        <ele>263.81714438882</ele>
        <time>2017-04-29T16:02:25Z</time>
      </trkpt>
      <trkpt lat="50.42455" lon="5.08828">
        <ele>266.30334023372</ele>
        <time>2017-04-29T16:02:30Z</time>
      </trkpt>
      <trkpt lat="50.42435" lon="5.08849">
        <ele>267.10123670751</ele>
        <time>2017-04-29T16:02:34Z</time>
      </trkpt>
      <trkpt lat="50.42411" lon="5.08878">
        <ele>268.73491584477</ele>
        <time>2017-04-29T16:02:39Z</time>
      </trkpt>
      <trkpt lat="50.42393" lon="5.08898">
        <ele>270.00366606492</ele>
        <time>2017-04-29T16:02:43Z</time>
      </trkpt>
      <trkpt lat="50.42372" lon="5.08923">
        <ele>269.15158638509</ele>
        <time>2017-04-29T16:02:48Z</time>
      </trkpt>
      <trkpt lat="50.4235" lon="5.08949">
        <ele>269.30385707512</ele>
        <time>2017-04-29T16:02:53Z</time>
      </trkpt>
      <trkpt lat="50.42328" lon="5.08974">
        <ele>269.51447124616</ele>
        <time>2017-04-29T16:02:57Z</time>
      </trkpt>
      <trkpt lat="50.42302" lon="5.09001">
        <ele>268.49825547668</ele>
        <time>2017-04-29T16:03:01Z</time>
      </trkpt>
      <trkpt lat="50.42275" lon="5.09031">
        <ele>267.9844837433</ele>
        <time>2017-04-29T16:03:05Z</time>
      </trkpt>
      <trkpt lat="50.42248" lon="5.09062">
        <ele>266.65151239166</ele>
        <time>2017-04-29T16:03:09Z</time>
      </trkpt>
      <trkpt lat="50.42221" lon="5.09097">
        <ele>265.20360844359</ele>
        <time>2017-04-29T16:03:13Z</time>
      </trkpt>
      <trkpt lat="50.42204" lon="5.09123">
        <ele>265.56977556266</ele>
        <time>2017-04-29T16:03:18Z</time>
      </trkpt>
      <trkpt lat="50.42197" lon="5.09146">
        <ele>266.08109273832</ele>
        <time>2017-04-29T16:03:22Z</time>
      </trkpt>
      <trkpt lat="50.42179" lon="5.09185">
        <ele>264.91596820682</ele>
        <time>2017-04-29T16:03:27Z</time>
      </trkpt>
      <trkpt lat="50.42162" lon="5.0922">
        <ele>263.23661316447</ele>
        <time>2017-04-29T16:03:31Z</time>
      </trkpt>
      <trkpt lat="50.42141" lon="5.09261">
        <ele>261.28115422815</ele>
        <time>2017-04-29T16:03:35Z</time>
      </trkpt>
      <trkpt lat="50.42119" lon="5.09303">
        <ele>258.31274118323</ele>
        <time>2017-04-29T16:03:39Z</time>
      </trkpt>
      <trkpt lat="50.42091" lon="5.09356">
        <ele>253.3421676268</ele>
        <time>2017-04-29T16:03:44Z</time>
      </trkpt>
      <trkpt lat="50.42066" lon="5.09408">
        <ele>247.64310040008</ele>
        <time>2017-04-29T16:03:49Z</time>
      </trkpt>
      <trkpt lat="50.42044" lon="5.09444">
        <ele>246.79715663427</ele>
        <time>2017-04-29T16:03:53Z</time>
      </trkpt>
      <trkpt lat="50.4202" lon="5.09471">
        <ele>246.71600515996</ele>
        <time>2017-04-29T16:03:57Z</time>
      </trkpt>
      <trkpt lat="50.41997" lon="5.09472">
        <ele>246.82752514843</ele>
        <time>2017-04-29T16:04:01Z</time>
      </trkpt>
      <trkpt lat="50.41975" lon="5.09466">
        <ele>246.36920290135</ele>
        <time>2017-04-29T16:04:06Z</time>
      </trkpt>
      <trkpt lat="50.41958" lon="5.09459">
        <ele>249.80071897884</ele>
        <time>2017-04-29T16:04:10Z</time>
      </trkpt>
      <trkpt lat="50.4194" lon="5.09455">
        <ele>257.74627942835</ele>
        <time>2017-04-29T16:04:14Z</time>
      </trkpt>
      <trkpt lat="50.41921" lon="5.09456">
        <ele>266.84660697677</ele>
        <time>2017-04-29T16:04:19Z</time>
      </trkpt>
      <trkpt lat="50.41906" lon="5.09458">
        <ele>267.47131499221</ele>
        <time>2017-04-29T16:04:23Z</time>
      </trkpt>
      <trkpt lat="50.41891" lon="5.09457">
        <ele>268.12171602487</ele>
        <time>2017-04-29T16:04:27Z</time>
      </trkpt>
      <trkpt lat="50.41878" lon="5.09459">
        <ele>268.41051692914</ele>
        <time>2017-04-29T16:04:31Z</time>
      </trkpt>
      <trkpt lat="50.41863" lon="5.09461">
        <ele>268.93696290775</ele>
        <time>2017-04-29T16:04:36Z</time>
      </trkpt>
      <trkpt lat="50.41852" lon="5.09463">
        <ele>269.30953370678</ele>
        <time>2017-04-29T16:04:40Z</time>
      </trkpt>
      <trkpt lat="50.41841" lon="5.09471">
        <ele>269.30329543102</ele>
        <time>2017-04-29T16:04:45Z</time>
      </trkpt>
      <trkpt lat="50.41829" lon="5.09478">
        <ele>269.67613794631</ele>
        <time>2017-04-29T16:04:50Z</time>
      </trkpt>
      <trkpt lat="50.4182" lon="5.09487">
        <ele>269.94750615242</ele>
        <time>2017-04-29T16:04:54Z</time>
      </trkpt>
      <trkpt lat="50.41811" lon="5.09498">
        <ele>270.0527336679</ele>
        <time>2017-04-29T16:04:59Z</time>
      </trkpt>
      <trkpt lat="50.41801" lon="5.09508">
        <ele>270.6359375438</ele>
        <time>2017-04-29T16:05:04Z</time>
      </trkpt>
      <trkpt lat="50.41793" lon="5.09519">
        <ele>271.56301195124</ele>
        <time>2017-04-29T16:05:08Z</time>
      </trkpt>
      <trkpt lat="50.41782" lon="5.09532">
        <ele>272.66452289373</ele>
        <time>2017-04-29T16:05:12Z</time>
      </trkpt>
      <trkpt lat="50.4177" lon="5.09547">
        <ele>276.98454730208</ele>
        <time>2017-04-29T16:05:17Z</time>
      </trkpt>
      <trkpt lat="50.41759" lon="5.09557">
        <ele>277.91012773695</ele>
        <time>2017-04-29T16:05:21Z</time>
      </trkpt>
      <trkpt lat="50.41743" lon="5.0957">
        <ele>280.49045103823</ele>
        <time>2017-04-29T16:05:26Z</time>
      </trkpt>
      <trkpt lat="50.41725" lon="5.09585">
        <ele>281.66301953784</ele>
        <time>2017-04-29T16:05:31Z</time>
      </trkpt>
      <trkpt lat="50.41708" lon="5.096">
        <ele>284.19476608947</ele>
        <time>2017-04-29T16:05:35Z</time>
      </trkpt>
      <trkpt lat="50.41686" lon="5.09618">
        <ele>280.06404592485</ele>
        <time>2017-04-29T16:05:39Z</time>
      </trkpt>
      <trkpt lat="50.41664" lon="5.09637">
        <ele>274.81068587262</ele>
        <time>2017-04-29T16:05:43Z</time>
      </trkpt>
      <trkpt lat="50.41646" lon="5.09656">
        <ele>270.64577235825</ele>
        <time>2017-04-29T16:05:47Z</time>
      </trkpt>
      <trkpt lat="50.41632" lon="5.09674">
        <ele>269.70054341092</ele>
        <time>2017-04-29T16:05:51Z</time>
      </trkpt>
      <trkpt lat="50.41624" lon="5.09692">
        <ele>269.821381802</ele>
        <time>2017-04-29T16:05:55Z</time>
      </trkpt>
      <trkpt lat="50.41613" lon="5.0971">
        <ele>271.14200313646</ele>
        <time>2017-04-29T16:05:59Z</time>
      </trkpt>
      <trkpt lat="50.41597" lon="5.09726">
        <ele>271.54721933633</ele>
        <time>2017-04-29T16:06:03Z</time>
      </trkpt>
      <trkpt lat="50.41568" lon="5.09748">
        <ele>271.9398713111</ele>
        <time>2017-04-29T16:06:08Z</time>
      </trkpt>
      <trkpt lat="50.41541" lon="5.09765">
        <ele>272.93991943599</ele>
        <time>2017-04-29T16:06:12Z</time>
      </trkpt>
      <trkpt lat="50.41504" lon="5.0979">
        <ele>276.19942007387</ele>
        <time>2017-04-29T16:06:17Z</time>
      </trkpt>
      <trkpt lat="50.41463" lon="5.0982">
        <ele>279.93478159993</ele>
        <time>2017-04-29T16:06:22Z</time>
      </trkpt>
      <trkpt lat="50.41426" lon="5.09845">
        <ele>273.9944620467</ele>
        <time>2017-04-29T16:06:26Z</time>
      </trkpt>
      <trkpt lat="50.41381" lon="5.09875">
        <ele>267.29195562326</ele>
        <time>2017-04-29T16:06:31Z</time>
      </trkpt>
      <trkpt lat="50.41347" lon="5.09895">
        <ele>264.53226127642</ele>
        <time>2017-04-29T16:06:35Z</time>
      </trkpt>
      <trkpt lat="50.41311" lon="5.09916">
        <ele>258.4509816626</ele>
        <time>2017-04-29T16:06:39Z</time>
      </trkpt>
      <trkpt lat="50.41284" lon="5.09934">
        <ele>252.46380926138</ele>
        <time>2017-04-29T16:06:43Z</time>
      </trkpt>
      <trkpt lat="50.41252" lon="5.09953">
        <ele>244.01310606516</ele>
        <time>2017-04-29T16:06:48Z</time>
      </trkpt>
      <trkpt lat="50.41229" lon="5.09966">
        <ele>242.74552104531</ele>
        <time>2017-04-29T16:06:52Z</time>
      </trkpt>
      <trkpt lat="50.41199" lon="5.09983">
        <ele>241.50636531894</ele>
        <time>2017-04-29T16:06:57Z</time>
      </trkpt>
      <trkpt lat="50.41172" lon="5.10002">
        <ele>241.71397711504</ele>
        <time>2017-04-29T16:07:02Z</time>
      </trkpt>
      <trkpt lat="50.41147" lon="5.10021">
        <ele>244.53033957402</ele>
        <time>2017-04-29T16:07:07Z</time>
      </trkpt>
      <trkpt lat="50.41128" lon="5.10039">
        <ele>250.01473931959</ele>
        <time>2017-04-29T16:07:11Z</time>
      </trkpt>
      <trkpt lat="50.41105" lon="5.1006">
        <ele>254.3576249881</ele>
        <time>2017-04-29T16:07:16Z</time>
      </trkpt>
      <trkpt lat="50.41084" lon="5.10083">
        <ele>255.77912817037</ele>
        <time>2017-04-29T16:07:21Z</time>
      </trkpt>
      <trkpt lat="50.41069" lon="5.10103">
        <ele>255.55763503864</ele>
        <time>2017-04-29T16:07:25Z</time>
      </trkpt>
      <trkpt lat="50.41053" lon="5.10124">
        <ele>255.84289982276</ele>
        <time>2017-04-29T16:07:29Z</time>
      </trkpt>
      <trkpt lat="50.41038" lon="5.10146">
        <ele>259.41108398047</ele>
        <time>2017-04-29T16:07:33Z</time>
      </trkpt>
      <trkpt lat="50.41022" lon="5.10168">
        <ele>262.86148379203</ele>
        <time>2017-04-29T16:07:37Z</time>
      </trkpt>
      <trkpt lat="50.41007" lon="5.10194">
        <ele>264.97838349502</ele>
        <time>2017-04-29T16:07:42Z</time>
      </trkpt>
      <trkpt lat="50.40993" lon="5.10217">
        <ele>266.63708795259</ele>
        <time>2017-04-29T16:07:47Z</time>
      </trkpt>
      <trkpt lat="50.40981" lon="5.10237">
        <ele>266.34412894087</ele>
        <time>2017-04-29T16:07:51Z</time>
      </trkpt>
      <trkpt lat="50.40966" lon="5.10263">
        <ele>266.46324336653</ele>
        <time>2017-04-29T16:07:56Z</time>
      </trkpt>
      <trkpt lat="50.40952" lon="5.10283">
        <ele>265.98514926729</ele>
        <time>2017-04-29T16:08:00Z</time>
      </trkpt>
      <trkpt lat="50.40939" lon="5.10304">
        <ele>266.82604445532</ele>
        <time>2017-04-29T16:08:04Z</time>
      </trkpt>
      <trkpt lat="50.40927" lon="5.10323">
        <ele>266.92530147607</ele>
        <time>2017-04-29T16:08:08Z</time>
      </trkpt>
      <trkpt lat="50.40916" lon="5.10342">
        <ele>267.49492163947</ele>
        <time>2017-04-29T16:08:12Z</time>
      </trkpt>
      <trkpt lat="50.40901" lon="5.10366">
        <ele>266.28980814209</ele>
        <time>2017-04-29T16:08:17Z</time>
      </trkpt>
      <trkpt lat="50.40888" lon="5.10385">
        <ele>266.03322919884</ele>
        <time>2017-04-29T16:08:21Z</time>
      </trkpt>
      <trkpt lat="50.40875" lon="5.10405">
        <ele>266.55305880695</ele>
        <time>2017-04-29T16:08:25Z</time>
      </trkpt>
      <trkpt lat="50.40859" lon="5.10428">
        <ele>266.78383253117</ele>
        <time>2017-04-29T16:08:30Z</time>
      </trkpt>
      <trkpt lat="50.40844" lon="5.10452">
        <ele>266.5459158832</ele>
        <time>2017-04-29T16:08:35Z</time>
      </trkpt>
      <trkpt lat="50.40831" lon="5.10473">
        <ele>267.13903448207</ele>
        <time>2017-04-29T16:08:39Z</time>
      </trkpt>
      <trkpt lat="50.40819" lon="5.10492">
        <ele>269.07710766082</ele>
        <time>2017-04-29T16:08:43Z</time>
      </trkpt>
      <trkpt lat="50.40803" lon="5.10517">
        <ele>270.29017408963</ele>
        <time>2017-04-29T16:08:48Z</time>
      </trkpt>
      <trkpt lat="50.40789" lon="5.10537">
        <ele>269.76053141946</ele>
        <time>2017-04-29T16:08:52Z</time>
      </trkpt>
      <trkpt lat="50.40775" lon="5.1056">
        <ele>267.34912632891</ele>
        <time>2017-04-29T16:08:57Z</time>
      </trkpt>
      <trkpt lat="50.4076" lon="5.10584">
        <ele>267.45172026426</ele>
        <time>2017-04-29T16:09:02Z</time>
      </trkpt>
      <trkpt lat="50.40748" lon="5.10603">
        <ele>268.39413952463</ele>
        <time>2017-04-29T16:09:06Z</time>
      </trkpt>
      <trkpt lat="50.40735" lon="5.10622">
        <ele>269.65429257886</ele>
        <time>2017-04-29T16:09:10Z</time>
      </trkpt>
      <trkpt lat="50.4072" lon="5.10646">
        <ele>271.75160299421</ele>
        <time>2017-04-29T16:09:15Z</time>
      </trkpt>
      <trkpt lat="50.40703" lon="5.10669">
        <ele>271.17886560322</ele>
        <time>2017-04-29T16:09:20Z</time>
      </trkpt>
      <trkpt lat="50.40691" lon="5.10685">
        <ele>271.12865502448</ele>
        <time>2017-04-29T16:09:24Z</time>
      </trkpt>
      <trkpt lat="50.40674" lon="5.10705">
        <ele>268.95869635243</ele>
        <time>2017-04-29T16:09:29Z</time>
      </trkpt>
      <trkpt lat="50.40659" lon="5.10722">
        <ele>267.8457610339</ele>
        <time>2017-04-29T16:09:33Z</time>
      </trkpt>
      <trkpt lat="50.40639" lon="5.10748">
        <ele>268.71597498256</ele>
        <time>2017-04-29T16:09:38Z</time>
      </trkpt>
      <trkpt lat="50.40623" lon="5.10768">
        <ele>266.99204019658</ele>
        <time>2017-04-29T16:09:42Z</time>
      </trkpt>
      <trkpt lat="50.40605" lon="5.10792">
        <ele>266.64296410289</ele>
        <time>2017-04-29T16:09:46Z</time>
      </trkpt>
      <trkpt lat="50.40582" lon="5.10823">
        <ele>266.85246607321</ele>
        <time>2017-04-29T16:09:51Z</time>
      </trkpt>
      <trkpt lat="50.40557" lon="5.10858">
        <ele>266.57332155894</ele>
        <time>2017-04-29T16:09:56Z</time>
      </trkpt>
      <trkpt lat="50.40529" lon="5.10894">
        <ele>265.96954819933</ele>
        <time>2017-04-29T16:10:01Z</time>
      </trkpt>
      <trkpt lat="50.40504" lon="5.10924">
        <ele>264.84119890067</ele>
        <time>2017-04-29T16:10:05Z</time>
      </trkpt>
      <trkpt lat="50.4048" lon="5.10955">
        <ele>263.79274539484</ele>
        <time>2017-04-29T16:10:09Z</time>
      </trkpt>
      <trkpt lat="50.40457" lon="5.10985">
        <ele>264.12695204553</ele>
        <time>2017-04-29T16:10:13Z</time>
      </trkpt>
      <trkpt lat="50.40435" lon="5.11014">
        <ele>263.9335488165</ele>
        <time>2017-04-29T16:10:17Z</time>
      </trkpt>
      <trkpt lat="50.40405" lon="5.11054">
        <ele>263.31579168765</ele>
        <time>2017-04-29T16:10:22Z</time>
      </trkpt>
      <trkpt lat="50.40381" lon="5.11084">
        <ele>263.11433582836</ele>
        <time>2017-04-29T16:10:26Z</time>
      </trkpt>
      <trkpt lat="50.40354" lon="5.1112">
        <ele>261.67048553935</ele>
        <time>2017-04-29T16:10:31Z</time>
      </trkpt>
      <trkpt lat="50.40333" lon="5.11145">
        <ele>258.31609332941</ele>
        <time>2017-04-29T16:10:35Z</time>
      </trkpt>
      <trkpt lat="50.40311" lon="5.11172">
        <ele>257.20665749071</ele>
        <time>2017-04-29T16:10:39Z</time>
      </trkpt>
      <trkpt lat="50.40287" lon="5.11204">
        <ele>257.33575982188</ele>
        <time>2017-04-29T16:10:44Z</time>
      </trkpt>
      <trkpt lat="50.40264" lon="5.11234">
        <ele>256.91487173487</ele>
        <time>2017-04-29T16:10:49Z</time>
      </trkpt>
      <trkpt lat="50.40244" lon="5.11261">
        <ele>256.8283664082</ele>
        <time>2017-04-29T16:10:54Z</time>
      </trkpt>
      <trkpt lat="50.40227" lon="5.11284">
        <ele>258.15648843199</ele>
        <time>2017-04-29T16:10:58Z</time>
      </trkpt>
      <trkpt lat="50.40211" lon="5.11304">
        <ele>259.73964478683</ele>
        <time>2017-04-29T16:11:02Z</time>
      </trkpt>
      <trkpt lat="50.40196" lon="5.11318">
        <ele>259.22141991505</ele>
        <time>2017-04-29T16:11:06Z</time>
      </trkpt>
      <trkpt lat="50.40185" lon="5.11326">
        <ele>258.57680443586</ele>
        <time>2017-04-29T16:11:10Z</time>
      </trkpt>
      <trkpt lat="50.40179" lon="5.11338">
        <ele>257.9180979604</ele>
        <time>2017-04-29T16:11:14Z</time>
      </trkpt>
      <trkpt lat="50.40171" lon="5.11356">
        <ele>257.69663195286</ele>
        <time>2017-04-29T16:11:18Z</time>
      </trkpt>
      <trkpt lat="50.40166" lon="5.11366">
        <ele>256.52065339017</ele>
        <time>2017-04-29T16:13:45Z</time>
      </trkpt>
      <trkpt lat="50.40159" lon="5.11385">
        <ele>254.49980744721</ele>
        <time>2017-04-29T16:13:49Z</time>
      </trkpt>
      <trkpt lat="50.40147" lon="5.11411">
        <ele>254.47013121344</ele>
        <time>2017-04-29T16:13:53Z</time>
      </trkpt>
      <trkpt lat="50.40134" lon="5.11436">
        <ele>256.32497552415</ele>
        <time>2017-04-29T16:13:57Z</time>
      </trkpt>
      <trkpt lat="50.4012" lon="5.1146">
        <ele>257.49724734813</ele>
        <time>2017-04-29T16:14:01Z</time>
      </trkpt>
      <trkpt lat="50.40104" lon="5.11493">
        <ele>258.88819518602</ele>
        <time>2017-04-29T16:14:06Z</time>
      </trkpt>
      <trkpt lat="50.40086" lon="5.11528">
        <ele>258.19541456317</ele>
        <time>2017-04-29T16:14:11Z</time>
      </trkpt>
      <trkpt lat="50.40071" lon="5.11562">
        <ele>256.59109735166</ele>
        <time>2017-04-29T16:14:16Z</time>
      </trkpt>
      <trkpt lat="50.40054" lon="5.11596">
        <ele>256.01878307918</ele>
        <time>2017-04-29T16:14:21Z</time>
      </trkpt>
      <trkpt lat="50.40041" lon="5.11623">
        <ele>256.70309794233</ele>
        <time>2017-04-29T16:14:25Z</time>
      </trkpt>
      <trkpt lat="50.40028" lon="5.11649">
        <ele>257.53024634918</ele>
        <time>2017-04-29T16:14:29Z</time>
      </trkpt>
      <trkpt lat="50.40016" lon="5.11674">
        <ele>258.52323224919</ele>
        <time>2017-04-29T16:14:33Z</time>
      </trkpt>
      <trkpt lat="50.40003" lon="5.11697">
        <ele>259.89755166472</ele>
        <time>2017-04-29T16:14:37Z</time>
      </trkpt>
      <trkpt lat="50.39989" lon="5.11727">
        <ele>257.72713492858</ele>
        <time>2017-04-29T16:14:42Z</time>
      </trkpt>
      <trkpt lat="50.39978" lon="5.11751">
        <ele>256.62264033161</ele>
        <time>2017-04-29T16:14:46Z</time>
      </trkpt>
      <trkpt lat="50.39967" lon="5.11773">
        <ele>257.35320781159</ele>
        <time>2017-04-29T16:14:50Z</time>
      </trkpt>
      <trkpt lat="50.39959" lon="5.11796">
        <ele>258.16663478104</ele>
        <time>2017-04-29T16:14:54Z</time>
      </trkpt>
      <trkpt lat="50.39953" lon="5.11827">
        <ele>261.78362218592</ele>
        <time>2017-04-29T16:14:59Z</time>
      </trkpt>
      <trkpt lat="50.39948" lon="5.11853">
        <ele>262.76120443642</ele>
        <time>2017-04-29T16:15:03Z</time>
      </trkpt>
      <trkpt lat="50.39948" lon="5.11877">
        <ele>262.37501291075</ele>
        <time>2017-04-29T16:15:07Z</time>
      </trkpt>
      <trkpt lat="50.39951" lon="5.11903">
        <ele>262.49484954003</ele>
        <time>2017-04-29T16:15:12Z</time>
      </trkpt>
      <trkpt lat="50.39948" lon="5.1193">
        <ele>263.95937408678</ele>
        <time>2017-04-29T16:15:17Z</time>
      </trkpt>
      <trkpt lat="50.39946" lon="5.11948">
        <ele>263.9113827092</ele>
        <time>2017-04-29T16:15:21Z</time>
      </trkpt>
      <trkpt lat="50.39943" lon="5.11976">
        <ele>264.22315631074</ele>
        <time>2017-04-29T16:15:25Z</time>
      </trkpt>
      <trkpt lat="50.3994" lon="5.12002">
        <ele>263.84076697536</ele>
        <time>2017-04-29T16:15:30Z</time>
      </trkpt>
      <trkpt lat="50.39934" lon="5.12023">
        <ele>264.00356123864</ele>
        <time>2017-04-29T16:15:34Z</time>
      </trkpt>
      <trkpt lat="50.39914" lon="5.12021">
        <ele>264.26442356405</ele>
        <time>2017-04-29T16:15:39Z</time>
      </trkpt>
      <trkpt lat="50.399" lon="5.12019">
        <ele>264.46842168691</ele>
        <time>2017-04-29T16:15:43Z</time>
      </trkpt>
      <trkpt lat="50.39885" lon="5.12017">
        <ele>264.91655086194</ele>
        <time>2017-04-29T16:15:47Z</time>
      </trkpt>
      <trkpt lat="50.39869" lon="5.12015">
        <ele>265.51080796078</ele>
        <time>2017-04-29T16:15:52Z</time>
      </trkpt>
      <trkpt lat="50.39852" lon="5.12012">
        <ele>266.49931511893</ele>
        <time>2017-04-29T16:15:56Z</time>
      </trkpt>
      <trkpt lat="50.39837" lon="5.1201">
        <ele>268.83098550939</ele>
        <time>2017-04-29T16:16:00Z</time>
      </trkpt>
      <trkpt lat="50.39821" lon="5.12009">
        <ele>269.76698546241</ele>
        <time>2017-04-29T16:16:04Z</time>
      </trkpt>
      <trkpt lat="50.39805" lon="5.12007">
        <ele>270.58650369903</ele>
        <time>2017-04-29T16:16:08Z</time>
      </trkpt>
      <trkpt lat="50.39789" lon="5.12004">
        <ele>271.6696195428</ele>
        <time>2017-04-29T16:16:13Z</time>
      </trkpt>
      <trkpt lat="50.39772" lon="5.12003">
        <ele>273.47012186735</ele>
        <time>2017-04-29T16:16:18Z</time>
      </trkpt>
      <trkpt lat="50.39758" lon="5.12003">
        <ele>275.03297529502</ele>
        <time>2017-04-29T16:16:23Z</time>
      </trkpt>
      <trkpt lat="50.3975" lon="5.12">
        <ele>284.09766372997</ele>
        <time>2017-04-29T16:16:55Z</time>
      </trkpt>
      <trkpt lat="50.39746" lon="5.11996">
        <ele>286.86377187396</ele>
        <time>2017-04-29T16:17:15Z</time>
      </trkpt>
      <trkpt lat="50.39731" lon="5.1199">
        <ele>288.04363252581</ele>
        <time>2017-04-29T16:17:19Z</time>
      </trkpt>
      <trkpt lat="50.39712" lon="5.11989">
        <ele>287.4519112222</ele>
        <time>2017-04-29T16:17:24Z</time>
      </trkpt>
      <trkpt lat="50.39699" lon="5.11991">
        <ele>287.95516342548</ele>
        <time>2017-04-29T16:17:28Z</time>
      </trkpt>
      <trkpt lat="50.39676" lon="5.11989">
        <ele>287.85195438683</ele>
        <time>2017-04-29T16:17:33Z</time>
      </trkpt>
      <trkpt lat="50.39659" lon="5.11985">
        <ele>290.37872813662</ele>
        <time>2017-04-29T16:17:37Z</time>
      </trkpt>
      <trkpt lat="50.39638" lon="5.11986">
        <ele>287.44373369856</ele>
        <time>2017-04-29T16:17:42Z</time>
      </trkpt>
      <trkpt lat="50.39625" lon="5.12003">
        <ele>284.94825652694</ele>
        <time>2017-04-29T16:17:46Z</time>
      </trkpt>
      <trkpt lat="50.39613" lon="5.12024">
        <ele>277.79642374756</ele>
        <time>2017-04-29T16:17:50Z</time>
      </trkpt>
      <trkpt lat="50.39602" lon="5.12044">
        <ele>269.1955243069</ele>
        <time>2017-04-29T16:17:54Z</time>
      </trkpt>
      <trkpt lat="50.39583" lon="5.1206">
        <ele>271.48896131664</ele>
        <time>2017-04-29T16:17:58Z</time>
      </trkpt>
      <trkpt lat="50.3956" lon="5.12074">
        <ele>279.63173440024</ele>
        <time>2017-04-29T16:18:03Z</time>
      </trkpt>
      <trkpt lat="50.3954" lon="5.12085">
        <ele>279.59005119446</ele>
        <time>2017-04-29T16:18:07Z</time>
      </trkpt>
      <trkpt lat="50.39519" lon="5.121">
        <ele>282.73729890982</ele>
        <time>2017-04-29T16:18:11Z</time>
      </trkpt>
      <trkpt lat="50.39491" lon="5.12117">
        <ele>286.69750115398</ele>
        <time>2017-04-29T16:18:16Z</time>
      </trkpt>
      <trkpt lat="50.39469" lon="5.12133">
        <ele>288.97859706053</ele>
        <time>2017-04-29T16:18:20Z</time>
      </trkpt>
      <trkpt lat="50.39444" lon="5.12145">
        <ele>292.14806033311</ele>
        <time>2017-04-29T16:18:25Z</time>
      </trkpt>
      <trkpt lat="50.39419" lon="5.12158">
        <ele>291.5058559647</ele>
        <time>2017-04-29T16:18:30Z</time>
      </trkpt>
      <trkpt lat="50.39397" lon="5.12168">
        <ele>288.2070329544</ele>
        <time>2017-04-29T16:18:34Z</time>
      </trkpt>
      <trkpt lat="50.3937" lon="5.12184">
        <ele>286.12349948874</ele>
        <time>2017-04-29T16:18:39Z</time>
      </trkpt>
      <trkpt lat="50.3935" lon="5.12199">
        <ele>283.8425354928</ele>
        <time>2017-04-29T16:18:43Z</time>
      </trkpt>
      <trkpt lat="50.39329" lon="5.12228">
        <ele>281.66690201323</ele>
        <time>2017-04-29T16:18:48Z</time>
      </trkpt>
      <trkpt lat="50.39315" lon="5.12254">
        <ele>283.24208966976</ele>
        <time>2017-04-29T16:18:52Z</time>
      </trkpt>
      <trkpt lat="50.39301" lon="5.12281">
        <ele>284.40867671279</ele>
        <time>2017-04-29T16:18:56Z</time>
      </trkpt>
      <trkpt lat="50.39285" lon="5.12311">
        <ele>284.49443259724</ele>
        <time>2017-04-29T16:19:01Z</time>
      </trkpt>
      <trkpt lat="50.39274" lon="5.12334">
        <ele>286.54246746242</ele>
        <time>2017-04-29T16:19:05Z</time>
      </trkpt>
      <trkpt lat="50.39262" lon="5.12359">
        <ele>286.96856196978</ele>
        <time>2017-04-29T16:19:09Z</time>
      </trkpt>
      <trkpt lat="50.39249" lon="5.12384">
        <ele>289.41910209244</ele>
        <time>2017-04-29T16:19:13Z</time>
      </trkpt>
      <trkpt lat="50.39235" lon="5.12411">
        <ele>289.36661296439</ele>
        <time>2017-04-29T16:19:17Z</time>
      </trkpt>
      <trkpt lat="50.39222" lon="5.12436">
        <ele>289.22956826208</ele>
        <time>2017-04-29T16:19:21Z</time>
      </trkpt>
      <trkpt lat="50.3921" lon="5.1246">
        <ele>289.80830895663</ele>
        <time>2017-04-29T16:19:25Z</time>
      </trkpt>
      <trkpt lat="50.39192" lon="5.12493">
        <ele>287.22745894174</ele>
        <time>2017-04-29T16:19:30Z</time>
      </trkpt>
      <trkpt lat="50.39175" lon="5.12524">
        <ele>285.65642881628</ele>
        <time>2017-04-29T16:19:35Z</time>
      </trkpt>
      <trkpt lat="50.39161" lon="5.12551">
        <ele>285.32002865198</ele>
        <time>2017-04-29T16:19:39Z</time>
      </trkpt>
      <trkpt lat="50.39143" lon="5.12583">
        <ele>285.02014159918</ele>
        <time>2017-04-29T16:19:44Z</time>
      </trkpt>
      <trkpt lat="50.39131" lon="5.12607">
        <ele>283.56622520282</ele>
        <time>2017-04-29T16:19:48Z</time>
      </trkpt>
      <trkpt lat="50.39115" lon="5.12634">
        <ele>283.05910774628</ele>
        <time>2017-04-29T16:19:53Z</time>
      </trkpt>
      <trkpt lat="50.39103" lon="5.12656">
        <ele>282.89572770599</ele>
        <time>2017-04-29T16:19:57Z</time>
      </trkpt>
      <trkpt lat="50.39086" lon="5.12678">
        <ele>279.43921452945</ele>
        <time>2017-04-29T16:20:01Z</time>
      </trkpt>
      <trkpt lat="50.39077" lon="5.12695">
        <ele>280.65765061151</ele>
        <time>2017-04-29T16:20:05Z</time>
      </trkpt>
      <trkpt lat="50.39066" lon="5.12715">
        <ele>277.49589858417</ele>
        <time>2017-04-29T16:20:10Z</time>
      </trkpt>
      <trkpt lat="50.39056" lon="5.12731">
        <ele>277.45873477035</ele>
        <time>2017-04-29T16:20:14Z</time>
      </trkpt>
      <trkpt lat="50.39047" lon="5.12752">
        <ele>281.03934976468</ele>
        <time>2017-04-29T16:20:18Z</time>
      </trkpt>
      <trkpt lat="50.39033" lon="5.12772">
        <ele>287.66653897441</ele>
        <time>2017-04-29T16:20:22Z</time>
      </trkpt>
      <trkpt lat="50.39022" lon="5.128">
        <ele>294.65428458946</ele>
        <time>2017-04-29T16:20:26Z</time>
      </trkpt>
      <trkpt lat="50.39004" lon="5.12829">
        <ele>300.28752560479</ele>
        <time>2017-04-29T16:20:31Z</time>
      </trkpt>
      <trkpt lat="50.38999" lon="5.12847">
        <ele>295.99585775553</ele>
        <time>2017-04-29T16:20:35Z</time>
      </trkpt>
      <trkpt lat="50.38997" lon="5.12869">
        <ele>295.26482090492</ele>
        <time>2017-04-29T16:20:39Z</time>
      </trkpt>
      <trkpt lat="50.38994" lon="5.12898">
        <ele>294.10350039529</ele>
        <time>2017-04-29T16:20:44Z</time>
      </trkpt>
      <trkpt lat="50.38996" lon="5.12918">
        <ele>293.36481920851</ele>
        <time>2017-04-29T16:20:48Z</time>
      </trkpt>
      <trkpt lat="50.38996" lon="5.12948">
        <ele>293.70487250751</ele>
        <time>2017-04-29T16:20:53Z</time>
      </trkpt>
      <trkpt lat="50.38989" lon="5.12973">
        <ele>293.55672883462</ele>
        <time>2017-04-29T16:20:57Z</time>
      </trkpt>
      <trkpt lat="50.38983" lon="5.12996">
        <ele>293.00916021542</ele>
        <time>2017-04-29T16:21:01Z</time>
      </trkpt>
      <trkpt lat="50.38978" lon="5.13018">
        <ele>292.27527656952</ele>
        <time>2017-04-29T16:21:05Z</time>
      </trkpt>
      <trkpt lat="50.3897" lon="5.13049">
        <ele>291.22743571737</ele>
        <time>2017-04-29T16:21:10Z</time>
      </trkpt>
      <trkpt lat="50.38964" lon="5.13069">
        <ele>290.65399802377</ele>
        <time>2017-04-29T16:21:14Z</time>
      </trkpt>
      <trkpt lat="50.38953" lon="5.13089">
        <ele>289.86417674893</ele>
        <time>2017-04-29T16:21:19Z</time>
      </trkpt>
      <trkpt lat="50.38945" lon="5.13113">
        <ele>289.42668973266</ele>
        <time>2017-04-29T16:21:24Z</time>
      </trkpt>
      <trkpt lat="50.38936" lon="5.13129">
        <ele>289.4573949205</ele>
        <time>2017-04-29T16:21:29Z</time>
      </trkpt>
      <trkpt lat="50.38927" lon="5.13143">
        <ele>289.2395787093</ele>
        <time>2017-04-29T16:21:33Z</time>
      </trkpt>
      <trkpt lat="50.38916" lon="5.13162">
        <ele>289.18291994394</ele>
        <time>2017-04-29T16:21:38Z</time>
      </trkpt>
      <trkpt lat="50.389" lon="5.13185">
        <ele>288.95968627396</ele>
        <time>2017-04-29T16:21:42Z</time>
      </trkpt>
      <trkpt lat="50.38887" lon="5.13203">
        <ele>288.17642122793</ele>
        <time>2017-04-29T16:21:46Z</time>
      </trkpt>
      <trkpt lat="50.38875" lon="5.13223">
        <ele>287.42513200367</ele>
        <time>2017-04-29T16:21:51Z</time>
      </trkpt>
      <trkpt lat="50.38862" lon="5.13241">
        <ele>287.19482304299</ele>
        <time>2017-04-29T16:21:55Z</time>
      </trkpt>
      <trkpt lat="50.38853" lon="5.13253">
        <ele>286.85327640753</ele>
        <time>2017-04-29T16:21:59Z</time>
      </trkpt>
      <trkpt lat="50.38844" lon="5.1327">
        <ele>286.96381485599</ele>
        <time>2017-04-29T16:22:03Z</time>
      </trkpt>
      <trkpt lat="50.38836" lon="5.13282">
        <ele>286.41148334746</ele>
        <time>2017-04-29T16:22:08Z</time>
      </trkpt>
      <trkpt lat="50.38824" lon="5.13298">
        <ele>285.74222003382</ele>
        <time>2017-04-29T16:22:13Z</time>
      </trkpt>
      <trkpt lat="50.38816" lon="5.13314">
        <ele>285.98768942554</ele>
        <time>2017-04-29T16:22:17Z</time>
      </trkpt>
      <trkpt lat="50.38804" lon="5.13342">
        <ele>286.41162199158</ele>
        <time>2017-04-29T16:22:22Z</time>
      </trkpt>
      <trkpt lat="50.38796" lon="5.13365">
        <ele>286.53517809253</ele>
        <time>2017-04-29T16:22:26Z</time>
      </trkpt>
      <trkpt lat="50.38791" lon="5.13381">
        <ele>286.9706930197</ele>
        <time>2017-04-29T16:22:30Z</time>
      </trkpt>
      <trkpt lat="50.38788" lon="5.13401">
        <ele>286.89335237289</ele>
        <time>2017-04-29T16:22:34Z</time>
      </trkpt>
      <trkpt lat="50.38781" lon="5.13422">
        <ele>286.60514439333</ele>
        <time>2017-04-29T16:22:39Z</time>
      </trkpt>
      <trkpt lat="50.3877" lon="5.13446">
        <ele>286.52848963172</ele>
        <time>2017-04-29T16:22:44Z</time>
      </trkpt>
      <trkpt lat="50.38765" lon="5.13464">
        <ele>286.50976838415</ele>
        <time>2017-04-29T16:22:48Z</time>
      </trkpt>
      <trkpt lat="50.3876" lon="5.13485">
        <ele>287.26554663049</ele>
        <time>2017-04-29T16:22:52Z</time>
      </trkpt>
      <trkpt lat="50.38755" lon="5.1351">
        <ele>287.90619560822</ele>
        <time>2017-04-29T16:22:57Z</time>
      </trkpt>
      <trkpt lat="50.38752" lon="5.13527">
        <ele>288.14742400193</ele>
        <time>2017-04-29T16:23:01Z</time>
      </trkpt>
      <trkpt lat="50.38743" lon="5.13549">
        <ele>289.96245913061</ele>
        <time>2017-04-29T16:23:06Z</time>
      </trkpt>
      <trkpt lat="50.38734" lon="5.13568">
        <ele>291.29370333737</ele>
        <time>2017-04-29T16:23:11Z</time>
      </trkpt>
      <trkpt lat="50.3873" lon="5.13587">
        <ele>292.92542820681</ele>
        <time>2017-04-29T16:23:15Z</time>
      </trkpt>
      <trkpt lat="50.3873" lon="5.13609">
        <ele>294.21200843151</ele>
        <time>2017-04-29T16:23:19Z</time>
      </trkpt>
      <trkpt lat="50.38731" lon="5.13628">
        <ele>295.87885282765</ele>
        <time>2017-04-29T16:23:24Z</time>
      </trkpt>
      <trkpt lat="50.38731" lon="5.13651">
        <ele>297.08143732034</ele>
        <time>2017-04-29T16:23:28Z</time>
      </trkpt>
      <trkpt lat="50.38713" lon="5.1368">
        <ele>309.68409061414</ele>
        <time>2017-04-29T16:23:32Z</time>
      </trkpt>
      <trkpt lat="50.38688" lon="5.13703">
        <ele>313.01471855278</ele>
        <time>2017-04-29T16:23:36Z</time>
      </trkpt>
      <trkpt lat="50.38652" lon="5.13735">
        <ele>312.79931386901</ele>
        <time>2017-04-29T16:23:41Z</time>
      </trkpt>
      <trkpt lat="50.38623" lon="5.13757">
        <ele>311.46710495225</ele>
        <time>2017-04-29T16:23:45Z</time>
      </trkpt>
      <trkpt lat="50.38591" lon="5.13781">
        <ele>308.57699212709</ele>
        <time>2017-04-29T16:23:50Z</time>
      </trkpt>
      <trkpt lat="50.38561" lon="5.13796">
        <ele>304.33347142385</ele>
        <time>2017-04-29T16:23:55Z</time>
      </trkpt>
      <trkpt lat="50.38537" lon="5.13806">
        <ele>300.65246389437</ele>
        <time>2017-04-29T16:23:59Z</time>
      </trkpt>
      <trkpt lat="50.38512" lon="5.13818">
        <ele>299.68280556887</ele>
        <time>2017-04-29T16:24:04Z</time>
      </trkpt>
      <trkpt lat="50.38495" lon="5.13826">
        <ele>299.47217291249</ele>
        <time>2017-04-29T16:24:08Z</time>
      </trkpt>
      <trkpt lat="50.38479" lon="5.13835">
        <ele>299.37754304511</ele>
        <time>2017-04-29T16:24:12Z</time>
      </trkpt>
      <trkpt lat="50.3846" lon="5.13846">
        <ele>299.09100709115</ele>
        <time>2017-04-29T16:24:17Z</time>
      </trkpt>
      <trkpt lat="50.38444" lon="5.13856">
        <ele>298.96168464266</ele>
        <time>2017-04-29T16:24:21Z</time>
      </trkpt>
      <trkpt lat="50.38425" lon="5.13871">
        <ele>298.52182199663</ele>
        <time>2017-04-29T16:24:26Z</time>
      </trkpt>
      <trkpt lat="50.38414" lon="5.13886">
        <ele>298.25496270798</ele>
        <time>2017-04-29T16:24:30Z</time>
      </trkpt>
      <trkpt lat="50.38405" lon="5.13901">
        <ele>294.8590175721</ele>
        <time>2017-04-29T16:24:34Z</time>
      </trkpt>
      <trkpt lat="50.38393" lon="5.13923">
        <ele>293.24336872474</ele>
        <time>2017-04-29T16:24:38Z</time>
      </trkpt>
      <trkpt lat="50.3838" lon="5.13948">
        <ele>294.69569893917</ele>
        <time>2017-04-29T16:24:42Z</time>
      </trkpt>
      <trkpt lat="50.38369" lon="5.13978">
        <ele>294.73626058955</ele>
        <time>2017-04-29T16:24:46Z</time>
      </trkpt>
      <trkpt lat="50.38356" lon="5.14006">
        <ele>290.318949284</ele>
        <time>2017-04-29T16:24:50Z</time>
      </trkpt>
      <trkpt lat="50.38336" lon="5.1404">
        <ele>283.9171283124</ele>
        <time>2017-04-29T16:24:54Z</time>
      </trkpt>
      <trkpt lat="50.38305" lon="5.14083">
        <ele>286.30912795736</ele>
        <time>2017-04-29T16:24:59Z</time>
      </trkpt>
      <trkpt lat="50.38277" lon="5.14102">
        <ele>290.92226099118</ele>
        <time>2017-04-29T16:25:03Z</time>
      </trkpt>
      <trkpt lat="50.38236" lon="5.14112">
        <ele>289.48550344253</ele>
        <time>2017-04-29T16:25:08Z</time>
      </trkpt>
      <trkpt lat="50.38195" lon="5.1413">
        <ele>288.01384105067</ele>
        <time>2017-04-29T16:25:12Z</time>
      </trkpt>
      <trkpt lat="50.38136" lon="5.14166">
        <ele>283.05754541753</ele>
        <time>2017-04-29T16:25:17Z</time>
      </trkpt>
      <trkpt lat="50.38092" lon="5.14203">
        <ele>279.44126548617</ele>
        <time>2017-04-29T16:25:21Z</time>
      </trkpt>
      <trkpt lat="50.38055" lon="5.14243">
        <ele>276.6100051283</ele>
        <time>2017-04-29T16:25:25Z</time>
      </trkpt>
      <trkpt lat="50.38016" lon="5.14291">
        <ele>275.92999332509</ele>
        <time>2017-04-29T16:25:30Z</time>
      </trkpt>
      <trkpt lat="50.37982" lon="5.14334">
        <ele>275.54897310534</ele>
        <time>2017-04-29T16:25:35Z</time>
      </trkpt>
      <trkpt lat="50.37954" lon="5.14362">
        <ele>275.40231536441</ele>
        <time>2017-04-29T16:25:39Z</time>
      </trkpt>
      <trkpt lat="50.37914" lon="5.14386">
        <ele>273.45391120326</ele>
        <time>2017-04-29T16:25:44Z</time>
      </trkpt>
      <trkpt lat="50.37883" lon="5.14394">
        <ele>272.19936989553</ele>
        <time>2017-04-29T16:25:48Z</time>
      </trkpt>
      <trkpt lat="50.37855" lon="5.14401">
        <ele>271.47551630701</ele>
        <time>2017-04-29T16:25:52Z</time>
      </trkpt>
      <trkpt lat="50.37829" lon="5.14412">
        <ele>271.15746939958</ele>
        <time>2017-04-29T16:25:57Z</time>
      </trkpt>
      <trkpt lat="50.37812" lon="5.14423">
        <ele>270.56257316393</ele>
        <time>2017-04-29T16:26:01Z</time>
      </trkpt>
      <trkpt lat="50.37797" lon="5.14432">
        <ele>268.41276418849</ele>
        <time>2017-04-29T16:26:05Z</time>
      </trkpt>
      <trkpt lat="50.37787" lon="5.14446">
        <ele>268.10757490902</ele>
        <time>2017-04-29T16:26:09Z</time>
      </trkpt>
      <trkpt lat="50.37772" lon="5.14455">
        <ele>268.75426084163</ele>
        <time>2017-04-29T16:26:13Z</time>
      </trkpt>
      <trkpt lat="50.37759" lon="5.14461">
        <ele>268.61187109336</ele>
        <time>2017-04-29T16:26:17Z</time>
      </trkpt>
      <trkpt lat="50.37743" lon="5.14472">
        <ele>268.57106916622</ele>
        <time>2017-04-29T16:26:22Z</time>
      </trkpt>
      <trkpt lat="50.37728" lon="5.14487">
        <ele>269.02396548622</ele>
        <time>2017-04-29T16:26:27Z</time>
      </trkpt>
      <trkpt lat="50.37714" lon="5.145">
        <ele>269.36383376173</ele>
        <time>2017-04-29T16:26:31Z</time>
      </trkpt>
      <trkpt lat="50.377" lon="5.14509">
        <ele>272.07629660979</ele>
        <time>2017-04-29T16:26:35Z</time>
      </trkpt>
      <trkpt lat="50.37684" lon="5.14524">
        <ele>276.31764306798</ele>
        <time>2017-04-29T16:26:40Z</time>
      </trkpt>
      <trkpt lat="50.37667" lon="5.14537">
        <ele>277.49088263669</ele>
        <time>2017-04-29T16:26:45Z</time>
      </trkpt>
      <trkpt lat="50.37651" lon="5.14551">
        <ele>277.36008805576</ele>
        <time>2017-04-29T16:26:50Z</time>
      </trkpt>
      <trkpt lat="50.37637" lon="5.14562">
        <ele>277.51071672043</ele>
        <time>2017-04-29T16:26:54Z</time>
      </trkpt>
      <trkpt lat="50.37625" lon="5.14574">
        <ele>277.70706937137</ele>
        <time>2017-04-29T16:26:58Z</time>
      </trkpt>
      <trkpt lat="50.37608" lon="5.14589">
        <ele>280.45270006849</ele>
        <time>2017-04-29T16:27:03Z</time>
      </trkpt>
      <trkpt lat="50.37593" lon="5.146">
        <ele>280.75138486178</ele>
        <time>2017-04-29T16:27:07Z</time>
      </trkpt>
      <trkpt lat="50.3758" lon="5.14609">
        <ele>279.25913040215</ele>
        <time>2017-04-29T16:27:11Z</time>
      </trkpt>
      <trkpt lat="50.37566" lon="5.14618">
        <ele>280.6325648068</ele>
        <time>2017-04-29T16:27:15Z</time>
      </trkpt>
      <trkpt lat="50.37549" lon="5.1463">
        <ele>284.9029544752</ele>
        <time>2017-04-29T16:27:20Z</time>
      </trkpt>
      <trkpt lat="50.37532" lon="5.14641">
        <ele>285.39175861178</ele>
        <time>2017-04-29T16:27:25Z</time>
      </trkpt>
      <trkpt lat="50.37517" lon="5.1465">
        <ele>285.83666088687</ele>
        <time>2017-04-29T16:27:30Z</time>
      </trkpt>
      <trkpt lat="50.37507" lon="5.14656">
        <ele>286.16152169357</ele>
        <time>2017-04-29T16:27:34Z</time>
      </trkpt>
      <trkpt lat="50.37496" lon="5.14662">
        <ele>286.28858068165</ele>
        <time>2017-04-29T16:27:38Z</time>
      </trkpt>
      <trkpt lat="50.37485" lon="5.14667">
        <ele>286.5690266941</ele>
        <time>2017-04-29T16:27:42Z</time>
      </trkpt>
      <trkpt lat="50.37473" lon="5.14675">
        <ele>286.94410241496</ele>
        <time>2017-04-29T16:27:47Z</time>
      </trkpt>
      <trkpt lat="50.37457" lon="5.14682">
        <ele>287.59894485717</ele>
        <time>2017-04-29T16:27:52Z</time>
      </trkpt>
      <trkpt lat="50.37446" lon="5.14689">
        <ele>288.06510493726</ele>
        <time>2017-04-29T16:27:56Z</time>
      </trkpt>
      <trkpt lat="50.37438" lon="5.14698">
        <ele>288.46691059679</ele>
        <time>2017-04-29T16:28:01Z</time>
      </trkpt>
      <trkpt lat="50.37429" lon="5.14709">
        <ele>288.77102514016</ele>
        <time>2017-04-29T16:28:06Z</time>
      </trkpt>
      <trkpt lat="50.37422" lon="5.14717">
        <ele>289.22334587496</ele>
        <time>2017-04-29T16:28:10Z</time>
      </trkpt>
      <trkpt lat="50.37407" lon="5.14731">
        <ele>290.08216444548</ele>
        <time>2017-04-29T16:28:15Z</time>
      </trkpt>
      <trkpt lat="50.37398" lon="5.14743">
        <ele>290.95548582013</ele>
        <time>2017-04-29T16:28:19Z</time>
      </trkpt>
      <trkpt lat="50.37389" lon="5.14756">
        <ele>291.90614692509</ele>
        <time>2017-04-29T16:28:23Z</time>
      </trkpt>
      <trkpt lat="50.37374" lon="5.14772">
        <ele>293.2369384293</ele>
        <time>2017-04-29T16:28:28Z</time>
      </trkpt>
      <trkpt lat="50.37366" lon="5.14784">
        <ele>294.42978211413</ele>
        <time>2017-04-29T16:28:32Z</time>
      </trkpt>
      <trkpt lat="50.37348" lon="5.14809">
        <ele>295.71465083908</ele>
        <time>2017-04-29T16:28:37Z</time>
      </trkpt>
      <trkpt lat="50.37326" lon="5.14836">
        <ele>292.99684869255</ele>
        <time>2017-04-29T16:28:41Z</time>
      </trkpt>
      <trkpt lat="50.37297" lon="5.14868">
        <ele>293.25296988756</ele>
        <time>2017-04-29T16:28:46Z</time>
      </trkpt>
      <trkpt lat="50.37276" lon="5.14896">
        <ele>293.20712278125</ele>
        <time>2017-04-29T16:28:50Z</time>
      </trkpt>
      <trkpt lat="50.37255" lon="5.14936">
        <ele>288.5970019898</ele>
        <time>2017-04-29T16:28:55Z</time>
      </trkpt>
      <trkpt lat="50.37242" lon="5.14965">
        <ele>286.02638364262</ele>
        <time>2017-04-29T16:28:59Z</time>
      </trkpt>
      <trkpt lat="50.37233" lon="5.1499">
        <ele>286.72026828902</ele>
        <time>2017-04-29T16:29:03Z</time>
      </trkpt>
      <trkpt lat="50.37225" lon="5.15012">
        <ele>289.81114002752</ele>
        <time>2017-04-29T16:29:07Z</time>
      </trkpt>
      <trkpt lat="50.37214" lon="5.15039">
        <ele>290.4647399245</ele>
        <time>2017-04-29T16:29:12Z</time>
      </trkpt>
      <trkpt lat="50.37201" lon="5.15064">
        <ele>291.50080069272</ele>
        <time>2017-04-29T16:29:16Z</time>
      </trkpt>
      <trkpt lat="50.37179" lon="5.15063">
        <ele>293.79344889201</ele>
        <time>2017-04-29T16:29:20Z</time>
      </trkpt>
      <trkpt lat="50.37161" lon="5.15036">
        <ele>294.1635455437</ele>
        <time>2017-04-29T16:29:25Z</time>
      </trkpt>
      <trkpt lat="50.37145" lon="5.15012">
        <ele>293.85878391207</ele>
        <time>2017-04-29T16:29:29Z</time>
      </trkpt>
      <trkpt lat="50.37124" lon="5.14984">
        <ele>293.94893674262</ele>
        <time>2017-04-29T16:29:34Z</time>
      </trkpt>
      <trkpt lat="50.37108" lon="5.14963">
        <ele>293.20613058311</ele>
        <time>2017-04-29T16:29:38Z</time>
      </trkpt>
      <trkpt lat="50.37087" lon="5.14939">
        <ele>294.19723333739</ele>
        <time>2017-04-29T16:29:43Z</time>
      </trkpt>
      <trkpt lat="50.37065" lon="5.14916">
        <ele>296.01087965285</ele>
        <time>2017-04-29T16:29:48Z</time>
      </trkpt>
      <trkpt lat="50.37042" lon="5.14896">
        <ele>296.2612721113</ele>
        <time>2017-04-29T16:29:53Z</time>
      </trkpt>
      <trkpt lat="50.37021" lon="5.14885">
        <ele>295.07772265845</ele>
        <time>2017-04-29T16:29:57Z</time>
      </trkpt>
      <trkpt lat="50.36993" lon="5.14877">
        <ele>294.65980815129</ele>
        <time>2017-04-29T16:30:02Z</time>
      </trkpt>
      <trkpt lat="50.36969" lon="5.14872">
        <ele>294.0515824681</ele>
        <time>2017-04-29T16:30:06Z</time>
      </trkpt>
      <trkpt lat="50.36942" lon="5.14868">
        <ele>292.12444623293</ele>
        <time>2017-04-29T16:30:11Z</time>
      </trkpt>
      <trkpt lat="50.36917" lon="5.14863">
        <ele>291.78123719253</ele>
        <time>2017-04-29T16:30:15Z</time>
      </trkpt>
      <trkpt lat="50.36891" lon="5.14852">
        <ele>291.91986718232</ele>
        <time>2017-04-29T16:30:19Z</time>
      </trkpt>
      <trkpt lat="50.36866" lon="5.14844">
        <ele>290.01449141648</ele>
        <time>2017-04-29T16:30:23Z</time>
      </trkpt>
      <trkpt lat="50.36837" lon="5.14846">
        <ele>288.78675763859</ele>
        <time>2017-04-29T16:30:27Z</time>
      </trkpt>
      <trkpt lat="50.36808" lon="5.14857">
        <ele>287.08212425293</ele>
        <time>2017-04-29T16:30:31Z</time>
      </trkpt>
      <trkpt lat="50.36773" lon="5.14881">
        <ele>285.59317244525</ele>
        <time>2017-04-29T16:30:36Z</time>
      </trkpt>
      <trkpt lat="50.36747" lon="5.14904">
        <ele>285.36640452269</ele>
        <time>2017-04-29T16:30:40Z</time>
      </trkpt>
      <trkpt lat="50.36715" lon="5.14932">
        <ele>284.19877390616</ele>
        <time>2017-04-29T16:30:45Z</time>
      </trkpt>
      <trkpt lat="50.36692" lon="5.14952">
        <ele>283.72458903502</ele>
        <time>2017-04-29T16:30:49Z</time>
      </trkpt>
      <trkpt lat="50.36667" lon="5.14974">
        <ele>284.1848606689</ele>
        <time>2017-04-29T16:30:54Z</time>
      </trkpt>
      <trkpt lat="50.36646" lon="5.14994">
        <ele>284.26313841067</ele>
        <time>2017-04-29T16:30:59Z</time>
      </trkpt>
      <trkpt lat="50.3663" lon="5.1501">
        <ele>284.36585804657</ele>
        <time>2017-04-29T16:31:03Z</time>
      </trkpt>
      <trkpt lat="50.36609" lon="5.15031">
        <ele>284.50657598057</ele>
        <time>2017-04-29T16:31:08Z</time>
      </trkpt>
      <trkpt lat="50.36593" lon="5.15045">
        <ele>285.18334503012</ele>
        <time>2017-04-29T16:31:12Z</time>
      </trkpt>
      <trkpt lat="50.36571" lon="5.15063">
        <ele>286.49722119124</ele>
        <time>2017-04-29T16:31:17Z</time>
      </trkpt>
      <trkpt lat="50.36555" lon="5.15074">
        <ele>286.48193945347</ele>
        <time>2017-04-29T16:31:21Z</time>
      </trkpt>
      <trkpt lat="50.36534" lon="5.15088">
        <ele>286.63291373871</ele>
        <time>2017-04-29T16:31:26Z</time>
      </trkpt>
      <trkpt lat="50.36512" lon="5.15099">
        <ele>288.11409280161</ele>
        <time>2017-04-29T16:31:31Z</time>
      </trkpt>
      <trkpt lat="50.36496" lon="5.15107">
        <ele>290.13096424259</ele>
        <time>2017-04-29T16:31:35Z</time>
      </trkpt>
      <trkpt lat="50.3648" lon="5.15114">
        <ele>290.51742279909</ele>
        <time>2017-04-29T16:31:39Z</time>
      </trkpt>
      <trkpt lat="50.36459" lon="5.15123">
        <ele>290.82578957365</ele>
        <time>2017-04-29T16:31:44Z</time>
      </trkpt>
      <trkpt lat="50.36443" lon="5.15131">
        <ele>291.7248558341</ele>
        <time>2017-04-29T16:31:48Z</time>
      </trkpt>
      <trkpt lat="50.36429" lon="5.1514">
        <ele>292.28643071828</ele>
        <time>2017-04-29T16:31:52Z</time>
      </trkpt>
      <trkpt lat="50.36417" lon="5.15149">
        <ele>292.34872686899</ele>
        <time>2017-04-29T16:31:56Z</time>
      </trkpt>
      <trkpt lat="50.36404" lon="5.15159">
        <ele>292.82568432931</ele>
        <time>2017-04-29T16:32:00Z</time>
      </trkpt>
      <trkpt lat="50.36388" lon="5.15172">
        <ele>292.8552098166</ele>
        <time>2017-04-29T16:32:04Z</time>
      </trkpt>
      <trkpt lat="50.36371" lon="5.15186">
        <ele>294.1565400414</ele>
        <time>2017-04-29T16:32:08Z</time>
      </trkpt>
      <trkpt lat="50.36347" lon="5.15204">
        <ele>293.68633952915</ele>
        <time>2017-04-29T16:32:13Z</time>
      </trkpt>
      <trkpt lat="50.3632" lon="5.15225">
        <ele>291.17823334159</ele>
        <time>2017-04-29T16:32:18Z</time>
      </trkpt>
      <trkpt lat="50.36295" lon="5.15246">
        <ele>288.01356773443</ele>
        <time>2017-04-29T16:32:22Z</time>
      </trkpt>
      <trkpt lat="50.36267" lon="5.1527">
        <ele>281.43632555115</ele>
        <time>2017-04-29T16:32:26Z</time>
      </trkpt>
      <trkpt lat="50.36237" lon="5.15298">
        <ele>282.25439055977</ele>
        <time>2017-04-29T16:32:30Z</time>
      </trkpt>
      <trkpt lat="50.36197" lon="5.15333">
        <ele>283.32335698011</ele>
        <time>2017-04-29T16:32:35Z</time>
      </trkpt>
      <trkpt lat="50.36159" lon="5.1537">
        <ele>285.38720007682</ele>
        <time>2017-04-29T16:32:40Z</time>
      </trkpt>
      <trkpt lat="50.36125" lon="5.15403">
        <ele>287.68199514611</ele>
        <time>2017-04-29T16:32:45Z</time>
      </trkpt>
      <trkpt lat="50.361" lon="5.1543">
        <ele>289.44898664871</ele>
        <time>2017-04-29T16:32:49Z</time>
      </trkpt>
      <trkpt lat="50.3608" lon="5.15455">
        <ele>293.33042432546</ele>
        <time>2017-04-29T16:32:54Z</time>
      </trkpt>
      <trkpt lat="50.36074" lon="5.15461">
        <ele>293.59318970944</ele>
        <time>2017-04-29T16:33:00Z</time>
      </trkpt>
      <trkpt lat="50.36064" lon="5.1548">
        <ele>293.45426591007</ele>
        <time>2017-04-29T16:33:04Z</time>
      </trkpt>
      <trkpt lat="50.36049" lon="5.15494">
        <ele>293.22123168356</ele>
        <time>2017-04-29T16:33:09Z</time>
      </trkpt>
      <trkpt lat="50.36022" lon="5.15509">
        <ele>291.42396890918</ele>
        <time>2017-04-29T16:33:13Z</time>
      </trkpt>
      <trkpt lat="50.35979" lon="5.15529">
        <ele>292.36878879533</ele>
        <time>2017-04-29T16:33:18Z</time>
      </trkpt>
      <trkpt lat="50.35944" lon="5.15545">
        <ele>296.51841017062</ele>
        <time>2017-04-29T16:33:22Z</time>
      </trkpt>
      <trkpt lat="50.35908" lon="5.15558">
        <ele>291.91702514003</ele>
        <time>2017-04-29T16:33:26Z</time>
      </trkpt>
      <trkpt lat="50.35879" lon="5.15565">
        <ele>285.9971183915</ele>
        <time>2017-04-29T16:33:30Z</time>
      </trkpt>
      <trkpt lat="50.35841" lon="5.1557">
        <ele>280.65122085662</ele>
        <time>2017-04-29T16:33:35Z</time>
      </trkpt>
      <trkpt lat="50.35811" lon="5.15573">
        <ele>279.21144638574</ele>
        <time>2017-04-29T16:33:39Z</time>
      </trkpt>
      <trkpt lat="50.35785" lon="5.15569">
        <ele>277.41623018745</ele>
        <time>2017-04-29T16:33:43Z</time>
      </trkpt>
      <trkpt lat="50.35758" lon="5.1555">
        <ele>275.88390978406</ele>
        <time>2017-04-29T16:33:48Z</time>
      </trkpt>
      <trkpt lat="50.35741" lon="5.15534">
        <ele>275.95201118388</ele>
        <time>2017-04-29T16:33:52Z</time>
      </trkpt>
      <trkpt lat="50.35724" lon="5.15517">
        <ele>277.27183951826</ele>
        <time>2017-04-29T16:33:56Z</time>
      </trkpt>
      <trkpt lat="50.35701" lon="5.15514">
        <ele>278.6978585065</ele>
        <time>2017-04-29T16:34:01Z</time>
      </trkpt>
      <trkpt lat="50.35685" lon="5.15529">
        <ele>279.98589056141</ele>
        <time>2017-04-29T16:34:05Z</time>
      </trkpt>
      <trkpt lat="50.35666" lon="5.15553">
        <ele>282.27129112863</ele>
        <time>2017-04-29T16:34:10Z</time>
      </trkpt>
      <trkpt lat="50.35654" lon="5.15572">
        <ele>283.17100542444</ele>
        <time>2017-04-29T16:34:14Z</time>
      </trkpt>
      <trkpt lat="50.35644" lon="5.15592">
        <ele>284.45214292757</ele>
        <time>2017-04-29T16:34:18Z</time>
      </trkpt>
      <trkpt lat="50.35633" lon="5.15618">
        <ele>279.14572384104</ele>
        <time>2017-04-29T16:34:23Z</time>
      </trkpt>
      <trkpt lat="50.35619" lon="5.15646">
        <ele>281.58692219185</ele>
        <time>2017-04-29T16:34:28Z</time>
      </trkpt>
      <trkpt lat="50.3561" lon="5.15671">
        <ele>284.67987201472</ele>
        <time>2017-04-29T16:34:33Z</time>
      </trkpt>
      <trkpt lat="50.3561" lon="5.15694">
        <ele>285.99886076556</ele>
        <time>2017-04-29T16:34:37Z</time>
      </trkpt>
      <trkpt lat="50.35608" lon="5.15719">
        <ele>287.5422523738</ele>
        <time>2017-04-29T16:34:41Z</time>
      </trkpt>
      <trkpt lat="50.35603" lon="5.15752">
        <ele>290.11683721785</ele>
        <time>2017-04-29T16:34:46Z</time>
      </trkpt>
      <trkpt lat="50.35601" lon="5.15778">
        <ele>290.24706388973</ele>
        <time>2017-04-29T16:34:51Z</time>
      </trkpt>
      <trkpt lat="50.35596" lon="5.15795">
        <ele>289.72982083713</ele>
        <time>2017-04-29T16:34:55Z</time>
      </trkpt>
      <trkpt lat="50.35576" lon="5.15817">
        <ele>285.81101010063</ele>
        <time>2017-04-29T16:35:00Z</time>
      </trkpt>
      <trkpt lat="50.35561" lon="5.15826">
        <ele>286.42606451557</ele>
        <time>2017-04-29T16:35:04Z</time>
      </trkpt>
      <trkpt lat="50.35548" lon="5.15832">
        <ele>286.79620351219</ele>
        <time>2017-04-29T16:35:09Z</time>
      </trkpt>
      <trkpt lat="50.35536" lon="5.1584">
        <ele>286.67389529201</ele>
        <time>2017-04-29T16:35:13Z</time>
      </trkpt>
      <trkpt lat="50.35518" lon="5.15849">
        <ele>286.72952760741</ele>
        <time>2017-04-29T16:35:17Z</time>
      </trkpt>
      <trkpt lat="50.35499" lon="5.15857">
        <ele>288.37155542595</ele>
        <time>2017-04-29T16:35:21Z</time>
      </trkpt>
      <trkpt lat="50.35484" lon="5.15864">
        <ele>288.91588442292</ele>
        <time>2017-04-29T16:35:26Z</time>
      </trkpt>
      <trkpt lat="50.35473" lon="5.15875">
        <ele>289.61180452541</ele>
        <time>2017-04-29T16:35:31Z</time>
      </trkpt>
      <trkpt lat="50.35464" lon="5.15884">
        <ele>290.21672813282</ele>
        <time>2017-04-29T16:35:35Z</time>
      </trkpt>
      <trkpt lat="50.35456" lon="5.15891">
        <ele>290.71425401907</ele>
        <time>2017-04-29T16:35:39Z</time>
      </trkpt>
      <trkpt lat="50.35448" lon="5.15895">
        <ele>291.08435238569</ele>
        <time>2017-04-29T16:35:43Z</time>
      </trkpt>
      <trkpt lat="50.35436" lon="5.15905">
        <ele>291.65816807255</ele>
        <time>2017-04-29T16:35:48Z</time>
      </trkpt>
      <trkpt lat="50.35425" lon="5.15915">
        <ele>292.48334454376</ele>
        <time>2017-04-29T16:35:53Z</time>
      </trkpt>
      <trkpt lat="50.35414" lon="5.15922">
        <ele>293.70355747789</ele>
        <time>2017-04-29T16:35:58Z</time>
      </trkpt>
      <trkpt lat="50.35406" lon="5.15929">
        <ele>294.59139600525</ele>
        <time>2017-04-29T16:36:02Z</time>
      </trkpt>
      <trkpt lat="50.35394" lon="5.1594">
        <ele>295.59139237871</ele>
        <time>2017-04-29T16:36:07Z</time>
      </trkpt>
      <trkpt lat="50.35385" lon="5.15954">
        <ele>296.56867190665</ele>
        <time>2017-04-29T16:36:11Z</time>
      </trkpt>
      <trkpt lat="50.35378" lon="5.15962">
        <ele>297.77914414365</ele>
        <time>2017-04-29T16:36:15Z</time>
      </trkpt>
      <trkpt lat="50.35372" lon="5.15965">
        <ele>301.57473979615</ele>
        <time>2017-04-29T16:37:16Z</time>
      </trkpt>
      <trkpt lat="50.35362" lon="5.15959">
        <ele>302.26579470968</ele>
        <time>2017-04-29T16:37:20Z</time>
      </trkpt>
      <trkpt lat="50.35364" lon="5.15969">
        <ele>302.50982054844</ele>
        <time>2017-04-29T16:37:24Z</time>
      </trkpt>
      <trkpt lat="50.35373" lon="5.15989">
        <ele>302.62183840758</ele>
        <time>2017-04-29T16:37:29Z</time>
      </trkpt>
      <trkpt lat="50.35381" lon="5.16007">
        <ele>301.59540482342</ele>
        <time>2017-04-29T16:37:33Z</time>
      </trkpt>
      <trkpt lat="50.35386" lon="5.16028">
        <ele>298.01967680525</ele>
        <time>2017-04-29T16:37:37Z</time>
      </trkpt>
      <trkpt lat="50.35393" lon="5.16047">
        <ele>296.59068457271</ele>
        <time>2017-04-29T16:37:41Z</time>
      </trkpt>
      <trkpt lat="50.35401" lon="5.16068">
        <ele>296.81420805491</ele>
        <time>2017-04-29T16:37:45Z</time>
      </trkpt>
      <trkpt lat="50.3541" lon="5.16092">
        <ele>298.54506570157</ele>
        <time>2017-04-29T16:37:49Z</time>
      </trkpt>
      <trkpt lat="50.35413" lon="5.16114">
        <ele>302.62419493233</ele>
        <time>2017-04-29T16:37:53Z</time>
      </trkpt>
      <trkpt lat="50.35402" lon="5.16119">
        <ele>304.53057278942</ele>
        <time>2017-04-29T16:37:57Z</time>
      </trkpt>
      <trkpt lat="50.35377" lon="5.16108">
        <ele>308.40926926374</ele>
        <time>2017-04-29T16:38:02Z</time>
      </trkpt>
      <trkpt lat="50.35351" lon="5.161">
        <ele>307.58444029536</ele>
        <time>2017-04-29T16:38:06Z</time>
      </trkpt>
      <trkpt lat="50.35313" lon="5.16092">
        <ele>306.73220807504</ele>
        <time>2017-04-29T16:38:11Z</time>
      </trkpt>
      <trkpt lat="50.35283" lon="5.16086">
        <ele>305.24194117775</ele>
        <time>2017-04-29T16:38:15Z</time>
      </trkpt>
      <trkpt lat="50.35253" lon="5.1608">
        <ele>304.36811902102</ele>
        <time>2017-04-29T16:38:19Z</time>
      </trkpt>
      <trkpt lat="50.35215" lon="5.16067">
        <ele>300.9777443857</ele>
        <time>2017-04-29T16:38:24Z</time>
      </trkpt>
      <trkpt lat="50.35186" lon="5.16057">
        <ele>299.45881720521</ele>
        <time>2017-04-29T16:38:28Z</time>
      </trkpt>
      <trkpt lat="50.35155" lon="5.16048">
        <ele>298.18790509314</ele>
        <time>2017-04-29T16:38:32Z</time>
      </trkpt>
      <trkpt lat="50.35119" lon="5.16037">
        <ele>296.84324002411</ele>
        <time>2017-04-29T16:38:37Z</time>
      </trkpt>
      <trkpt lat="50.35081" lon="5.16025">
        <ele>297.07373495159</ele>
        <time>2017-04-29T16:38:42Z</time>
      </trkpt>
      <trkpt lat="50.35035" lon="5.16013">
        <ele>292.94081139686</ele>
        <time>2017-04-29T16:38:47Z</time>
      </trkpt>
      <trkpt lat="50.34985" lon="5.16001">
        <ele>286.35446865081</ele>
        <time>2017-04-29T16:38:52Z</time>
      </trkpt>
      <trkpt lat="50.34946" lon="5.15988">
        <ele>282.49263583384</ele>
        <time>2017-04-29T16:38:56Z</time>
      </trkpt>
      <trkpt lat="50.34907" lon="5.15978">
        <ele>279.30211846663</ele>
        <time>2017-04-29T16:39:00Z</time>
      </trkpt>
      <trkpt lat="50.34859" lon="5.15968">
        <ele>277.68493582669</ele>
        <time>2017-04-29T16:39:05Z</time>
      </trkpt>
      <trkpt lat="50.34823" lon="5.15955">
        <ele>276.66789451893</ele>
        <time>2017-04-29T16:39:09Z</time>
      </trkpt>
      <trkpt lat="50.3479" lon="5.15943">
        <ele>276.20765014349</ele>
        <time>2017-04-29T16:39:13Z</time>
      </trkpt>
      <trkpt lat="50.34764" lon="5.15933">
        <ele>276.64335333251</ele>
        <time>2017-04-29T16:39:17Z</time>
      </trkpt>
      <trkpt lat="50.34753" lon="5.15925">
        <ele>276.78342028705</ele>
        <time>2017-04-29T16:39:21Z</time>
      </trkpt>
      <trkpt lat="50.3475" lon="5.1592">
        <ele>277.75307227582</ele>
        <time>2017-04-29T16:39:43Z</time>
      </trkpt>
      <trkpt lat="50.34743" lon="5.15922">
        <ele>277.39390905687</ele>
        <time>2017-04-29T16:39:55Z</time>
      </trkpt>
      <trkpt lat="50.34728" lon="5.15916">
        <ele>276.7238241686</ele>
        <time>2017-04-29T16:39:59Z</time>
      </trkpt>
      <trkpt lat="50.3471" lon="5.15908">
        <ele>277.27123727811</ele>
        <time>2017-04-29T16:40:03Z</time>
      </trkpt>
      <trkpt lat="50.3469" lon="5.15897">
        <ele>278.38599846218</ele>
        <time>2017-04-29T16:40:07Z</time>
      </trkpt>
      <trkpt lat="50.34661" lon="5.15881">
        <ele>276.16566934118</ele>
        <time>2017-04-29T16:40:12Z</time>
      </trkpt>
      <trkpt lat="50.34632" lon="5.15865">
        <ele>275.03953346059</ele>
        <time>2017-04-29T16:40:17Z</time>
      </trkpt>
      <trkpt lat="50.34609" lon="5.15856">
        <ele>273.31351074338</ele>
        <time>2017-04-29T16:40:21Z</time>
      </trkpt>
      <trkpt lat="50.34585" lon="5.15845">
        <ele>269.786022456</ele>
        <time>2017-04-29T16:40:25Z</time>
      </trkpt>
      <trkpt lat="50.34551" lon="5.15845">
        <ele>267.61788764686</ele>
        <time>2017-04-29T16:40:30Z</time>
      </trkpt>
      <trkpt lat="50.34518" lon="5.15869">
        <ele>263.79617055826</ele>
        <time>2017-04-29T16:40:35Z</time>
      </trkpt>
      <trkpt lat="50.34482" lon="5.15895">
        <ele>263.46424702844</ele>
        <time>2017-04-29T16:40:40Z</time>
      </trkpt>
      <trkpt lat="50.34458" lon="5.15914">
        <ele>261.68786626835</ele>
        <time>2017-04-29T16:40:44Z</time>
      </trkpt>
      <trkpt lat="50.34419" lon="5.15934">
        <ele>260.64235921645</ele>
        <time>2017-04-29T16:40:49Z</time>
      </trkpt>
      <trkpt lat="50.3439" lon="5.15946">
        <ele>258.89039294733</ele>
        <time>2017-04-29T16:40:53Z</time>
      </trkpt>
      <trkpt lat="50.34355" lon="5.15961">
        <ele>256.80895017845</ele>
        <time>2017-04-29T16:40:58Z</time>
      </trkpt>
      <trkpt lat="50.34337" lon="5.15968">
        <ele>254.8852698875</ele>
        <time>2017-04-29T16:41:02Z</time>
      </trkpt>
      <trkpt lat="50.34318" lon="5.15961">
        <ele>255.163013499</ele>
        <time>2017-04-29T16:41:06Z</time>
      </trkpt>
      <trkpt lat="50.34299" lon="5.15939">
        <ele>256.12803677543</ele>
        <time>2017-04-29T16:41:11Z</time>
      </trkpt>
      <trkpt lat="50.34275" lon="5.15916">
        <ele>253.75936494203</ele>
        <time>2017-04-29T16:41:16Z</time>
      </trkpt>
      <trkpt lat="50.3425" lon="5.15895">
        <ele>249.91421140345</ele>
        <time>2017-04-29T16:41:20Z</time>
      </trkpt>
      <trkpt lat="50.34228" lon="5.1587">
        <ele>247.84458781517</ele>
        <time>2017-04-29T16:41:24Z</time>
      </trkpt>
      <trkpt lat="50.342" lon="5.1584">
        <ele>248.83270019371</ele>
        <time>2017-04-29T16:41:29Z</time>
      </trkpt>
      <trkpt lat="50.34179" lon="5.15818">
        <ele>250.88030162909</ele>
        <time>2017-04-29T16:41:33Z</time>
      </trkpt>
      <trkpt lat="50.34156" lon="5.1579">
        <ele>252.72922299404</ele>
        <time>2017-04-29T16:41:37Z</time>
      </trkpt>
      <trkpt lat="50.34136" lon="5.15758">
        <ele>252.06701187854</ele>
        <time>2017-04-29T16:41:41Z</time>
      </trkpt>
      <trkpt lat="50.34112" lon="5.1572">
        <ele>248.92157068065</ele>
        <time>2017-04-29T16:41:46Z</time>
      </trkpt>
      <trkpt lat="50.34096" lon="5.1569">
        <ele>248.54028211211</ele>
        <time>2017-04-29T16:41:50Z</time>
      </trkpt>
      <trkpt lat="50.34078" lon="5.1566">
        <ele>248.99055110665</ele>
        <time>2017-04-29T16:41:55Z</time>
      </trkpt>
      <trkpt lat="50.34065" lon="5.1564">
        <ele>249.67828491217</ele>
        <time>2017-04-29T16:41:59Z</time>
      </trkpt>
      <trkpt lat="50.34057" lon="5.15614">
        <ele>249.51048865766</ele>
        <time>2017-04-29T16:42:03Z</time>
      </trkpt>
      <trkpt lat="50.34047" lon="5.156">
        <ele>250.43873422201</ele>
        <time>2017-04-29T16:42:07Z</time>
      </trkpt>
      <trkpt lat="50.34034" lon="5.15581">
        <ele>254.19378362527</ele>
        <time>2017-04-29T16:42:12Z</time>
      </trkpt>
      <trkpt lat="50.34023" lon="5.15538">
        <ele>256.53692444486</ele>
        <time>2017-04-29T16:42:17Z</time>
      </trkpt>
      <trkpt lat="50.34009" lon="5.15503">
        <ele>259.17884652903</ele>
        <time>2017-04-29T16:42:22Z</time>
      </trkpt>
      <trkpt lat="50.34" lon="5.15471">
        <ele>260.16574423043</ele>
        <time>2017-04-29T16:42:26Z</time>
      </trkpt>
      <trkpt lat="50.33995" lon="5.15434">
        <ele>261.33641181036</ele>
        <time>2017-04-29T16:42:30Z</time>
      </trkpt>
      <trkpt lat="50.3399" lon="5.15398">
        <ele>260.34893656925</ele>
        <time>2017-04-29T16:42:34Z</time>
      </trkpt>
      <trkpt lat="50.33981" lon="5.15363">
        <ele>259.89636842016</ele>
        <time>2017-04-29T16:42:38Z</time>
      </trkpt>
      <trkpt lat="50.33974" lon="5.15326">
        <ele>258.39915231373</ele>
        <time>2017-04-29T16:42:42Z</time>
      </trkpt>
      <trkpt lat="50.33966" lon="5.1529">
        <ele>257.08540822784</ele>
        <time>2017-04-29T16:42:46Z</time>
      </trkpt>
      <trkpt lat="50.33954" lon="5.15244">
        <ele>257.43540515318</ele>
        <time>2017-04-29T16:42:51Z</time>
      </trkpt>
      <trkpt lat="50.33947" lon="5.15211">
        <ele>256.45617128601</ele>
        <time>2017-04-29T16:42:55Z</time>
      </trkpt>
      <trkpt lat="50.33938" lon="5.15188">
        <ele>256.32044947588</ele>
        <time>2017-04-29T16:42:59Z</time>
      </trkpt>
      <trkpt lat="50.33926" lon="5.15158">
        <ele>257.02371333701</ele>
        <time>2017-04-29T16:43:03Z</time>
      </trkpt>
      <trkpt lat="50.33914" lon="5.15131">
        <ele>256.91382375584</ele>
        <time>2017-04-29T16:43:07Z</time>
      </trkpt>
      <trkpt lat="50.33903" lon="5.15109">
        <ele>257.2021781998</ele>
        <time>2017-04-29T16:43:11Z</time>
      </trkpt>
      <trkpt lat="50.33893" lon="5.15089">
        <ele>254.49440819048</ele>
        <time>2017-04-29T16:43:16Z</time>
      </trkpt>
      <trkpt lat="50.33881" lon="5.15062">
        <ele>250.74456018068</ele>
        <time>2017-04-29T16:43:20Z</time>
      </trkpt>
      <trkpt lat="50.33865" lon="5.15032">
        <ele>249.9347343874</ele>
        <time>2017-04-29T16:43:24Z</time>
      </trkpt>
      <trkpt lat="50.33842" lon="5.14994">
        <ele>248.60388079238</ele>
        <time>2017-04-29T16:43:29Z</time>
      </trkpt>
      <trkpt lat="50.33818" lon="5.14961">
        <ele>247.89667096401</ele>
        <time>2017-04-29T16:43:34Z</time>
      </trkpt>
      <trkpt lat="50.33798" lon="5.14938">
        <ele>245.87060674221</ele>
        <time>2017-04-29T16:43:38Z</time>
      </trkpt>
      <trkpt lat="50.33781" lon="5.1492">
        <ele>245.69644470675</ele>
        <time>2017-04-29T16:43:43Z</time>
      </trkpt>
      <trkpt lat="50.33768" lon="5.14907">
        <ele>247.64452692688</ele>
        <time>2017-04-29T16:43:47Z</time>
      </trkpt>
      <trkpt lat="50.33752" lon="5.14886">
        <ele>245.9160359004</ele>
        <time>2017-04-29T16:43:51Z</time>
      </trkpt>
      <trkpt lat="50.33736" lon="5.1486">
        <ele>244.80618192398</ele>
        <time>2017-04-29T16:43:55Z</time>
      </trkpt>
      <trkpt lat="50.33721" lon="5.14831">
        <ele>244.19339731337</ele>
        <time>2017-04-29T16:43:59Z</time>
      </trkpt>
      <trkpt lat="50.33698" lon="5.14789">
        <ele>244.96197626875</ele>
        <time>2017-04-29T16:44:04Z</time>
      </trkpt>
      <trkpt lat="50.33679" lon="5.14745">
        <ele>243.4053435838</ele>
        <time>2017-04-29T16:44:09Z</time>
      </trkpt>
      <trkpt lat="50.3366" lon="5.14699">
        <ele>241.63849488417</ele>
        <time>2017-04-29T16:44:14Z</time>
      </trkpt>
      <trkpt lat="50.33642" lon="5.14663">
        <ele>243.86105258781</ele>
        <time>2017-04-29T16:44:18Z</time>
      </trkpt>
      <trkpt lat="50.33628" lon="5.14628">
        <ele>241.81648669347</ele>
        <time>2017-04-29T16:44:22Z</time>
      </trkpt>
      <trkpt lat="50.33611" lon="5.14603">
        <ele>241.48886279991</ele>
        <time>2017-04-29T16:44:26Z</time>
      </trkpt>
      <trkpt lat="50.33592" lon="5.14576">
        <ele>242.3547796889</ele>
        <time>2017-04-29T16:44:30Z</time>
      </trkpt>
      <trkpt lat="50.33575" lon="5.14546">
        <ele>246.51497913415</ele>
        <time>2017-04-29T16:44:34Z</time>
      </trkpt>
      <trkpt lat="50.33561" lon="5.14516">
        <ele>248.40823766857</ele>
        <time>2017-04-29T16:44:38Z</time>
      </trkpt>
      <trkpt lat="50.33543" lon="5.14486">
        <ele>246.8676246541</ele>
        <time>2017-04-29T16:44:42Z</time>
      </trkpt>
      <trkpt lat="50.33525" lon="5.14458">
        <ele>244.51237461309</ele>
        <time>2017-04-29T16:44:46Z</time>
      </trkpt>
      <trkpt lat="50.33511" lon="5.14427">
        <ele>246.13003861617</ele>
        <time>2017-04-29T16:44:50Z</time>
      </trkpt>
      <trkpt lat="50.33491" lon="5.14388">
        <ele>244.98601702076</ele>
        <time>2017-04-29T16:44:55Z</time>
      </trkpt>
      <trkpt lat="50.33475" lon="5.1436">
        <ele>237.66126841414</ele>
        <time>2017-04-29T16:44:59Z</time>
      </trkpt>
      <trkpt lat="50.33457" lon="5.14338">
        <ele>238.17367324507</ele>
        <time>2017-04-29T16:45:03Z</time>
      </trkpt>
      <trkpt lat="50.33433" lon="5.14312">
        <ele>238.33288100675</ele>
        <time>2017-04-29T16:45:08Z</time>
      </trkpt>
      <trkpt lat="50.33408" lon="5.14289">
        <ele>234.83213704181</ele>
        <time>2017-04-29T16:45:13Z</time>
      </trkpt>
      <trkpt lat="50.33392" lon="5.14267">
        <ele>236.14781899262</ele>
        <time>2017-04-29T16:45:17Z</time>
      </trkpt>
      <trkpt lat="50.33376" lon="5.14244">
        <ele>238.73816623929</ele>
        <time>2017-04-29T16:45:21Z</time>
      </trkpt>
      <trkpt lat="50.33361" lon="5.14219">
        <ele>238.89898291758</ele>
        <time>2017-04-29T16:45:25Z</time>
      </trkpt>
      <trkpt lat="50.33345" lon="5.14188">
        <ele>238.64107625558</ele>
        <time>2017-04-29T16:45:29Z</time>
      </trkpt>
      <trkpt lat="50.33335" lon="5.1416">
        <ele>237.47790170786</ele>
        <time>2017-04-29T16:45:33Z</time>
      </trkpt>
      <trkpt lat="50.33319" lon="5.14132">
        <ele>238.84087830124</ele>
        <time>2017-04-29T16:45:38Z</time>
      </trkpt>
      <trkpt lat="50.33302" lon="5.14115">
        <ele>244.35941005696</ele>
        <time>2017-04-29T16:45:42Z</time>
      </trkpt>
      <trkpt lat="50.33281" lon="5.14093">
        <ele>249.54054782917</ele>
        <time>2017-04-29T16:45:47Z</time>
      </trkpt>
      <trkpt lat="50.33258" lon="5.14068">
        <ele>255.48213202511</ele>
        <time>2017-04-29T16:45:52Z</time>
      </trkpt>
      <trkpt lat="50.33237" lon="5.14039">
        <ele>257.53096457282</ele>
        <time>2017-04-29T16:45:56Z</time>
      </trkpt>
      <trkpt lat="50.3322" lon="5.14012">
        <ele>253.72384080302</ele>
        <time>2017-04-29T16:46:00Z</time>
      </trkpt>
      <trkpt lat="50.33198" lon="5.13981">
        <ele>244.24144917676</ele>
        <time>2017-04-29T16:46:05Z</time>
      </trkpt>
      <trkpt lat="50.33182" lon="5.13954">
        <ele>241.06061438426</ele>
        <time>2017-04-29T16:46:09Z</time>
      </trkpt>
      <trkpt lat="50.33163" lon="5.13922">
        <ele>240.48782384063</ele>
        <time>2017-04-29T16:46:14Z</time>
      </trkpt>
      <trkpt lat="50.3314" lon="5.13894">
        <ele>247.06532415194</ele>
        <time>2017-04-29T16:46:19Z</time>
      </trkpt>
      <trkpt lat="50.33123" lon="5.13869">
        <ele>247.2308303091</ele>
        <time>2017-04-29T16:46:23Z</time>
      </trkpt>
      <trkpt lat="50.33102" lon="5.13832">
        <ele>247.04903664535</ele>
        <time>2017-04-29T16:46:28Z</time>
      </trkpt>
      <trkpt lat="50.3309" lon="5.13797">
        <ele>242.0146637791</ele>
        <time>2017-04-29T16:46:32Z</time>
      </trkpt>
      <trkpt lat="50.3308" lon="5.13769">
        <ele>234.62164053679</ele>
        <time>2017-04-29T16:46:36Z</time>
      </trkpt>
      <trkpt lat="50.33069" lon="5.13736">
        <ele>232.1517595376</ele>
        <time>2017-04-29T16:46:40Z</time>
      </trkpt>
      <trkpt lat="50.33056" lon="5.13693">
        <ele>229.87398241298</ele>
        <time>2017-04-29T16:46:45Z</time>
      </trkpt>
      <trkpt lat="50.33048" lon="5.13668">
        <ele>227.14530611399</ele>
        <time>2017-04-29T16:46:49Z</time>
      </trkpt>
      <trkpt lat="50.33033" lon="5.13643">
        <ele>228.55765499202</ele>
        <time>2017-04-29T16:46:53Z</time>
      </trkpt>
      <trkpt lat="50.33021" lon="5.13603">
        <ele>236.43683213421</ele>
        <time>2017-04-29T16:46:57Z</time>
      </trkpt>
      <trkpt lat="50.33013" lon="5.13574">
        <ele>238.39504481998</ele>
        <time>2017-04-29T16:47:02Z</time>
      </trkpt>
      <trkpt lat="50.33003" lon="5.13549">
        <ele>238.65985966866</ele>
        <time>2017-04-29T16:47:06Z</time>
      </trkpt>
      <trkpt lat="50.32993" lon="5.13525">
        <ele>240.61349135821</ele>
        <time>2017-04-29T16:47:10Z</time>
      </trkpt>
      <trkpt lat="50.32978" lon="5.13493">
        <ele>239.09815472614</ele>
        <time>2017-04-29T16:47:15Z</time>
      </trkpt>
      <trkpt lat="50.32969" lon="5.13469">
        <ele>237.45525329379</ele>
        <time>2017-04-29T16:47:19Z</time>
      </trkpt>
      <trkpt lat="50.32959" lon="5.13415">
        <ele>240.41792864676</ele>
        <time>2017-04-29T16:47:24Z</time>
      </trkpt>
      <trkpt lat="50.3295" lon="5.13372">
        <ele>244.48761689245</ele>
        <time>2017-04-29T16:47:29Z</time>
      </trkpt>
      <trkpt lat="50.32945" lon="5.13344">
        <ele>244.48584997719</ele>
        <time>2017-04-29T16:47:33Z</time>
      </trkpt>
      <trkpt lat="50.32937" lon="5.13307">
        <ele>246.63715241707</ele>
        <time>2017-04-29T16:47:38Z</time>
      </trkpt>
      <trkpt lat="50.32931" lon="5.13276">
        <ele>247.02624204715</ele>
        <time>2017-04-29T16:47:42Z</time>
      </trkpt>
      <trkpt lat="50.32925" lon="5.13247">
        <ele>243.96578579093</ele>
        <time>2017-04-29T16:47:46Z</time>
      </trkpt>
      <trkpt lat="50.32914" lon="5.13217">
        <ele>239.10403323267</ele>
        <time>2017-04-29T16:47:50Z</time>
      </trkpt>
      <trkpt lat="50.32902" lon="5.13181">
        <ele>235.36945322</ele>
        <time>2017-04-29T16:47:55Z</time>
      </trkpt>
      <trkpt lat="50.32888" lon="5.13155">
        <ele>234.35709893172</ele>
        <time>2017-04-29T16:47:59Z</time>
      </trkpt>
      <trkpt lat="50.32872" lon="5.13141">
        <ele>228.40469580551</ele>
        <time>2017-04-29T16:48:03Z</time>
      </trkpt>
      <trkpt lat="50.32849" lon="5.13121">
        <ele>228.52722831874</ele>
        <time>2017-04-29T16:48:08Z</time>
      </trkpt>
      <trkpt lat="50.32832" lon="5.13108">
        <ele>228.31792730702</ele>
        <time>2017-04-29T16:48:12Z</time>
      </trkpt>
      <trkpt lat="50.3282" lon="5.13087">
        <ele>226.43211963767</ele>
        <time>2017-04-29T16:48:16Z</time>
      </trkpt>
      <trkpt lat="50.32807" lon="5.13069">
        <ele>228.44967335878</ele>
        <time>2017-04-29T16:48:20Z</time>
      </trkpt>
      <trkpt lat="50.32793" lon="5.13045">
        <ele>229.28270039375</ele>
        <time>2017-04-29T16:48:24Z</time>
      </trkpt>
      <trkpt lat="50.32783" lon="5.13022">
        <ele>229.27179191503</ele>
        <time>2017-04-29T16:48:29Z</time>
      </trkpt>
      <trkpt lat="50.3277" lon="5.12999">
        <ele>233.05387392182</ele>
        <time>2017-04-29T16:48:34Z</time>
      </trkpt>
      <trkpt lat="50.32758" lon="5.12973">
        <ele>237.10689086664</ele>
        <time>2017-04-29T16:48:38Z</time>
      </trkpt>
      <trkpt lat="50.32744" lon="5.12951">
        <ele>242.90244381776</ele>
        <time>2017-04-29T16:48:42Z</time>
      </trkpt>
      <trkpt lat="50.32727" lon="5.12924">
        <ele>249.24641137352</ele>
        <time>2017-04-29T16:48:47Z</time>
      </trkpt>
      <trkpt lat="50.32715" lon="5.12898">
        <ele>252.20536663919</ele>
        <time>2017-04-29T16:48:51Z</time>
      </trkpt>
      <trkpt lat="50.32699" lon="5.12877">
        <ele>248.38662150243</ele>
        <time>2017-04-29T16:48:55Z</time>
      </trkpt>
      <trkpt lat="50.32682" lon="5.12852">
        <ele>241.86347071973</ele>
        <time>2017-04-29T16:48:59Z</time>
      </trkpt>
      <trkpt lat="50.32675" lon="5.12839">
        <ele>240.15385441537</ele>
        <time>2017-04-29T16:49:03Z</time>
      </trkpt>
      <trkpt lat="50.32652" lon="5.12811">
        <ele>238.04263402899</ele>
        <time>2017-04-29T16:49:07Z</time>
      </trkpt>
      <trkpt lat="50.3263" lon="5.12789">
        <ele>231.41682451329</ele>
        <time>2017-04-29T16:49:12Z</time>
      </trkpt>
      <trkpt lat="50.32616" lon="5.12772">
        <ele>228.25433453715</ele>
        <time>2017-04-29T16:49:16Z</time>
      </trkpt>
      <trkpt lat="50.32605" lon="5.12759">
        <ele>227.36914419313</ele>
        <time>2017-04-29T16:49:20Z</time>
      </trkpt>
      <trkpt lat="50.32594" lon="5.12746">
        <ele>229.06368468153</ele>
        <time>2017-04-29T16:49:25Z</time>
      </trkpt>
      <trkpt lat="50.32571" lon="5.12714">
        <ele>226.91772041445</ele>
        <time>2017-04-29T16:49:30Z</time>
      </trkpt>
      <trkpt lat="50.32556" lon="5.12699">
        <ele>223.83609788739</ele>
        <time>2017-04-29T16:49:34Z</time>
      </trkpt>
      <trkpt lat="50.32536" lon="5.12668">
        <ele>226.84219488878</ele>
        <time>2017-04-29T16:49:39Z</time>
      </trkpt>
      <trkpt lat="50.3252" lon="5.12641">
        <ele>226.07134636665</ele>
        <time>2017-04-29T16:49:44Z</time>
      </trkpt>
      <trkpt lat="50.32508" lon="5.12617">
        <ele>227.0424353688</ele>
        <time>2017-04-29T16:49:48Z</time>
      </trkpt>
      <trkpt lat="50.32496" lon="5.12577">
        <ele>230.3974344202</ele>
        <time>2017-04-29T16:49:53Z</time>
      </trkpt>
      <trkpt lat="50.32483" lon="5.12551">
        <ele>230.64381195552</ele>
        <time>2017-04-29T16:49:57Z</time>
      </trkpt>
      <trkpt lat="50.32462" lon="5.12515">
        <ele>226.94536768774</ele>
        <time>2017-04-29T16:50:02Z</time>
      </trkpt>
      <trkpt lat="50.32452" lon="5.12496">
        <ele>229.44795111891</ele>
        <time>2017-04-29T16:50:06Z</time>
      </trkpt>
      <trkpt lat="50.32441" lon="5.12462">
        <ele>236.74663489109</ele>
        <time>2017-04-29T16:50:11Z</time>
      </trkpt>
      <trkpt lat="50.32432" lon="5.12437">
        <ele>239.44346612786</ele>
        <time>2017-04-29T16:50:15Z</time>
      </trkpt>
      <trkpt lat="50.32424" lon="5.12407">
        <ele>239.84880372981</ele>
        <time>2017-04-29T16:50:20Z</time>
      </trkpt>
      <trkpt lat="50.32413" lon="5.12384">
        <ele>242.24953810476</ele>
        <time>2017-04-29T16:50:24Z</time>
      </trkpt>
      <trkpt lat="50.32395" lon="5.12352">
        <ele>246.61249285434</ele>
        <time>2017-04-29T16:50:29Z</time>
      </trkpt>
      <trkpt lat="50.32377" lon="5.12332">
        <ele>247.15752601234</ele>
        <time>2017-04-29T16:50:33Z</time>
      </trkpt>
      <trkpt lat="50.32361" lon="5.12305">
        <ele>244.36863776127</ele>
        <time>2017-04-29T16:50:38Z</time>
      </trkpt>
      <trkpt lat="50.32351" lon="5.12281">
        <ele>242.10190790488</ele>
        <time>2017-04-29T16:50:42Z</time>
      </trkpt>
      <trkpt lat="50.32342" lon="5.1225">
        <ele>240.43163105224</ele>
        <time>2017-04-29T16:50:46Z</time>
      </trkpt>
      <trkpt lat="50.32335" lon="5.12215">
        <ele>237.15399250328</ele>
        <time>2017-04-29T16:50:50Z</time>
      </trkpt>
      <trkpt lat="50.32324" lon="5.12178">
        <ele>234.04876303792</ele>
        <time>2017-04-29T16:50:55Z</time>
      </trkpt>
      <trkpt lat="50.32314" lon="5.12149">
        <ele>234.26360915709</ele>
        <time>2017-04-29T16:50:59Z</time>
      </trkpt>
      <trkpt lat="50.32304" lon="5.12122">
        <ele>236.045902505</ele>
        <time>2017-04-29T16:51:03Z</time>
      </trkpt>
      <trkpt lat="50.32293" lon="5.12088">
        <ele>236.68949711696</ele>
        <time>2017-04-29T16:51:08Z</time>
      </trkpt>
      <trkpt lat="50.32285" lon="5.12066">
        <ele>236.07616147291</ele>
        <time>2017-04-29T16:51:12Z</time>
      </trkpt>
      <trkpt lat="50.32273" lon="5.12035">
        <ele>235.98416689945</ele>
        <time>2017-04-29T16:51:17Z</time>
      </trkpt>
      <trkpt lat="50.32264" lon="5.12002">
        <ele>233.24629070355</ele>
        <time>2017-04-29T16:51:22Z</time>
      </trkpt>
      <trkpt lat="50.32262" lon="5.11996">
        <ele>232.62001820049</ele>
        <time>2017-04-29T16:51:23Z</time>
      </trkpt>
      <trkpt lat="50.3226" lon="5.11939">
        <ele>233.3902689177</ele>
        <time>2017-04-29T16:51:32Z</time>
      </trkpt>
      <trkpt lat="50.3225" lon="5.11909">
        <ele>232.52715480949</ele>
        <time>2017-04-29T16:51:36Z</time>
      </trkpt>
      <trkpt lat="50.32239" lon="5.11884">
        <ele>232.29402607087</ele>
        <time>2017-04-29T16:51:40Z</time>
      </trkpt>
      <trkpt lat="50.3222" lon="5.11857">
        <ele>231.95309308021</ele>
        <time>2017-04-29T16:51:45Z</time>
      </trkpt>
      <trkpt lat="50.32212" lon="5.11833">
        <ele>227.26563400326</ele>
        <time>2017-04-29T16:51:49Z</time>
      </trkpt>
      <trkpt lat="50.32201" lon="5.11801">
        <ele>224.09204901428</ele>
        <time>2017-04-29T16:51:54Z</time>
      </trkpt>
      <trkpt lat="50.32193" lon="5.11777">
        <ele>225.2423819129</ele>
        <time>2017-04-29T16:51:59Z</time>
      </trkpt>
      <trkpt lat="50.32186" lon="5.11744">
        <ele>230.25108535109</ele>
        <time>2017-04-29T16:52:04Z</time>
      </trkpt>
      <trkpt lat="50.32177" lon="5.11716">
        <ele>233.19090992343</ele>
        <time>2017-04-29T16:52:08Z</time>
      </trkpt>
      <trkpt lat="50.32171" lon="5.1169">
        <ele>233.52991724002</ele>
        <time>2017-04-29T16:52:12Z</time>
      </trkpt>
      <trkpt lat="50.32164" lon="5.11668">
        <ele>234.54721656354</ele>
        <time>2017-04-29T16:52:16Z</time>
      </trkpt>
      <trkpt lat="50.32156" lon="5.11644">
        <ele>235.47942006149</ele>
        <time>2017-04-29T16:52:21Z</time>
      </trkpt>
      <trkpt lat="50.32147" lon="5.11615">
        <ele>237.406355514</ele>
        <time>2017-04-29T16:52:26Z</time>
      </trkpt>
      <trkpt lat="50.32137" lon="5.11588">
        <ele>237.99817604051</ele>
        <time>2017-04-29T16:52:31Z</time>
      </trkpt>
      <trkpt lat="50.3213" lon="5.1157">
        <ele>238.91978108713</ele>
        <time>2017-04-29T16:52:35Z</time>
      </trkpt>
      <trkpt lat="50.32123" lon="5.11552">
        <ele>240.77244231777</ele>
        <time>2017-04-29T16:52:40Z</time>
      </trkpt>
      <trkpt lat="50.32117" lon="5.11523">
        <ele>242.59283604368</ele>
        <time>2017-04-29T16:52:45Z</time>
      </trkpt>
      <trkpt lat="50.32111" lon="5.11505">
        <ele>243.27817697502</ele>
        <time>2017-04-29T16:52:49Z</time>
      </trkpt>
      <trkpt lat="50.32104" lon="5.11488">
        <ele>244.23029657422</ele>
        <time>2017-04-29T16:52:53Z</time>
      </trkpt>
      <trkpt lat="50.32095" lon="5.11467">
        <ele>244.39818785575</ele>
        <time>2017-04-29T16:52:57Z</time>
      </trkpt>
      <trkpt lat="50.32087" lon="5.11446">
        <ele>243.69413593841</ele>
        <time>2017-04-29T16:53:01Z</time>
      </trkpt>
      <trkpt lat="50.32076" lon="5.11416">
        <ele>241.03647772925</ele>
        <time>2017-04-29T16:53:06Z</time>
      </trkpt>
      <trkpt lat="50.32066" lon="5.11393">
        <ele>240.57151006068</ele>
        <time>2017-04-29T16:53:11Z</time>
      </trkpt>
      <trkpt lat="50.32057" lon="5.11374">
        <ele>240.37087049612</ele>
        <time>2017-04-29T16:53:15Z</time>
      </trkpt>
      <trkpt lat="50.32051" lon="5.11353">
        <ele>239.44518468696</ele>
        <time>2017-04-29T16:53:19Z</time>
      </trkpt>
      <trkpt lat="50.32041" lon="5.1133">
        <ele>239.1577467825</ele>
        <time>2017-04-29T16:53:24Z</time>
      </trkpt>
      <trkpt lat="50.32032" lon="5.11308">
        <ele>239.17024942917</ele>
        <time>2017-04-29T16:53:28Z</time>
      </trkpt>
      <trkpt lat="50.32022" lon="5.1128">
        <ele>243.50081376932</ele>
        <time>2017-04-29T16:53:33Z</time>
      </trkpt>
      <trkpt lat="50.32013" lon="5.11259">
        <ele>245.78725030779</ele>
        <time>2017-04-29T16:53:37Z</time>
      </trkpt>
      <trkpt lat="50.32002" lon="5.11242">
        <ele>246.25707584262</ele>
        <time>2017-04-29T16:53:42Z</time>
      </trkpt>
      <trkpt lat="50.31994" lon="5.11227">
        <ele>246.88445179354</ele>
        <time>2017-04-29T16:53:46Z</time>
      </trkpt>
      <trkpt lat="50.31984" lon="5.1121">
        <ele>247.95024685231</ele>
        <time>2017-04-29T16:53:50Z</time>
      </trkpt>
      <trkpt lat="50.31976" lon="5.11189">
        <ele>249.14965437677</ele>
        <time>2017-04-29T16:53:54Z</time>
      </trkpt>
      <trkpt lat="50.31965" lon="5.11161">
        <ele>249.67394328246</ele>
        <time>2017-04-29T16:53:58Z</time>
      </trkpt>
      <trkpt lat="50.3196" lon="5.11146">
        <ele>250.10831920133</ele>
        <time>2017-04-29T16:54:02Z</time>
      </trkpt>
      <trkpt lat="50.31953" lon="5.11132">
        <ele>250.39526817882</ele>
        <time>2017-04-29T16:54:06Z</time>
      </trkpt>
      <trkpt lat="50.31946" lon="5.11112">
        <ele>250.84112933653</ele>
        <time>2017-04-29T16:54:10Z</time>
      </trkpt>
      <trkpt lat="50.31937" lon="5.11089">
        <ele>251.42517580251</ele>
        <time>2017-04-29T16:54:15Z</time>
      </trkpt>
      <trkpt lat="50.3193" lon="5.11066">
        <ele>250.83620366746</ele>
        <time>2017-04-29T16:54:19Z</time>
      </trkpt>
      <trkpt lat="50.31927" lon="5.11049">
        <ele>250.6633844509</ele>
        <time>2017-04-29T16:54:23Z</time>
      </trkpt>
      <trkpt lat="50.31919" lon="5.11021">
        <ele>251.1583238636</ele>
        <time>2017-04-29T16:54:28Z</time>
      </trkpt>
      <trkpt lat="50.31905" lon="5.10989">
        <ele>255.5907013042</ele>
        <time>2017-04-29T16:54:32Z</time>
      </trkpt>
      <trkpt lat="50.319" lon="5.10967">
        <ele>251.28402925917</ele>
        <time>2017-04-29T16:54:37Z</time>
      </trkpt>
      <trkpt lat="50.31897" lon="5.10943">
        <ele>251.51052178885</ele>
        <time>2017-04-29T16:54:41Z</time>
      </trkpt>
      <trkpt lat="50.3189" lon="5.10924">
        <ele>254.00292610959</ele>
        <time>2017-04-29T16:54:45Z</time>
      </trkpt>
      <trkpt lat="50.31881" lon="5.109">
        <ele>255.98296202232</ele>
        <time>2017-04-29T16:54:49Z</time>
      </trkpt>
      <trkpt lat="50.31871" lon="5.10875">
        <ele>254.77377603034</ele>
        <time>2017-04-29T16:54:53Z</time>
      </trkpt>
      <trkpt lat="50.31858" lon="5.1085">
        <ele>252.68912726459</ele>
        <time>2017-04-29T16:54:58Z</time>
      </trkpt>
      <trkpt lat="50.31843" lon="5.10821">
        <ele>251.35799003993</ele>
        <time>2017-04-29T16:55:03Z</time>
      </trkpt>
      <trkpt lat="50.31831" lon="5.1079">
        <ele>253.29056869808</ele>
        <time>2017-04-29T16:55:07Z</time>
      </trkpt>
      <trkpt lat="50.3182" lon="5.10766">
        <ele>251.51121662613</ele>
        <time>2017-04-29T16:55:11Z</time>
      </trkpt>
      <trkpt lat="50.31808" lon="5.1074">
        <ele>242.87428459017</ele>
        <time>2017-04-29T16:55:16Z</time>
      </trkpt>
      <trkpt lat="50.318" lon="5.10718">
        <ele>237.81528590722</ele>
        <time>2017-04-29T16:55:20Z</time>
      </trkpt>
      <trkpt lat="50.31789" lon="5.10692">
        <ele>233.40186239273</ele>
        <time>2017-04-29T16:55:24Z</time>
      </trkpt>
      <trkpt lat="50.31776" lon="5.10683">
        <ele>223.13141939918</ele>
        <time>2017-04-29T16:55:29Z</time>
      </trkpt>
      <trkpt lat="50.31766" lon="5.10681">
        <ele>225.64855498106</ele>
        <time>2017-04-29T16:55:33Z</time>
      </trkpt>
      <trkpt lat="50.31757" lon="5.10681">
        <ele>226.46934134483</ele>
        <time>2017-04-29T16:55:38Z</time>
      </trkpt>
      <trkpt lat="50.31743" lon="5.10667">
        <ele>226.62150707455</ele>
        <time>2017-04-29T16:55:43Z</time>
      </trkpt>
      <trkpt lat="50.31729" lon="5.10654">
        <ele>228.01809990401</ele>
        <time>2017-04-29T16:55:47Z</time>
      </trkpt>
      <trkpt lat="50.31713" lon="5.10634">
        <ele>236.37717044541</ele>
        <time>2017-04-29T16:55:52Z</time>
      </trkpt>
      <trkpt lat="50.31692" lon="5.10616">
        <ele>238.6085817285</ele>
        <time>2017-04-29T16:55:57Z</time>
      </trkpt>
      <trkpt lat="50.31679" lon="5.10604">
        <ele>239.1707372775</ele>
        <time>2017-04-29T16:56:01Z</time>
      </trkpt>
      <trkpt lat="50.31667" lon="5.1059">
        <ele>241.74026887519</ele>
        <time>2017-04-29T16:56:05Z</time>
      </trkpt>
      <trkpt lat="50.3165" lon="5.10571">
        <ele>241.82932075461</ele>
        <time>2017-04-29T16:56:10Z</time>
      </trkpt>
      <trkpt lat="50.31635" lon="5.10551">
        <ele>245.77352278751</ele>
        <time>2017-04-29T16:56:14Z</time>
      </trkpt>
      <trkpt lat="50.31618" lon="5.1052">
        <ele>245.41316466651</ele>
        <time>2017-04-29T16:56:19Z</time>
      </trkpt>
      <trkpt lat="50.31608" lon="5.10505">
        <ele>248.36787735538</ele>
        <time>2017-04-29T16:56:23Z</time>
      </trkpt>
      <trkpt lat="50.31598" lon="5.10493">
        <ele>249.17732429751</ele>
        <time>2017-04-29T16:56:27Z</time>
      </trkpt>
      <trkpt lat="50.31584" lon="5.10479">
        <ele>249.76819600968</ele>
        <time>2017-04-29T16:56:32Z</time>
      </trkpt>
      <trkpt lat="50.31575" lon="5.10463">
        <ele>251.51074290583</ele>
        <time>2017-04-29T16:56:36Z</time>
      </trkpt>
      <trkpt lat="50.31561" lon="5.10444">
        <ele>250.91163867217</ele>
        <time>2017-04-29T16:56:40Z</time>
      </trkpt>
      <trkpt lat="50.31543" lon="5.10419">
        <ele>250.13564799247</ele>
        <time>2017-04-29T16:56:45Z</time>
      </trkpt>
      <trkpt lat="50.31526" lon="5.10399">
        <ele>246.9102220038</ele>
        <time>2017-04-29T16:56:50Z</time>
      </trkpt>
      <trkpt lat="50.31512" lon="5.1038">
        <ele>250.08468632494</ele>
        <time>2017-04-29T16:56:54Z</time>
      </trkpt>
      <trkpt lat="50.31495" lon="5.10366">
        <ele>249.71314051234</ele>
        <time>2017-04-29T16:56:59Z</time>
      </trkpt>
      <trkpt lat="50.31478" lon="5.10341">
        <ele>249.58656299126</ele>
        <time>2017-04-29T16:57:04Z</time>
      </trkpt>
      <trkpt lat="50.31458" lon="5.10311">
        <ele>248.93246823291</ele>
        <time>2017-04-29T16:57:09Z</time>
      </trkpt>
      <trkpt lat="50.3144" lon="5.10287">
        <ele>248.9895204323</ele>
        <time>2017-04-29T16:57:13Z</time>
      </trkpt>
      <trkpt lat="50.31421" lon="5.10263">
        <ele>248.57682964054</ele>
        <time>2017-04-29T16:57:18Z</time>
      </trkpt>
      <trkpt lat="50.31406" lon="5.10243">
        <ele>251.3511917669</ele>
        <time>2017-04-29T16:57:22Z</time>
      </trkpt>
      <trkpt lat="50.31393" lon="5.10226">
        <ele>249.21040595359</ele>
        <time>2017-04-29T16:57:26Z</time>
      </trkpt>
      <trkpt lat="50.3138" lon="5.10201">
        <ele>249.75611927216</ele>
        <time>2017-04-29T16:57:31Z</time>
      </trkpt>
      <trkpt lat="50.31363" lon="5.10173">
        <ele>251.12573548665</ele>
        <time>2017-04-29T16:57:36Z</time>
      </trkpt>
      <trkpt lat="50.31349" lon="5.10152">
        <ele>251.30722715596</ele>
        <time>2017-04-29T16:57:40Z</time>
      </trkpt>
      <trkpt lat="50.31335" lon="5.10122">
        <ele>248.74970397536</ele>
        <time>2017-04-29T16:57:45Z</time>
      </trkpt>
      <trkpt lat="50.31324" lon="5.10097">
        <ele>249.98455887843</ele>
        <time>2017-04-29T16:57:49Z</time>
      </trkpt>
      <trkpt lat="50.31316" lon="5.10075">
        <ele>251.55226453318</ele>
        <time>2017-04-29T16:57:53Z</time>
      </trkpt>
      <trkpt lat="50.31307" lon="5.10044">
        <ele>253.0811100546</ele>
        <time>2017-04-29T16:57:58Z</time>
      </trkpt>
      <trkpt lat="50.31299" lon="5.10022">
        <ele>253.89126635329</ele>
        <time>2017-04-29T16:58:02Z</time>
      </trkpt>
      <trkpt lat="50.31292" lon="5.09998">
        <ele>252.90900486139</ele>
        <time>2017-04-29T16:58:06Z</time>
      </trkpt>
      <trkpt lat="50.31287" lon="5.09976">
        <ele>246.93482762388</ele>
        <time>2017-04-29T16:58:10Z</time>
      </trkpt>
      <trkpt lat="50.3128" lon="5.09946">
        <ele>246.41024146242</ele>
        <time>2017-04-29T16:58:14Z</time>
      </trkpt>
      <trkpt lat="50.31273" lon="5.09923">
        <ele>245.75561235509</ele>
        <time>2017-04-29T16:58:19Z</time>
      </trkpt>
      <trkpt lat="50.31267" lon="5.09901">
        <ele>246.13730458193</ele>
        <time>2017-04-29T16:58:23Z</time>
      </trkpt>
      <trkpt lat="50.31261" lon="5.09882">
        <ele>246.10586466949</ele>
        <time>2017-04-29T16:58:27Z</time>
      </trkpt>
      <trkpt lat="50.31256" lon="5.09871">
        <ele>245.61496018138</ele>
        <time>2017-04-29T16:58:31Z</time>
      </trkpt>
      <trkpt lat="50.31249" lon="5.09864">
        <ele>245.64020053814</ele>
        <time>2017-04-29T16:58:36Z</time>
      </trkpt>
      <trkpt lat="50.31242" lon="5.09859">
        <ele>245.5659781917</ele>
        <time>2017-04-29T16:58:50Z</time>
      </trkpt>
      <trkpt lat="50.31239" lon="5.09847">
        <ele>246.65556890747</ele>
        <time>2017-04-29T16:58:56Z</time>
      </trkpt>
      <trkpt lat="50.31229" lon="5.0985">
        <ele>248.57204772116</ele>
        <time>2017-04-29T16:59:01Z</time>
      </trkpt>
      <trkpt lat="50.31216" lon="5.09849">
        <ele>251.48723370928</ele>
        <time>2017-04-29T16:59:06Z</time>
      </trkpt>
      <trkpt lat="50.31204" lon="5.09846">
        <ele>251.35751966908</ele>
        <time>2017-04-29T16:59:10Z</time>
      </trkpt>
      <trkpt lat="50.31187" lon="5.09838">
        <ele>252.36495237618</ele>
        <time>2017-04-29T16:59:14Z</time>
      </trkpt>
      <trkpt lat="50.31163" lon="5.09826">
        <ele>256.54790546416</ele>
        <time>2017-04-29T16:59:19Z</time>
      </trkpt>
      <trkpt lat="50.31148" lon="5.09817">
        <ele>256.87070558436</ele>
        <time>2017-04-29T16:59:23Z</time>
      </trkpt>
      <trkpt lat="50.3113" lon="5.09809">
        <ele>256.66005813749</ele>
        <time>2017-04-29T16:59:27Z</time>
      </trkpt>
      <trkpt lat="50.3111" lon="5.09797">
        <ele>254.09186582262</ele>
        <time>2017-04-29T16:59:31Z</time>
      </trkpt>
      <trkpt lat="50.31097" lon="5.09789">
        <ele>250.45195733782</ele>
        <time>2017-04-29T16:59:35Z</time>
      </trkpt>
      <trkpt lat="50.31076" lon="5.09779">
        <ele>248.66404080277</ele>
        <time>2017-04-29T16:59:40Z</time>
      </trkpt>
      <trkpt lat="50.31056" lon="5.09763">
        <ele>246.7131927549</ele>
        <time>2017-04-29T16:59:45Z</time>
      </trkpt>
      <trkpt lat="50.31037" lon="5.09752">
        <ele>244.78579264209</ele>
        <time>2017-04-29T16:59:50Z</time>
      </trkpt>
      <trkpt lat="50.31011" lon="5.09741">
        <ele>247.14503817367</ele>
        <time>2017-04-29T16:59:55Z</time>
      </trkpt>
      <trkpt lat="50.30993" lon="5.09732">
        <ele>248.00642443995</ele>
        <time>2017-04-29T16:59:59Z</time>
      </trkpt>
      <trkpt lat="50.30972" lon="5.09725">
        <ele>251.56557253775</ele>
        <time>2017-04-29T17:00:04Z</time>
      </trkpt>
      <trkpt lat="50.30952" lon="5.09719">
        <ele>252.68523776691</ele>
        <time>2017-04-29T17:00:09Z</time>
      </trkpt>
      <trkpt lat="50.30935" lon="5.09714">
        <ele>251.20939273838</ele>
        <time>2017-04-29T17:00:13Z</time>
      </trkpt>
      <trkpt lat="50.30917" lon="5.09709">
        <ele>250.12650232281</ele>
        <time>2017-04-29T17:00:17Z</time>
      </trkpt>
      <trkpt lat="50.30901" lon="5.09706">
        <ele>251.51848883792</ele>
        <time>2017-04-29T17:00:21Z</time>
      </trkpt>
      <trkpt lat="50.30879" lon="5.09696">
        <ele>253.16501462536</ele>
        <time>2017-04-29T17:00:26Z</time>
      </trkpt>
      <trkpt lat="50.30859" lon="5.09691">
        <ele>249.39700839936</ele>
        <time>2017-04-29T17:00:31Z</time>
      </trkpt>
      <trkpt lat="50.30834" lon="5.09684">
        <ele>250.61092397147</ele>
        <time>2017-04-29T17:00:36Z</time>
      </trkpt>
      <trkpt lat="50.30817" lon="5.09675">
        <ele>253.7647746923</ele>
        <time>2017-04-29T17:00:40Z</time>
      </trkpt>
      <trkpt lat="50.308" lon="5.09675">
        <ele>250.39657257718</ele>
        <time>2017-04-29T17:00:44Z</time>
      </trkpt>
      <trkpt lat="50.30776" lon="5.09675">
        <ele>251.54749046267</ele>
        <time>2017-04-29T17:00:49Z</time>
      </trkpt>
      <trkpt lat="50.3076" lon="5.09679">
        <ele>252.18629506704</ele>
        <time>2017-04-29T17:00:53Z</time>
      </trkpt>
      <trkpt lat="50.30744" lon="5.09688">
        <ele>250.711153415</ele>
        <time>2017-04-29T17:00:57Z</time>
      </trkpt>
      <trkpt lat="50.30724" lon="5.09701">
        <ele>250.40437289387</ele>
        <time>2017-04-29T17:01:02Z</time>
      </trkpt>
      <trkpt lat="50.30699" lon="5.09718">
        <ele>255.0552050681</ele>
        <time>2017-04-29T17:01:07Z</time>
      </trkpt>
      <trkpt lat="50.30674" lon="5.09735">
        <ele>255.50120473101</ele>
        <time>2017-04-29T17:01:11Z</time>
      </trkpt>
      <trkpt lat="50.30646" lon="5.09749">
        <ele>248.45611635427</ele>
        <time>2017-04-29T17:01:15Z</time>
      </trkpt>
      <trkpt lat="50.30608" lon="5.09769">
        <ele>244.90468091092</ele>
        <time>2017-04-29T17:01:20Z</time>
      </trkpt>
      <trkpt lat="50.30565" lon="5.09796">
        <ele>245.05002152383</ele>
        <time>2017-04-29T17:01:25Z</time>
      </trkpt>
      <trkpt lat="50.30524" lon="5.09823">
        <ele>242.5282633068</ele>
        <time>2017-04-29T17:01:29Z</time>
      </trkpt>
      <trkpt lat="50.30472" lon="5.09859">
        <ele>244.59635439603</ele>
        <time>2017-04-29T17:01:34Z</time>
      </trkpt>
      <trkpt lat="50.30424" lon="5.09887">
        <ele>243.20028397388</ele>
        <time>2017-04-29T17:01:39Z</time>
      </trkpt>
      <trkpt lat="50.3038" lon="5.09911">
        <ele>239.67414058555</ele>
        <time>2017-04-29T17:01:44Z</time>
      </trkpt>
      <trkpt lat="50.30344" lon="5.09931">
        <ele>234.68545885815</ele>
        <time>2017-04-29T17:01:49Z</time>
      </trkpt>
      <trkpt lat="50.30324" lon="5.09942">
        <ele>235.94932789621</ele>
        <time>2017-04-29T17:01:53Z</time>
      </trkpt>
      <trkpt lat="50.30304" lon="5.09949">
        <ele>236.7226019503</ele>
        <time>2017-04-29T17:01:57Z</time>
      </trkpt>
      <trkpt lat="50.30284" lon="5.0996">
        <ele>239.30177757747</ele>
        <time>2017-04-29T17:02:01Z</time>
      </trkpt>
      <trkpt lat="50.3026" lon="5.09975">
        <ele>239.86131245967</ele>
        <time>2017-04-29T17:02:06Z</time>
      </trkpt>
      <trkpt lat="50.30243" lon="5.09975">
        <ele>243.54171499868</ele>
        <time>2017-04-29T17:02:10Z</time>
      </trkpt>
      <trkpt lat="50.3023" lon="5.09972">
        <ele>243.74083648102</ele>
        <time>2017-04-29T17:02:14Z</time>
      </trkpt>
      <trkpt lat="50.30216" lon="5.09987">
        <ele>243.05693960414</ele>
        <time>2017-04-29T17:02:19Z</time>
      </trkpt>
      <trkpt lat="50.30207" lon="5.10003">
        <ele>241.75692348376</ele>
        <time>2017-04-29T17:02:23Z</time>
      </trkpt>
      <trkpt lat="50.3019" lon="5.1002">
        <ele>239.08459377243</ele>
        <time>2017-04-29T17:02:28Z</time>
      </trkpt>
      <trkpt lat="50.30171" lon="5.10033">
        <ele>239.6520910472</ele>
        <time>2017-04-29T17:02:33Z</time>
      </trkpt>
      <trkpt lat="50.30159" lon="5.10041">
        <ele>239.70132812844</ele>
        <time>2017-04-29T17:02:37Z</time>
      </trkpt>
      <trkpt lat="50.30142" lon="5.10052">
        <ele>238.75677399694</ele>
        <time>2017-04-29T17:02:42Z</time>
      </trkpt>
      <trkpt lat="50.30128" lon="5.10061">
        <ele>238.66043289875</ele>
        <time>2017-04-29T17:02:46Z</time>
      </trkpt>
      <trkpt lat="50.30113" lon="5.1007">
        <ele>239.15341295055</ele>
        <time>2017-04-29T17:02:51Z</time>
      </trkpt>
      <trkpt lat="50.30105" lon="5.10075">
        <ele>239.54132141754</ele>
        <time>2017-04-29T17:02:55Z</time>
      </trkpt>
      <trkpt lat="50.30094" lon="5.10079">
        <ele>240.01653791593</ele>
        <time>2017-04-29T17:03:00Z</time>
      </trkpt>
      <trkpt lat="50.30088" lon="5.10084">
        <ele>240.06999203905</ele>
        <time>2017-04-29T17:03:05Z</time>
      </trkpt>
      <trkpt lat="50.30079" lon="5.10093">
        <ele>239.61347451663</ele>
        <time>2017-04-29T17:03:09Z</time>
      </trkpt>
      <trkpt lat="50.30071" lon="5.10097">
        <ele>238.94785547216</ele>
        <time>2017-04-29T17:03:14Z</time>
      </trkpt>
      <trkpt lat="50.30062" lon="5.10097">
        <ele>238.54075446556</ele>
        <time>2017-04-29T17:03:19Z</time>
      </trkpt>
      <trkpt lat="50.30055" lon="5.10096">
        <ele>238.49598555487</ele>
        <time>2017-04-29T17:03:24Z</time>
      </trkpt>
      <trkpt lat="50.30049" lon="5.10093">
        <ele>238.96763851822</ele>
        <time>2017-04-29T17:03:28Z</time>
      </trkpt>
      <trkpt lat="50.30043" lon="5.10083">
        <ele>240.17065491133</ele>
        <time>2017-04-29T17:03:34Z</time>
      </trkpt>
      <trkpt lat="50.30038" lon="5.10072">
        <ele>241.79687804824</ele>
        <time>2017-04-29T17:03:41Z</time>
      </trkpt>
      <trkpt lat="50.30037" lon="5.10069">
        <ele>243.77023372924</ele>
        <time>2017-04-29T17:03:49Z</time>
      </trkpt>
      <trkpt lat="50.30032" lon="5.10055">
        <ele>244.49930593127</ele>
        <time>2017-04-29T17:03:53Z</time>
      </trkpt>
      <trkpt lat="50.3003" lon="5.10043">
        <ele>245.75500941084</ele>
        <time>2017-04-29T17:04:02Z</time>
      </trkpt>
      <trkpt lat="50.30026" lon="5.10027">
        <ele>245.98763038282</ele>
        <time>2017-04-29T17:04:06Z</time>
      </trkpt>
      <trkpt lat="50.30023" lon="5.10016">
        <ele>245.83998212794</ele>
        <time>2017-04-29T17:04:13Z</time>
      </trkpt>
      <trkpt lat="50.30017" lon="5.10006">
        <ele>245.68570696917</ele>
        <time>2017-04-29T17:04:19Z</time>
      </trkpt>
      <trkpt lat="50.30013" lon="5.09999">
        <ele>245.6585434321</ele>
        <time>2017-04-29T17:04:26Z</time>
      </trkpt>
      <trkpt lat="50.30008" lon="5.09988">
        <ele>245.76940065695</ele>
        <time>2017-04-29T17:04:33Z</time>
      </trkpt>
      <trkpt lat="50.30001" lon="5.09976">
        <ele>245.94801496891</ele>
        <time>2017-04-29T17:04:37Z</time>
      </trkpt>
      <trkpt lat="50.29995" lon="5.09971">
        <ele>247.59827603549</ele>
        <time>2017-04-29T17:04:48Z</time>
      </trkpt>
      <trkpt lat="50.2999" lon="5.0997">
        <ele>248.98103268168</ele>
        <time>2017-04-29T17:04:55Z</time>
      </trkpt>
      <trkpt lat="50.29985" lon="5.09967">
        <ele>250.111562137</ele>
        <time>2017-04-29T17:05:01Z</time>
      </trkpt>
      <trkpt lat="50.29974" lon="5.09974">
        <ele>252.12543128985</ele>
        <time>2017-04-29T17:05:05Z</time>
      </trkpt>
      <trkpt lat="50.29966" lon="5.09977">
        <ele>252.57794696324</ele>
        <time>2017-04-29T17:05:09Z</time>
      </trkpt>
      <trkpt lat="50.29956" lon="5.09982">
        <ele>253.09624303751</ele>
        <time>2017-04-29T17:05:13Z</time>
      </trkpt>
      <trkpt lat="50.29945" lon="5.09986">
        <ele>253.06961641772</ele>
        <time>2017-04-29T17:05:17Z</time>
      </trkpt>
      <trkpt lat="50.29938" lon="5.09988">
        <ele>252.83419879155</ele>
        <time>2017-04-29T17:05:21Z</time>
      </trkpt>
      <trkpt lat="50.29923" lon="5.09999">
        <ele>252.73768151183</ele>
        <time>2017-04-29T17:05:25Z</time>
      </trkpt>
      <trkpt lat="50.29908" lon="5.10015">
        <ele>252.71301172948</ele>
        <time>2017-04-29T17:05:30Z</time>
      </trkpt>
      <trkpt lat="50.29895" lon="5.10024">
        <ele>252.4538016547</ele>
        <time>2017-04-29T17:05:34Z</time>
      </trkpt>
      <trkpt lat="50.29886" lon="5.10016">
        <ele>251.75551168724</ele>
        <time>2017-04-29T17:05:38Z</time>
      </trkpt>
      <trkpt lat="50.29874" lon="5.1">
        <ele>251.83641056734</ele>
        <time>2017-04-29T17:05:43Z</time>
      </trkpt>
      <trkpt lat="50.29869" lon="5.09987">
        <ele>252.27835521297</ele>
        <time>2017-04-29T17:05:47Z</time>
      </trkpt>
      <trkpt lat="50.2986" lon="5.0997">
        <ele>253.43064666757</ele>
        <time>2017-04-29T17:05:52Z</time>
      </trkpt>
      <trkpt lat="50.2985" lon="5.09951">
        <ele>254.09112946761</ele>
        <time>2017-04-29T17:05:56Z</time>
      </trkpt>
      <trkpt lat="50.29841" lon="5.09936">
        <ele>254.39002184258</ele>
        <time>2017-04-29T17:06:01Z</time>
      </trkpt>
      <trkpt lat="50.29833" lon="5.09938">
        <ele>254.63951525158</ele>
        <time>2017-04-29T17:06:07Z</time>
      </trkpt>
      <trkpt lat="50.29824" lon="5.09947">
        <ele>254.93200378177</ele>
        <time>2017-04-29T17:06:11Z</time>
      </trkpt>
      <trkpt lat="50.29812" lon="5.09953">
        <ele>255.10915934494</ele>
        <time>2017-04-29T17:06:15Z</time>
      </trkpt>
      <trkpt lat="50.29802" lon="5.09961">
        <ele>255.26079093893</ele>
        <time>2017-04-29T17:06:19Z</time>
      </trkpt>
      <trkpt lat="50.29796" lon="5.09971">
        <ele>256.04887103495</ele>
        <time>2017-04-29T17:06:24Z</time>
      </trkpt>
      <trkpt lat="50.29789" lon="5.09974">
        <ele>256.09576505251</ele>
        <time>2017-04-29T17:06:29Z</time>
      </trkpt>
      <trkpt lat="50.29782" lon="5.09977">
        <ele>255.99487155906</ele>
        <time>2017-04-29T17:06:34Z</time>
      </trkpt>
      <trkpt lat="50.29768" lon="5.09984">
        <ele>255.52189215049</ele>
        <time>2017-04-29T17:06:38Z</time>
      </trkpt>
      <trkpt lat="50.29761" lon="5.09991">
        <ele>254.60525514358</ele>
        <time>2017-04-29T17:06:42Z</time>
      </trkpt>
      <trkpt lat="50.29752" lon="5.10001">
        <ele>254.7548006055</ele>
        <time>2017-04-29T17:06:47Z</time>
      </trkpt>
      <trkpt lat="50.29738" lon="5.09996">
        <ele>255.290570762</ele>
        <time>2017-04-29T17:06:52Z</time>
      </trkpt>
      <trkpt lat="50.29732" lon="5.0999">
        <ele>255.89644608876</ele>
        <time>2017-04-29T17:06:56Z</time>
      </trkpt>
      <trkpt lat="50.29722" lon="5.0998">
        <ele>257.13053522418</ele>
        <time>2017-04-29T17:07:01Z</time>
      </trkpt>
      <trkpt lat="50.29715" lon="5.09972">
        <ele>258.01302898226</ele>
        <time>2017-04-29T17:07:05Z</time>
      </trkpt>
      <trkpt lat="50.29708" lon="5.09966">
        <ele>258.64803403603</ele>
        <time>2017-04-29T17:07:09Z</time>
      </trkpt>
      <trkpt lat="50.297" lon="5.09961">
        <ele>259.44949752568</ele>
        <time>2017-04-29T17:07:13Z</time>
      </trkpt>
      <trkpt lat="50.29692" lon="5.09955">
        <ele>260.25624694346</ele>
        <time>2017-04-29T17:07:17Z</time>
      </trkpt>
      <trkpt lat="50.29682" lon="5.09945">
        <ele>261.03268987609</ele>
        <time>2017-04-29T17:07:22Z</time>
      </trkpt>
      <trkpt lat="50.2967" lon="5.09934">
        <ele>261.81184458907</ele>
        <time>2017-04-29T17:07:27Z</time>
      </trkpt>
      <trkpt lat="50.29661" lon="5.09925">
        <ele>262.38989864221</ele>
        <time>2017-04-29T17:07:31Z</time>
      </trkpt>
      <trkpt lat="50.29648" lon="5.09914">
        <ele>263.07123593286</ele>
        <time>2017-04-29T17:07:36Z</time>
      </trkpt>
      <trkpt lat="50.29636" lon="5.09903">
        <ele>263.67002156953</ele>
        <time>2017-04-29T17:07:40Z</time>
      </trkpt>
      <trkpt lat="50.29627" lon="5.09893">
        <ele>264.17648638189</ele>
        <time>2017-04-29T17:07:44Z</time>
      </trkpt>
      <trkpt lat="50.29617" lon="5.09888">
        <ele>264.47822846136</ele>
        <time>2017-04-29T17:07:48Z</time>
      </trkpt>
      <trkpt lat="50.29603" lon="5.09869">
        <ele>264.95256473065</ele>
        <time>2017-04-29T17:07:52Z</time>
      </trkpt>
      <trkpt lat="50.29589" lon="5.09851">
        <ele>262.21487640546</ele>
        <time>2017-04-29T17:07:56Z</time>
      </trkpt>
      <trkpt lat="50.29578" lon="5.09834">
        <ele>262.63069866608</ele>
        <time>2017-04-29T17:08:00Z</time>
      </trkpt>
      <trkpt lat="50.29568" lon="5.0982">
        <ele>262.22254183717</ele>
        <time>2017-04-29T17:08:04Z</time>
      </trkpt>
      <trkpt lat="50.29557" lon="5.09803">
        <ele>260.79201358818</ele>
        <time>2017-04-29T17:08:09Z</time>
      </trkpt>
      <trkpt lat="50.29541" lon="5.09782">
        <ele>255.77356964733</ele>
        <time>2017-04-29T17:08:13Z</time>
      </trkpt>
      <trkpt lat="50.29525" lon="5.09762">
        <ele>251.98743114506</ele>
        <time>2017-04-29T17:08:17Z</time>
      </trkpt>
      <trkpt lat="50.29507" lon="5.09734">
        <ele>252.02820616195</ele>
        <time>2017-04-29T17:08:22Z</time>
      </trkpt>
      <trkpt lat="50.29491" lon="5.09709">
        <ele>252.25732765712</ele>
        <time>2017-04-29T17:08:26Z</time>
      </trkpt>
      <trkpt lat="50.2948" lon="5.09691">
        <ele>251.25298956146</ele>
        <time>2017-04-29T17:08:30Z</time>
      </trkpt>
      <trkpt lat="50.29472" lon="5.0968">
        <ele>250.88789642103</ele>
        <time>2017-04-29T17:08:34Z</time>
      </trkpt>
      <trkpt lat="50.2946" lon="5.09667">
        <ele>250.70312561257</ele>
        <time>2017-04-29T17:08:38Z</time>
      </trkpt>
      <trkpt lat="50.29444" lon="5.09647">
        <ele>250.57197215864</ele>
        <time>2017-04-29T17:08:43Z</time>
      </trkpt>
      <trkpt lat="50.29427" lon="5.09627">
        <ele>252.91721053436</ele>
        <time>2017-04-29T17:08:48Z</time>
      </trkpt>
    </trkseg>
  </trk>
</gpx>